<?xml version="1.0" encoding="UTF-8" standalone="no" ?>
<gpx xmlns="http://www.topografix.com/GPX/1/1" xmlns:xsi="http://www.w3.org/2001/XMLSchema-instance" xsi:schemaLocation="http://www.topografix.com/GPX/1/1 http://www.topografix.com/GPX/1/1/gpx.xsd" version="1.1" creator="VisuGPX - https://www.visugpx.com">
  <metadata>
    <name>Nézel (78)</name>
    <desc><![CDATA[Randonnée de 19 km en boucle à partir de la gare de Nézel]]></desc>
  </metadata>
  <trk>
    <name><![CDATA[Nézel_R]]></name>
    <trkseg>
      <trkpt lat="48.93888" lon="1.84084">
        <ele>24.56</ele>
        <time>2018-01-21T08:28:43Z</time>
      </trkpt>
      <trkpt lat="48.93888" lon="1.84084">
        <ele>24.56</ele>
        <time>2018-01-21T08:28:44Z</time>
      </trkpt>
      <trkpt lat="48.93888" lon="1.84084">
        <ele>27.82</ele>
        <time>2018-01-21T08:28:47Z</time>
      </trkpt>
      <trkpt lat="48.93888" lon="1.84084">
        <ele>27.82</ele>
        <time>2018-01-21T08:28:48Z</time>
      </trkpt>
      <trkpt lat="48.93888" lon="1.84085">
        <ele>28.88</ele>
        <time>2018-01-21T08:29:14Z</time>
      </trkpt>
      <trkpt lat="48.93886" lon="1.84086">
        <ele>28.23</ele>
        <time>2018-01-21T08:29:31Z</time>
      </trkpt>
      <trkpt lat="48.93886" lon="1.84088">
        <ele>27.94</ele>
        <time>2018-01-21T08:29:49Z</time>
      </trkpt>
      <trkpt lat="48.93882" lon="1.84092">
        <ele>28.19</ele>
        <time>2018-01-21T08:30:07Z</time>
      </trkpt>
      <trkpt lat="48.93879" lon="1.8409">
        <ele>28.02</ele>
        <time>2018-01-21T08:30:23Z</time>
      </trkpt>
      <trkpt lat="48.93882" lon="1.84091">
        <ele>28.01</ele>
        <time>2018-01-21T08:30:45Z</time>
      </trkpt>
      <trkpt lat="48.93883" lon="1.8409">
        <ele>27.51</ele>
        <time>2018-01-21T08:31:11Z</time>
      </trkpt>
      <trkpt lat="48.93883" lon="1.8409">
        <ele>27.72</ele>
        <time>2018-01-21T08:31:34Z</time>
      </trkpt>
      <trkpt lat="48.9388" lon="1.84089">
        <ele>27.3</ele>
        <time>2018-01-21T08:31:51Z</time>
      </trkpt>
      <trkpt lat="48.93869" lon="1.84091">
        <ele>27.44</ele>
        <time>2018-01-21T08:32:06Z</time>
      </trkpt>
      <trkpt lat="48.93865" lon="1.84094">
        <ele>27.58</ele>
        <time>2018-01-21T08:32:20Z</time>
      </trkpt>
      <trkpt lat="48.9386" lon="1.84101">
        <ele>27.8</ele>
        <time>2018-01-21T08:32:33Z</time>
      </trkpt>
      <trkpt lat="48.93855" lon="1.84125">
        <ele>28.59</ele>
        <time>2018-01-21T08:32:51Z</time>
      </trkpt>
      <trkpt lat="48.93851" lon="1.84128">
        <ele>28.41</ele>
        <time>2018-01-21T08:32:55Z</time>
      </trkpt>
      <trkpt lat="48.9383" lon="1.84137">
        <ele>28.67</ele>
        <time>2018-01-21T08:33:15Z</time>
      </trkpt>
      <trkpt lat="48.93811" lon="1.84148">
        <ele>28.61</ele>
        <time>2018-01-21T08:33:35Z</time>
      </trkpt>
      <trkpt lat="48.93793" lon="1.84158">
        <ele>28.29</ele>
        <time>2018-01-21T08:33:52Z</time>
      </trkpt>
      <trkpt lat="48.93776" lon="1.84167">
        <ele>28.43</ele>
        <time>2018-01-21T08:34:07Z</time>
      </trkpt>
      <trkpt lat="48.93773" lon="1.84169">
        <ele>28.88</ele>
        <time>2018-01-21T08:34:14Z</time>
      </trkpt>
      <trkpt lat="48.93764" lon="1.8417">
        <ele>28.64</ele>
        <time>2018-01-21T08:34:21Z</time>
      </trkpt>
      <trkpt lat="48.93742" lon="1.8418">
        <ele>29.68</ele>
        <time>2018-01-21T08:34:38Z</time>
      </trkpt>
      <trkpt lat="48.93727" lon="1.84196">
        <ele>29.62</ele>
        <time>2018-01-21T08:34:55Z</time>
      </trkpt>
      <trkpt lat="48.93712" lon="1.84215">
        <ele>30.14</ele>
        <time>2018-01-21T08:35:11Z</time>
      </trkpt>
      <trkpt lat="48.93711" lon="1.84217">
        <ele>30.14</ele>
        <time>2018-01-21T08:35:12Z</time>
      </trkpt>
      <trkpt lat="48.93697" lon="1.84238">
        <ele>30.11</ele>
        <time>2018-01-21T08:35:28Z</time>
      </trkpt>
      <trkpt lat="48.93696" lon="1.84245">
        <ele>29.84</ele>
        <time>2018-01-21T08:35:32Z</time>
      </trkpt>
      <trkpt lat="48.93709" lon="1.84265">
        <ele>31.23</ele>
        <time>2018-01-21T08:35:47Z</time>
      </trkpt>
      <trkpt lat="48.93717" lon="1.84284">
        <ele>31.06</ele>
        <time>2018-01-21T08:36:00Z</time>
      </trkpt>
      <trkpt lat="48.93726" lon="1.84306">
        <ele>32.74</ele>
        <time>2018-01-21T08:36:14Z</time>
      </trkpt>
      <trkpt lat="48.93729" lon="1.84313">
        <ele>33.72</ele>
        <time>2018-01-21T08:36:18Z</time>
      </trkpt>
      <trkpt lat="48.93731" lon="1.84319">
        <ele>33.72</ele>
        <time>2018-01-21T08:36:22Z</time>
      </trkpt>
      <trkpt lat="48.93733" lon="1.84323">
        <ele>33.39</ele>
        <time>2018-01-21T08:36:25Z</time>
      </trkpt>
      <trkpt lat="48.93742" lon="1.84335">
        <ele>33.8</ele>
        <time>2018-01-21T08:36:41Z</time>
      </trkpt>
      <trkpt lat="48.93746" lon="1.84352">
        <ele>33.77</ele>
        <time>2018-01-21T08:37:00Z</time>
      </trkpt>
      <trkpt lat="48.93754" lon="1.84374">
        <ele>32.85</ele>
        <time>2018-01-21T08:37:21Z</time>
      </trkpt>
      <trkpt lat="48.93761" lon="1.84391">
        <ele>32.92</ele>
        <time>2018-01-21T08:37:37Z</time>
      </trkpt>
      <trkpt lat="48.93768" lon="1.84416">
        <ele>33.05</ele>
        <time>2018-01-21T08:37:58Z</time>
      </trkpt>
      <trkpt lat="48.93771" lon="1.84422">
        <ele>34.16</ele>
        <time>2018-01-21T08:38:05Z</time>
      </trkpt>
      <trkpt lat="48.93782" lon="1.84414">
        <ele>35.29</ele>
        <time>2018-01-21T08:38:22Z</time>
      </trkpt>
      <trkpt lat="48.93795" lon="1.84405">
        <ele>37.3</ele>
        <time>2018-01-21T08:38:44Z</time>
      </trkpt>
      <trkpt lat="48.93805" lon="1.84399">
        <ele>38.95</ele>
        <time>2018-01-21T08:39:01Z</time>
      </trkpt>
      <trkpt lat="48.93817" lon="1.84394">
        <ele>41.17</ele>
        <time>2018-01-21T08:39:19Z</time>
      </trkpt>
      <trkpt lat="48.93828" lon="1.84397">
        <ele>41.86</ele>
        <time>2018-01-21T08:39:37Z</time>
      </trkpt>
      <trkpt lat="48.93829" lon="1.84399">
        <ele>43.39</ele>
        <time>2018-01-21T08:39:40Z</time>
      </trkpt>
      <trkpt lat="48.93833" lon="1.84405">
        <ele>43.61</ele>
        <time>2018-01-21T08:39:49Z</time>
      </trkpt>
      <trkpt lat="48.93835" lon="1.84408">
        <ele>43.62</ele>
        <time>2018-01-21T08:39:52Z</time>
      </trkpt>
      <trkpt lat="48.93851" lon="1.84411">
        <ele>44.91</ele>
        <time>2018-01-21T08:40:09Z</time>
      </trkpt>
      <trkpt lat="48.93854" lon="1.84411">
        <ele>44.86</ele>
        <time>2018-01-21T08:40:33Z</time>
      </trkpt>
      <trkpt lat="48.93867" lon="1.84411">
        <ele>46.72</ele>
        <time>2018-01-21T08:40:53Z</time>
      </trkpt>
      <trkpt lat="48.93882" lon="1.84409">
        <ele>48.34</ele>
        <time>2018-01-21T08:41:12Z</time>
      </trkpt>
      <trkpt lat="48.93887" lon="1.84412">
        <ele>47.99</ele>
        <time>2018-01-21T08:41:32Z</time>
      </trkpt>
      <trkpt lat="48.93892" lon="1.84412">
        <ele>48.73</ele>
        <time>2018-01-21T08:41:38Z</time>
      </trkpt>
      <trkpt lat="48.93907" lon="1.84415">
        <ele>51.37</ele>
        <time>2018-01-21T08:41:53Z</time>
      </trkpt>
      <trkpt lat="48.9392" lon="1.84419">
        <ele>53.64</ele>
        <time>2018-01-21T08:42:06Z</time>
      </trkpt>
      <trkpt lat="48.9393" lon="1.8443">
        <ele>54.46</ele>
        <time>2018-01-21T08:42:21Z</time>
      </trkpt>
      <trkpt lat="48.93933" lon="1.84431">
        <ele>55.42</ele>
        <time>2018-01-21T08:42:54Z</time>
      </trkpt>
      <trkpt lat="48.93941" lon="1.84442">
        <ele>57.37</ele>
        <time>2018-01-21T08:43:12Z</time>
      </trkpt>
      <trkpt lat="48.93954" lon="1.8445">
        <ele>59.24</ele>
        <time>2018-01-21T08:43:31Z</time>
      </trkpt>
      <trkpt lat="48.93964" lon="1.84456">
        <ele>61.49</ele>
        <time>2018-01-21T08:43:51Z</time>
      </trkpt>
      <trkpt lat="48.93974" lon="1.84459">
        <ele>63.84</ele>
        <time>2018-01-21T08:44:12Z</time>
      </trkpt>
      <trkpt lat="48.93985" lon="1.8446">
        <ele>66.41</ele>
        <time>2018-01-21T08:44:34Z</time>
      </trkpt>
      <trkpt lat="48.93993" lon="1.84463">
        <ele>68.57</ele>
        <time>2018-01-21T08:44:55Z</time>
      </trkpt>
      <trkpt lat="48.94" lon="1.84465">
        <ele>70.35</ele>
        <time>2018-01-21T08:45:15Z</time>
      </trkpt>
      <trkpt lat="48.94011" lon="1.84471">
        <ele>73.08</ele>
        <time>2018-01-21T08:45:39Z</time>
      </trkpt>
      <trkpt lat="48.94017" lon="1.84483">
        <ele>74.31</ele>
        <time>2018-01-21T08:45:58Z</time>
      </trkpt>
      <trkpt lat="48.94025" lon="1.84487">
        <ele>75.82</ele>
        <time>2018-01-21T08:46:20Z</time>
      </trkpt>
      <trkpt lat="48.94028" lon="1.84487">
        <ele>77.05</ele>
        <time>2018-01-21T08:46:28Z</time>
      </trkpt>
      <trkpt lat="48.94033" lon="1.84478">
        <ele>77.97</ele>
        <time>2018-01-21T08:46:49Z</time>
      </trkpt>
      <trkpt lat="48.94036" lon="1.84465">
        <ele>77.16</ele>
        <time>2018-01-21T08:47:07Z</time>
      </trkpt>
      <trkpt lat="48.94039" lon="1.84438">
        <ele>76.73</ele>
        <time>2018-01-21T08:47:30Z</time>
      </trkpt>
      <trkpt lat="48.94045" lon="1.84413">
        <ele>75.64</ele>
        <time>2018-01-21T08:47:51Z</time>
      </trkpt>
      <trkpt lat="48.94055" lon="1.84386">
        <ele>74.25</ele>
        <time>2018-01-21T08:48:14Z</time>
      </trkpt>
      <trkpt lat="48.94064" lon="1.84362">
        <ele>72.37</ele>
        <time>2018-01-21T08:48:37Z</time>
      </trkpt>
      <trkpt lat="48.94076" lon="1.8434">
        <ele>71.67</ele>
        <time>2018-01-21T08:48:58Z</time>
      </trkpt>
      <trkpt lat="48.94096" lon="1.84323">
        <ele>72.08</ele>
        <time>2018-01-21T08:49:18Z</time>
      </trkpt>
      <trkpt lat="48.94113" lon="1.84307">
        <ele>71.48</ele>
        <time>2018-01-21T08:49:40Z</time>
      </trkpt>
      <trkpt lat="48.94131" lon="1.84291">
        <ele>71.18</ele>
        <time>2018-01-21T08:50:01Z</time>
      </trkpt>
      <trkpt lat="48.94147" lon="1.84272">
        <ele>70.03</ele>
        <time>2018-01-21T08:50:20Z</time>
      </trkpt>
      <trkpt lat="48.94153" lon="1.84266">
        <ele>70.37</ele>
        <time>2018-01-21T08:50:28Z</time>
      </trkpt>
      <trkpt lat="48.94163" lon="1.84254">
        <ele>69.31</ele>
        <time>2018-01-21T08:50:49Z</time>
      </trkpt>
      <trkpt lat="48.94179" lon="1.8425">
        <ele>68.55</ele>
        <time>2018-01-21T08:51:10Z</time>
      </trkpt>
      <trkpt lat="48.94193" lon="1.84234">
        <ele>70.37</ele>
        <time>2018-01-21T08:51:29Z</time>
      </trkpt>
      <trkpt lat="48.94199" lon="1.84234">
        <ele>71.12</ele>
        <time>2018-01-21T08:51:34Z</time>
      </trkpt>
      <trkpt lat="48.94222" lon="1.84241">
        <ele>71</ele>
        <time>2018-01-21T08:51:53Z</time>
      </trkpt>
      <trkpt lat="48.94243" lon="1.84257">
        <ele>71.49</ele>
        <time>2018-01-21T08:52:10Z</time>
      </trkpt>
      <trkpt lat="48.94256" lon="1.84251">
        <ele>72.37</ele>
        <time>2018-01-21T08:52:29Z</time>
      </trkpt>
      <trkpt lat="48.94272" lon="1.84238">
        <ele>73.11</ele>
        <time>2018-01-21T08:52:49Z</time>
      </trkpt>
      <trkpt lat="48.94293" lon="1.84228">
        <ele>73.55</ele>
        <time>2018-01-21T08:53:09Z</time>
      </trkpt>
      <trkpt lat="48.94309" lon="1.84216">
        <ele>73.84</ele>
        <time>2018-01-21T08:53:28Z</time>
      </trkpt>
      <trkpt lat="48.94325" lon="1.84207">
        <ele>73.45</ele>
        <time>2018-01-21T08:53:46Z</time>
      </trkpt>
      <trkpt lat="48.94343" lon="1.84192">
        <ele>73.71</ele>
        <time>2018-01-21T08:54:07Z</time>
      </trkpt>
      <trkpt lat="48.94368" lon="1.84184">
        <ele>75.43</ele>
        <time>2018-01-21T08:54:29Z</time>
      </trkpt>
      <trkpt lat="48.9438" lon="1.84176">
        <ele>75.49</ele>
        <time>2018-01-21T08:54:45Z</time>
      </trkpt>
      <trkpt lat="48.94399" lon="1.84157">
        <ele>75.24</ele>
        <time>2018-01-21T08:55:04Z</time>
      </trkpt>
      <trkpt lat="48.94411" lon="1.84142">
        <ele>74.5</ele>
        <time>2018-01-21T08:55:18Z</time>
      </trkpt>
      <trkpt lat="48.9443" lon="1.84126">
        <ele>72.45</ele>
        <time>2018-01-21T08:55:39Z</time>
      </trkpt>
      <trkpt lat="48.94447" lon="1.84108">
        <ele>70.77</ele>
        <time>2018-01-21T08:55:59Z</time>
      </trkpt>
      <trkpt lat="48.94471" lon="1.84087">
        <ele>68.99</ele>
        <time>2018-01-21T08:56:21Z</time>
      </trkpt>
      <trkpt lat="48.94474" lon="1.84079">
        <ele>68.89</ele>
        <time>2018-01-21T08:56:25Z</time>
      </trkpt>
      <trkpt lat="48.94481" lon="1.84061">
        <ele>67.65</ele>
        <time>2018-01-21T08:56:38Z</time>
      </trkpt>
      <trkpt lat="48.94489" lon="1.84042">
        <ele>66.34</ele>
        <time>2018-01-21T08:56:49Z</time>
      </trkpt>
      <trkpt lat="48.94503" lon="1.84023">
        <ele>65.33</ele>
        <time>2018-01-21T08:57:06Z</time>
      </trkpt>
      <trkpt lat="48.94511" lon="1.84018">
        <ele>64.55</ele>
        <time>2018-01-21T08:57:22Z</time>
      </trkpt>
      <trkpt lat="48.94518" lon="1.84014">
        <ele>64.15</ele>
        <time>2018-01-21T08:57:33Z</time>
      </trkpt>
      <trkpt lat="48.94524" lon="1.84009">
        <ele>64.07</ele>
        <time>2018-01-21T08:57:39Z</time>
      </trkpt>
      <trkpt lat="48.94532" lon="1.84002">
        <ele>64.49</ele>
        <time>2018-01-21T08:57:56Z</time>
      </trkpt>
      <trkpt lat="48.94539" lon="1.84001">
        <ele>64.21</ele>
        <time>2018-01-21T08:58:20Z</time>
      </trkpt>
      <trkpt lat="48.94551" lon="1.83991">
        <ele>63.77</ele>
        <time>2018-01-21T08:58:37Z</time>
      </trkpt>
      <trkpt lat="48.94569" lon="1.83977">
        <ele>64.39</ele>
        <time>2018-01-21T08:58:58Z</time>
      </trkpt>
      <trkpt lat="48.94586" lon="1.83964">
        <ele>63.34</ele>
        <time>2018-01-21T08:59:16Z</time>
      </trkpt>
      <trkpt lat="48.94601" lon="1.83948">
        <ele>62.41</ele>
        <time>2018-01-21T08:59:38Z</time>
      </trkpt>
      <trkpt lat="48.94628" lon="1.83935">
        <ele>62.12</ele>
        <time>2018-01-21T08:59:59Z</time>
      </trkpt>
      <trkpt lat="48.94641" lon="1.83925">
        <ele>61.05</ele>
        <time>2018-01-21T09:00:18Z</time>
      </trkpt>
      <trkpt lat="48.94654" lon="1.83909">
        <ele>59.97</ele>
        <time>2018-01-21T09:00:41Z</time>
      </trkpt>
      <trkpt lat="48.94677" lon="1.83894">
        <ele>59.71</ele>
        <time>2018-01-21T09:01:01Z</time>
      </trkpt>
      <trkpt lat="48.94692" lon="1.83882">
        <ele>59.26</ele>
        <time>2018-01-21T09:01:20Z</time>
      </trkpt>
      <trkpt lat="48.94713" lon="1.83872">
        <ele>58.03</ele>
        <time>2018-01-21T09:01:42Z</time>
      </trkpt>
      <trkpt lat="48.94731" lon="1.83854">
        <ele>58.25</ele>
        <time>2018-01-21T09:02:07Z</time>
      </trkpt>
      <trkpt lat="48.94753" lon="1.83849">
        <ele>57.1</ele>
        <time>2018-01-21T09:02:30Z</time>
      </trkpt>
      <trkpt lat="48.94775" lon="1.83846">
        <ele>55.44</ele>
        <time>2018-01-21T09:02:53Z</time>
      </trkpt>
      <trkpt lat="48.94799" lon="1.83834">
        <ele>55.21</ele>
        <time>2018-01-21T09:03:13Z</time>
      </trkpt>
      <trkpt lat="48.94816" lon="1.8383">
        <ele>54.53</ele>
        <time>2018-01-21T09:03:37Z</time>
      </trkpt>
      <trkpt lat="48.9483" lon="1.83822">
        <ele>53.82</ele>
        <time>2018-01-21T09:03:57Z</time>
      </trkpt>
      <trkpt lat="48.94847" lon="1.83819">
        <ele>54.03</ele>
        <time>2018-01-21T09:04:16Z</time>
      </trkpt>
      <trkpt lat="48.94864" lon="1.83811">
        <ele>53.18</ele>
        <time>2018-01-21T09:04:40Z</time>
      </trkpt>
      <trkpt lat="48.94889" lon="1.83802">
        <ele>53.59</ele>
        <time>2018-01-21T09:05:05Z</time>
      </trkpt>
      <trkpt lat="48.94917" lon="1.83802">
        <ele>54.59</ele>
        <time>2018-01-21T09:05:26Z</time>
      </trkpt>
      <trkpt lat="48.94933" lon="1.83796">
        <ele>54.81</ele>
        <time>2018-01-21T09:05:48Z</time>
      </trkpt>
      <trkpt lat="48.94953" lon="1.83803">
        <ele>54.75</ele>
        <time>2018-01-21T09:06:12Z</time>
      </trkpt>
      <trkpt lat="48.94975" lon="1.83805">
        <ele>55.82</ele>
        <time>2018-01-21T09:06:34Z</time>
      </trkpt>
      <trkpt lat="48.95001" lon="1.83817">
        <ele>56.88</ele>
        <time>2018-01-21T09:06:55Z</time>
      </trkpt>
      <trkpt lat="48.95009" lon="1.83823">
        <ele>56.08</ele>
        <time>2018-01-21T09:07:06Z</time>
      </trkpt>
      <trkpt lat="48.9503" lon="1.83813">
        <ele>55.86</ele>
        <time>2018-01-21T09:07:29Z</time>
      </trkpt>
      <trkpt lat="48.95047" lon="1.83814">
        <ele>54.3</ele>
        <time>2018-01-21T09:07:52Z</time>
      </trkpt>
      <trkpt lat="48.95069" lon="1.83827">
        <ele>54.28</ele>
        <time>2018-01-21T09:08:11Z</time>
      </trkpt>
      <trkpt lat="48.95086" lon="1.83838">
        <ele>53.45</ele>
        <time>2018-01-21T09:08:31Z</time>
      </trkpt>
      <trkpt lat="48.95099" lon="1.83854">
        <ele>54.93</ele>
        <time>2018-01-21T09:08:54Z</time>
      </trkpt>
      <trkpt lat="48.95106" lon="1.83859">
        <ele>54.98</ele>
        <time>2018-01-21T09:09:04Z</time>
      </trkpt>
      <trkpt lat="48.9512" lon="1.83877">
        <ele>54.6</ele>
        <time>2018-01-21T09:09:27Z</time>
      </trkpt>
      <trkpt lat="48.95126" lon="1.83884">
        <ele>54.71</ele>
        <time>2018-01-21T09:09:34Z</time>
      </trkpt>
      <trkpt lat="48.95139" lon="1.83916">
        <ele>55.58</ele>
        <time>2018-01-21T09:09:57Z</time>
      </trkpt>
      <trkpt lat="48.95147" lon="1.83943">
        <ele>55.43</ele>
        <time>2018-01-21T09:10:18Z</time>
      </trkpt>
      <trkpt lat="48.95159" lon="1.83965">
        <ele>54.75</ele>
        <time>2018-01-21T09:10:39Z</time>
      </trkpt>
      <trkpt lat="48.95168" lon="1.83983">
        <ele>54.2</ele>
        <time>2018-01-21T09:11:00Z</time>
      </trkpt>
      <trkpt lat="48.95168" lon="1.83984">
        <ele>54.03</ele>
        <time>2018-01-21T09:11:01Z</time>
      </trkpt>
      <trkpt lat="48.95179" lon="1.84001">
        <ele>54.14</ele>
        <time>2018-01-21T09:11:22Z</time>
      </trkpt>
      <trkpt lat="48.95187" lon="1.84005">
        <ele>54.15</ele>
        <time>2018-01-21T09:11:27Z</time>
      </trkpt>
      <trkpt lat="48.95201" lon="1.84018">
        <ele>53.96</ele>
        <time>2018-01-21T09:11:54Z</time>
      </trkpt>
      <trkpt lat="48.95204" lon="1.84024">
        <ele>54.47</ele>
        <time>2018-01-21T09:12:17Z</time>
      </trkpt>
      <trkpt lat="48.9521" lon="1.84032">
        <ele>54.99</ele>
        <time>2018-01-21T09:12:41Z</time>
      </trkpt>
      <trkpt lat="48.95217" lon="1.84046">
        <ele>54.43</ele>
        <time>2018-01-21T09:13:02Z</time>
      </trkpt>
      <trkpt lat="48.95231" lon="1.84059">
        <ele>55.37</ele>
        <time>2018-01-21T09:13:24Z</time>
      </trkpt>
      <trkpt lat="48.95234" lon="1.8406">
        <ele>56.13</ele>
        <time>2018-01-21T09:13:29Z</time>
      </trkpt>
      <trkpt lat="48.95247" lon="1.84076">
        <ele>55.77</ele>
        <time>2018-01-21T09:13:51Z</time>
      </trkpt>
      <trkpt lat="48.95248" lon="1.84077">
        <ele>56.43</ele>
        <time>2018-01-21T09:13:53Z</time>
      </trkpt>
      <trkpt lat="48.95252" lon="1.84079">
        <ele>55.78</ele>
        <time>2018-01-21T09:13:57Z</time>
      </trkpt>
      <trkpt lat="48.95277" lon="1.84086">
        <ele>55.18</ele>
        <time>2018-01-21T09:14:21Z</time>
      </trkpt>
      <trkpt lat="48.95278" lon="1.84086">
        <ele>55.02</ele>
        <time>2018-01-21T09:14:22Z</time>
      </trkpt>
      <trkpt lat="48.95294" lon="1.84079">
        <ele>55.39</ele>
        <time>2018-01-21T09:14:49Z</time>
      </trkpt>
      <trkpt lat="48.95297" lon="1.84085">
        <ele>55.4</ele>
        <time>2018-01-21T09:15:19Z</time>
      </trkpt>
      <trkpt lat="48.95295" lon="1.84085">
        <ele>60.06</ele>
        <time>2018-01-21T09:21:28Z</time>
      </trkpt>
      <trkpt lat="48.95294" lon="1.84089">
        <ele>60.32</ele>
        <time>2018-01-21T09:21:54Z</time>
      </trkpt>
      <trkpt lat="48.95292" lon="1.84103">
        <ele>62.98</ele>
        <time>2018-01-21T09:22:40Z</time>
      </trkpt>
      <trkpt lat="48.95288" lon="1.84116">
        <ele>64.84</ele>
        <time>2018-01-21T09:22:58Z</time>
      </trkpt>
      <trkpt lat="48.9528" lon="1.84125">
        <ele>67.95</ele>
        <time>2018-01-21T09:23:18Z</time>
      </trkpt>
      <trkpt lat="48.95278" lon="1.84132">
        <ele>69.21</ele>
        <time>2018-01-21T09:23:29Z</time>
      </trkpt>
      <trkpt lat="48.95258" lon="1.84163">
        <ele>74.38</ele>
        <time>2018-01-21T09:24:07Z</time>
      </trkpt>
      <trkpt lat="48.95261" lon="1.84176">
        <ele>77.39</ele>
        <time>2018-01-21T09:24:29Z</time>
      </trkpt>
      <trkpt lat="48.95256" lon="1.84192">
        <ele>79.67</ele>
        <time>2018-01-21T09:24:53Z</time>
      </trkpt>
      <trkpt lat="48.95259" lon="1.84211">
        <ele>82.51</ele>
        <time>2018-01-21T09:25:18Z</time>
      </trkpt>
      <trkpt lat="48.95266" lon="1.84227">
        <ele>82.61</ele>
        <time>2018-01-21T09:25:37Z</time>
      </trkpt>
      <trkpt lat="48.95286" lon="1.84242">
        <ele>83.12</ele>
        <time>2018-01-21T09:25:59Z</time>
      </trkpt>
      <trkpt lat="48.95305" lon="1.84262">
        <ele>82.33</ele>
        <time>2018-01-21T09:26:22Z</time>
      </trkpt>
      <trkpt lat="48.95322" lon="1.84274">
        <ele>80.39</ele>
        <time>2018-01-21T09:26:43Z</time>
      </trkpt>
      <trkpt lat="48.95335" lon="1.84286">
        <ele>79.97</ele>
        <time>2018-01-21T09:27:03Z</time>
      </trkpt>
      <trkpt lat="48.95356" lon="1.84301">
        <ele>81.78</ele>
        <time>2018-01-21T09:27:24Z</time>
      </trkpt>
      <trkpt lat="48.95372" lon="1.84315">
        <ele>81.85</ele>
        <time>2018-01-21T09:27:42Z</time>
      </trkpt>
      <trkpt lat="48.95383" lon="1.84341">
        <ele>81.96</ele>
        <time>2018-01-21T09:28:01Z</time>
      </trkpt>
      <trkpt lat="48.95388" lon="1.84367">
        <ele>83.04</ele>
        <time>2018-01-21T09:28:20Z</time>
      </trkpt>
      <trkpt lat="48.95393" lon="1.84396">
        <ele>83.64</ele>
        <time>2018-01-21T09:28:42Z</time>
      </trkpt>
      <trkpt lat="48.95396" lon="1.84409">
        <ele>83.18</ele>
        <time>2018-01-21T09:29:03Z</time>
      </trkpt>
      <trkpt lat="48.95402" lon="1.84419">
        <ele>83.24</ele>
        <time>2018-01-21T09:29:25Z</time>
      </trkpt>
      <trkpt lat="48.95411" lon="1.84437">
        <ele>82.65</ele>
        <time>2018-01-21T09:29:45Z</time>
      </trkpt>
      <trkpt lat="48.95422" lon="1.8446">
        <ele>81.25</ele>
        <time>2018-01-21T09:30:02Z</time>
      </trkpt>
      <trkpt lat="48.95443" lon="1.84481">
        <ele>79.9</ele>
        <time>2018-01-21T09:30:24Z</time>
      </trkpt>
      <trkpt lat="48.95455" lon="1.84495">
        <ele>78.51</ele>
        <time>2018-01-21T09:30:40Z</time>
      </trkpt>
      <trkpt lat="48.95473" lon="1.84522">
        <ele>76.93</ele>
        <time>2018-01-21T09:31:02Z</time>
      </trkpt>
      <trkpt lat="48.95486" lon="1.84548">
        <ele>75.92</ele>
        <time>2018-01-21T09:31:22Z</time>
      </trkpt>
      <trkpt lat="48.95495" lon="1.84581">
        <ele>76.02</ele>
        <time>2018-01-21T09:31:44Z</time>
      </trkpt>
      <trkpt lat="48.95507" lon="1.84604">
        <ele>72.7</ele>
        <time>2018-01-21T09:32:04Z</time>
      </trkpt>
      <trkpt lat="48.95515" lon="1.84627">
        <ele>72.56</ele>
        <time>2018-01-21T09:32:22Z</time>
      </trkpt>
      <trkpt lat="48.95526" lon="1.84649">
        <ele>71.11</ele>
        <time>2018-01-21T09:32:41Z</time>
      </trkpt>
      <trkpt lat="48.95532" lon="1.84675">
        <ele>69.85</ele>
        <time>2018-01-21T09:33:01Z</time>
      </trkpt>
      <trkpt lat="48.95539" lon="1.84699">
        <ele>69.02</ele>
        <time>2018-01-21T09:33:20Z</time>
      </trkpt>
      <trkpt lat="48.95542" lon="1.84724">
        <ele>68.87</ele>
        <time>2018-01-21T09:33:42Z</time>
      </trkpt>
      <trkpt lat="48.9555" lon="1.84755">
        <ele>68.89</ele>
        <time>2018-01-21T09:34:06Z</time>
      </trkpt>
      <trkpt lat="48.95543" lon="1.84769">
        <ele>71.79</ele>
        <time>2018-01-21T09:34:28Z</time>
      </trkpt>
      <trkpt lat="48.95533" lon="1.84779">
        <ele>74.9</ele>
        <time>2018-01-21T09:34:49Z</time>
      </trkpt>
      <trkpt lat="48.95532" lon="1.84779">
        <ele>75.19</ele>
        <time>2018-01-21T09:34:50Z</time>
      </trkpt>
      <trkpt lat="48.95518" lon="1.84796">
        <ele>76.65</ele>
        <time>2018-01-21T09:35:11Z</time>
      </trkpt>
      <trkpt lat="48.95497" lon="1.84817">
        <ele>77.75</ele>
        <time>2018-01-21T09:35:33Z</time>
      </trkpt>
      <trkpt lat="48.95478" lon="1.8483">
        <ele>78.5</ele>
        <time>2018-01-21T09:35:53Z</time>
      </trkpt>
      <trkpt lat="48.95463" lon="1.84839">
        <ele>78.78</ele>
        <time>2018-01-21T09:36:18Z</time>
      </trkpt>
      <trkpt lat="48.95452" lon="1.8485">
        <ele>79.86</ele>
        <time>2018-01-21T09:36:39Z</time>
      </trkpt>
      <trkpt lat="48.95447" lon="1.84864">
        <ele>79.57</ele>
        <time>2018-01-21T09:36:58Z</time>
      </trkpt>
      <trkpt lat="48.95447" lon="1.84867">
        <ele>79.74</ele>
        <time>2018-01-21T09:37:18Z</time>
      </trkpt>
      <trkpt lat="48.95448" lon="1.84877">
        <ele>80.48</ele>
        <time>2018-01-21T09:37:40Z</time>
      </trkpt>
      <trkpt lat="48.95453" lon="1.84892">
        <ele>80.15</ele>
        <time>2018-01-21T09:37:56Z</time>
      </trkpt>
      <trkpt lat="48.95463" lon="1.84909">
        <ele>80.58</ele>
        <time>2018-01-21T09:38:15Z</time>
      </trkpt>
      <trkpt lat="48.95476" lon="1.84919">
        <ele>80.92</ele>
        <time>2018-01-21T09:38:34Z</time>
      </trkpt>
      <trkpt lat="48.95488" lon="1.84934">
        <ele>80.38</ele>
        <time>2018-01-21T09:38:53Z</time>
      </trkpt>
      <trkpt lat="48.95491" lon="1.84938">
        <ele>80.37</ele>
        <time>2018-01-21T09:39:22Z</time>
      </trkpt>
      <trkpt lat="48.95487" lon="1.84946">
        <ele>80.45</ele>
        <time>2018-01-21T09:39:30Z</time>
      </trkpt>
      <trkpt lat="48.95481" lon="1.84951">
        <ele>81.05</ele>
        <time>2018-01-21T09:39:36Z</time>
      </trkpt>
      <trkpt lat="48.95472" lon="1.84959">
        <ele>81.14</ele>
        <time>2018-01-21T09:39:46Z</time>
      </trkpt>
      <trkpt lat="48.95469" lon="1.84962">
        <ele>81.1</ele>
        <time>2018-01-21T09:39:49Z</time>
      </trkpt>
      <trkpt lat="48.95455" lon="1.84975">
        <ele>82.19</ele>
        <time>2018-01-21T09:40:06Z</time>
      </trkpt>
      <trkpt lat="48.95437" lon="1.84989">
        <ele>82.44</ele>
        <time>2018-01-21T09:40:24Z</time>
      </trkpt>
      <trkpt lat="48.95415" lon="1.85006">
        <ele>82.98</ele>
        <time>2018-01-21T09:40:43Z</time>
      </trkpt>
      <trkpt lat="48.95396" lon="1.85022">
        <ele>83.31</ele>
        <time>2018-01-21T09:41:00Z</time>
      </trkpt>
      <trkpt lat="48.95393" lon="1.85025">
        <ele>83.28</ele>
        <time>2018-01-21T09:41:04Z</time>
      </trkpt>
      <trkpt lat="48.95376" lon="1.85041">
        <ele>83.32</ele>
        <time>2018-01-21T09:41:20Z</time>
      </trkpt>
      <trkpt lat="48.95357" lon="1.85058">
        <ele>83.22</ele>
        <time>2018-01-21T09:41:38Z</time>
      </trkpt>
      <trkpt lat="48.95347" lon="1.85066">
        <ele>83.08</ele>
        <time>2018-01-21T09:41:49Z</time>
      </trkpt>
      <trkpt lat="48.95342" lon="1.8507">
        <ele>83.34</ele>
        <time>2018-01-21T09:41:55Z</time>
      </trkpt>
      <trkpt lat="48.95327" lon="1.85084">
        <ele>83.23</ele>
        <time>2018-01-21T09:42:09Z</time>
      </trkpt>
      <trkpt lat="48.95305" lon="1.851">
        <ele>83.65</ele>
        <time>2018-01-21T09:42:29Z</time>
      </trkpt>
      <trkpt lat="48.9529" lon="1.85112">
        <ele>83.51</ele>
        <time>2018-01-21T09:42:44Z</time>
      </trkpt>
      <trkpt lat="48.9527" lon="1.85127">
        <ele>83.95</ele>
        <time>2018-01-21T09:43:02Z</time>
      </trkpt>
      <trkpt lat="48.95253" lon="1.8514">
        <ele>84.16</ele>
        <time>2018-01-21T09:43:19Z</time>
      </trkpt>
      <trkpt lat="48.95239" lon="1.85151">
        <ele>84.73</ele>
        <time>2018-01-21T09:43:34Z</time>
      </trkpt>
      <trkpt lat="48.95229" lon="1.85158">
        <ele>84.27</ele>
        <time>2018-01-21T09:43:44Z</time>
      </trkpt>
      <trkpt lat="48.95213" lon="1.85173">
        <ele>84.35</ele>
        <time>2018-01-21T09:44:03Z</time>
      </trkpt>
      <trkpt lat="48.95212" lon="1.85174">
        <ele>84.32</ele>
        <time>2018-01-21T09:44:04Z</time>
      </trkpt>
      <trkpt lat="48.95196" lon="1.85191">
        <ele>85.07</ele>
        <time>2018-01-21T09:44:22Z</time>
      </trkpt>
      <trkpt lat="48.95185" lon="1.85209">
        <ele>85.87</ele>
        <time>2018-01-21T09:44:37Z</time>
      </trkpt>
      <trkpt lat="48.95173" lon="1.85227">
        <ele>85.54</ele>
        <time>2018-01-21T09:44:53Z</time>
      </trkpt>
      <trkpt lat="48.95158" lon="1.85243">
        <ele>86.9</ele>
        <time>2018-01-21T09:45:09Z</time>
      </trkpt>
      <trkpt lat="48.95143" lon="1.85257">
        <ele>87.12</ele>
        <time>2018-01-21T09:45:24Z</time>
      </trkpt>
      <trkpt lat="48.95139" lon="1.8526">
        <ele>86.6</ele>
        <time>2018-01-21T09:45:28Z</time>
      </trkpt>
      <trkpt lat="48.95133" lon="1.85266">
        <ele>87.34</ele>
        <time>2018-01-21T09:45:34Z</time>
      </trkpt>
      <trkpt lat="48.95115" lon="1.85284">
        <ele>87.46</ele>
        <time>2018-01-21T09:45:52Z</time>
      </trkpt>
      <trkpt lat="48.95097" lon="1.85301">
        <ele>88.64</ele>
        <time>2018-01-21T09:46:11Z</time>
      </trkpt>
      <trkpt lat="48.95093" lon="1.85316">
        <ele>88.85</ele>
        <time>2018-01-21T09:46:21Z</time>
      </trkpt>
      <trkpt lat="48.951" lon="1.85343">
        <ele>89.06</ele>
        <time>2018-01-21T09:46:39Z</time>
      </trkpt>
      <trkpt lat="48.95106" lon="1.8536">
        <ele>89.56</ele>
        <time>2018-01-21T09:46:55Z</time>
      </trkpt>
      <trkpt lat="48.95107" lon="1.85361">
        <ele>89.16</ele>
        <time>2018-01-21T09:47:11Z</time>
      </trkpt>
      <trkpt lat="48.95109" lon="1.85376">
        <ele>89.41</ele>
        <time>2018-01-21T09:47:22Z</time>
      </trkpt>
      <trkpt lat="48.9511" lon="1.854">
        <ele>89.39</ele>
        <time>2018-01-21T09:47:37Z</time>
      </trkpt>
      <trkpt lat="48.95111" lon="1.85426">
        <ele>89.11</ele>
        <time>2018-01-21T09:47:52Z</time>
      </trkpt>
      <trkpt lat="48.95113" lon="1.85451">
        <ele>89.36</ele>
        <time>2018-01-21T09:48:07Z</time>
      </trkpt>
      <trkpt lat="48.95115" lon="1.85479">
        <ele>88.98</ele>
        <time>2018-01-21T09:48:24Z</time>
      </trkpt>
      <trkpt lat="48.9512" lon="1.85507">
        <ele>89.24</ele>
        <time>2018-01-21T09:48:41Z</time>
      </trkpt>
      <trkpt lat="48.95133" lon="1.85538">
        <ele>88.44</ele>
        <time>2018-01-21T09:49:02Z</time>
      </trkpt>
      <trkpt lat="48.95146" lon="1.85565">
        <ele>87.7</ele>
        <time>2018-01-21T09:49:21Z</time>
      </trkpt>
      <trkpt lat="48.95158" lon="1.85586">
        <ele>88.38</ele>
        <time>2018-01-21T09:49:38Z</time>
      </trkpt>
      <trkpt lat="48.95172" lon="1.85615">
        <ele>87.92</ele>
        <time>2018-01-21T09:49:59Z</time>
      </trkpt>
      <trkpt lat="48.95184" lon="1.85643">
        <ele>87.18</ele>
        <time>2018-01-21T09:50:19Z</time>
      </trkpt>
      <trkpt lat="48.95196" lon="1.8567">
        <ele>87.37</ele>
        <time>2018-01-21T09:50:38Z</time>
      </trkpt>
      <trkpt lat="48.95207" lon="1.85691">
        <ele>86.79</ele>
        <time>2018-01-21T09:50:54Z</time>
      </trkpt>
      <trkpt lat="48.95218" lon="1.85712">
        <ele>86.71</ele>
        <time>2018-01-21T09:51:10Z</time>
      </trkpt>
      <trkpt lat="48.95225" lon="1.85724">
        <ele>86.7</ele>
        <time>2018-01-21T09:51:20Z</time>
      </trkpt>
      <trkpt lat="48.95232" lon="1.85734">
        <ele>86.47</ele>
        <time>2018-01-21T09:51:28Z</time>
      </trkpt>
      <trkpt lat="48.95228" lon="1.85764">
        <ele>86.92</ele>
        <time>2018-01-21T09:51:47Z</time>
      </trkpt>
      <trkpt lat="48.95219" lon="1.85783">
        <ele>86.81</ele>
        <time>2018-01-21T09:52:01Z</time>
      </trkpt>
      <trkpt lat="48.95209" lon="1.85799">
        <ele>88.05</ele>
        <time>2018-01-21T09:52:14Z</time>
      </trkpt>
      <trkpt lat="48.95194" lon="1.85821">
        <ele>88.33</ele>
        <time>2018-01-21T09:52:32Z</time>
      </trkpt>
      <trkpt lat="48.95178" lon="1.85845">
        <ele>88.59</ele>
        <time>2018-01-21T09:52:52Z</time>
      </trkpt>
      <trkpt lat="48.95164" lon="1.85865">
        <ele>88.72</ele>
        <time>2018-01-21T09:53:08Z</time>
      </trkpt>
      <trkpt lat="48.95153" lon="1.85882">
        <ele>89.77</ele>
        <time>2018-01-21T09:53:23Z</time>
      </trkpt>
      <trkpt lat="48.95141" lon="1.85901">
        <ele>90.4</ele>
        <time>2018-01-21T09:53:39Z</time>
      </trkpt>
      <trkpt lat="48.95129" lon="1.85921">
        <ele>90.51</ele>
        <time>2018-01-21T09:53:57Z</time>
      </trkpt>
      <trkpt lat="48.95115" lon="1.85942">
        <ele>91.53</ele>
        <time>2018-01-21T09:54:15Z</time>
      </trkpt>
      <trkpt lat="48.95101" lon="1.85962">
        <ele>91.25</ele>
        <time>2018-01-21T09:54:32Z</time>
      </trkpt>
      <trkpt lat="48.95088" lon="1.85984">
        <ele>91.98</ele>
        <time>2018-01-21T09:54:50Z</time>
      </trkpt>
      <trkpt lat="48.95074" lon="1.86004">
        <ele>92.2</ele>
        <time>2018-01-21T09:55:07Z</time>
      </trkpt>
      <trkpt lat="48.95061" lon="1.86024">
        <ele>92.25</ele>
        <time>2018-01-21T09:55:22Z</time>
      </trkpt>
      <trkpt lat="48.95051" lon="1.86039">
        <ele>92.89</ele>
        <time>2018-01-21T09:55:36Z</time>
      </trkpt>
      <trkpt lat="48.95039" lon="1.86057">
        <ele>93.01</ele>
        <time>2018-01-21T09:55:51Z</time>
      </trkpt>
      <trkpt lat="48.95033" lon="1.86066">
        <ele>92.44</ele>
        <time>2018-01-21T09:55:58Z</time>
      </trkpt>
      <trkpt lat="48.95018" lon="1.86088">
        <ele>92.88</ele>
        <time>2018-01-21T09:56:18Z</time>
      </trkpt>
      <trkpt lat="48.95013" lon="1.86094">
        <ele>93.05</ele>
        <time>2018-01-21T09:56:35Z</time>
      </trkpt>
      <trkpt lat="48.9501" lon="1.86097">
        <ele>93.47</ele>
        <time>2018-01-21T09:56:54Z</time>
      </trkpt>
      <trkpt lat="48.9501" lon="1.86113">
        <ele>93.87</ele>
        <time>2018-01-21T09:57:10Z</time>
      </trkpt>
      <trkpt lat="48.95011" lon="1.86121">
        <ele>93.56</ele>
        <time>2018-01-21T09:57:16Z</time>
      </trkpt>
      <trkpt lat="48.95012" lon="1.86124">
        <ele>93.7</ele>
        <time>2018-01-21T09:57:18Z</time>
      </trkpt>
      <trkpt lat="48.95014" lon="1.86126">
        <ele>93.89</ele>
        <time>2018-01-21T09:57:21Z</time>
      </trkpt>
      <trkpt lat="48.95016" lon="1.86129">
        <ele>94.62</ele>
        <time>2018-01-21T09:57:24Z</time>
      </trkpt>
      <trkpt lat="48.95036" lon="1.86145">
        <ele>94.07</ele>
        <time>2018-01-21T09:57:46Z</time>
      </trkpt>
      <trkpt lat="48.95052" lon="1.8616">
        <ele>93.78</ele>
        <time>2018-01-21T09:58:05Z</time>
      </trkpt>
      <trkpt lat="48.9507" lon="1.86175">
        <ele>93.86</ele>
        <time>2018-01-21T09:58:24Z</time>
      </trkpt>
      <trkpt lat="48.95086" lon="1.86188">
        <ele>93.83</ele>
        <time>2018-01-21T09:58:41Z</time>
      </trkpt>
      <trkpt lat="48.95102" lon="1.86202">
        <ele>92.88</ele>
        <time>2018-01-21T09:58:57Z</time>
      </trkpt>
      <trkpt lat="48.95123" lon="1.8622">
        <ele>92.85</ele>
        <time>2018-01-21T09:59:17Z</time>
      </trkpt>
      <trkpt lat="48.9514" lon="1.86223">
        <ele>91.91</ele>
        <time>2018-01-21T09:59:34Z</time>
      </trkpt>
      <trkpt lat="48.95152" lon="1.86217">
        <ele>91.28</ele>
        <time>2018-01-21T09:59:52Z</time>
      </trkpt>
      <trkpt lat="48.95166" lon="1.86207">
        <ele>91.35</ele>
        <time>2018-01-21T10:00:12Z</time>
      </trkpt>
      <trkpt lat="48.95178" lon="1.86203">
        <ele>90.66</ele>
        <time>2018-01-21T10:00:26Z</time>
      </trkpt>
      <trkpt lat="48.95187" lon="1.86207">
        <ele>91.19</ele>
        <time>2018-01-21T10:00:45Z</time>
      </trkpt>
      <trkpt lat="48.95191" lon="1.86214">
        <ele>90.63</ele>
        <time>2018-01-21T10:01:01Z</time>
      </trkpt>
      <trkpt lat="48.9519" lon="1.86221">
        <ele>90.98</ele>
        <time>2018-01-21T10:01:26Z</time>
      </trkpt>
      <trkpt lat="48.95187" lon="1.86223">
        <ele>91.4</ele>
        <time>2018-01-21T10:01:31Z</time>
      </trkpt>
      <trkpt lat="48.95174" lon="1.86232">
        <ele>91.66</ele>
        <time>2018-01-21T10:01:45Z</time>
      </trkpt>
      <trkpt lat="48.95172" lon="1.86234">
        <ele>91.97</ele>
        <time>2018-01-21T10:01:47Z</time>
      </trkpt>
      <trkpt lat="48.95166" lon="1.8624">
        <ele>92.57</ele>
        <time>2018-01-21T10:01:56Z</time>
      </trkpt>
      <trkpt lat="48.95166" lon="1.86242">
        <ele>92.81</ele>
        <time>2018-01-21T10:01:59Z</time>
      </trkpt>
      <trkpt lat="48.95164" lon="1.86263">
        <ele>93.68</ele>
        <time>2018-01-21T10:02:11Z</time>
      </trkpt>
      <trkpt lat="48.95177" lon="1.86278">
        <ele>93.73</ele>
        <time>2018-01-21T10:02:28Z</time>
      </trkpt>
      <trkpt lat="48.9518" lon="1.86282">
        <ele>94</ele>
        <time>2018-01-21T10:02:43Z</time>
      </trkpt>
      <trkpt lat="48.95183" lon="1.86284">
        <ele>93.78</ele>
        <time>2018-01-21T10:02:47Z</time>
      </trkpt>
      <trkpt lat="48.9519" lon="1.86291">
        <ele>93.46</ele>
        <time>2018-01-21T10:03:01Z</time>
      </trkpt>
      <trkpt lat="48.95194" lon="1.86295">
        <ele>93.75</ele>
        <time>2018-01-21T10:03:05Z</time>
      </trkpt>
      <trkpt lat="48.95204" lon="1.86302">
        <ele>93.29</ele>
        <time>2018-01-21T10:03:14Z</time>
      </trkpt>
      <trkpt lat="48.9522" lon="1.86314">
        <ele>92.85</ele>
        <time>2018-01-21T10:03:30Z</time>
      </trkpt>
      <trkpt lat="48.95231" lon="1.86321">
        <ele>93.32</ele>
        <time>2018-01-21T10:03:40Z</time>
      </trkpt>
      <trkpt lat="48.95252" lon="1.86339">
        <ele>92.52</ele>
        <time>2018-01-21T10:03:59Z</time>
      </trkpt>
      <trkpt lat="48.95256" lon="1.86351">
        <ele>92.53</ele>
        <time>2018-01-21T10:04:13Z</time>
      </trkpt>
      <trkpt lat="48.95256" lon="1.86357">
        <ele>92.71</ele>
        <time>2018-01-21T10:04:33Z</time>
      </trkpt>
      <trkpt lat="48.95257" lon="1.86358">
        <ele>93.51</ele>
        <time>2018-01-21T10:05:10Z</time>
      </trkpt>
      <trkpt lat="48.95256" lon="1.86358">
        <ele>93.49</ele>
        <time>2018-01-21T10:05:32Z</time>
      </trkpt>
      <trkpt lat="48.95256" lon="1.86358">
        <ele>93.53</ele>
        <time>2018-01-21T10:06:00Z</time>
      </trkpt>
      <trkpt lat="48.95256" lon="1.86358">
        <ele>93.41</ele>
        <time>2018-01-21T10:06:23Z</time>
      </trkpt>
      <trkpt lat="48.95256" lon="1.86358">
        <ele>93.4</ele>
        <time>2018-01-21T10:06:48Z</time>
      </trkpt>
      <trkpt lat="48.95256" lon="1.86358">
        <ele>93.73</ele>
        <time>2018-01-21T10:07:10Z</time>
      </trkpt>
      <trkpt lat="48.95255" lon="1.86358">
        <ele>93.7</ele>
        <time>2018-01-21T10:07:45Z</time>
      </trkpt>
      <trkpt lat="48.95255" lon="1.86358">
        <ele>94.01</ele>
        <time>2018-01-21T10:08:23Z</time>
      </trkpt>
      <trkpt lat="48.95254" lon="1.86361">
        <ele>94.25</ele>
        <time>2018-01-21T10:09:02Z</time>
      </trkpt>
      <trkpt lat="48.95254" lon="1.86363">
        <ele>94.41</ele>
        <time>2018-01-21T10:09:14Z</time>
      </trkpt>
      <trkpt lat="48.95251" lon="1.86366">
        <ele>94.04</ele>
        <time>2018-01-21T10:09:17Z</time>
      </trkpt>
      <trkpt lat="48.95238" lon="1.86388">
        <ele>93.81</ele>
        <time>2018-01-21T10:09:35Z</time>
      </trkpt>
      <trkpt lat="48.95237" lon="1.86392">
        <ele>94.17</ele>
        <time>2018-01-21T10:09:38Z</time>
      </trkpt>
      <trkpt lat="48.95234" lon="1.86397">
        <ele>93.93</ele>
        <time>2018-01-21T10:09:42Z</time>
      </trkpt>
      <trkpt lat="48.95226" lon="1.86409">
        <ele>94.11</ele>
        <time>2018-01-21T10:09:56Z</time>
      </trkpt>
      <trkpt lat="48.95224" lon="1.86412">
        <ele>93.94</ele>
        <time>2018-01-21T10:09:59Z</time>
      </trkpt>
      <trkpt lat="48.95209" lon="1.86443">
        <ele>94.25</ele>
        <time>2018-01-21T10:10:19Z</time>
      </trkpt>
      <trkpt lat="48.95196" lon="1.86467">
        <ele>94.8</ele>
        <time>2018-01-21T10:10:36Z</time>
      </trkpt>
      <trkpt lat="48.95185" lon="1.86486">
        <ele>94.64</ele>
        <time>2018-01-21T10:10:50Z</time>
      </trkpt>
      <trkpt lat="48.95191" lon="1.86504">
        <ele>94.43</ele>
        <time>2018-01-21T10:11:04Z</time>
      </trkpt>
      <trkpt lat="48.95194" lon="1.8651">
        <ele>94.15</ele>
        <time>2018-01-21T10:11:11Z</time>
      </trkpt>
      <trkpt lat="48.95195" lon="1.86514">
        <ele>93.74</ele>
        <time>2018-01-21T10:11:14Z</time>
      </trkpt>
      <trkpt lat="48.95197" lon="1.86522">
        <ele>94.13</ele>
        <time>2018-01-21T10:11:19Z</time>
      </trkpt>
      <trkpt lat="48.95209" lon="1.86546">
        <ele>93.53</ele>
        <time>2018-01-21T10:11:36Z</time>
      </trkpt>
      <trkpt lat="48.95221" lon="1.86572">
        <ele>93.11</ele>
        <time>2018-01-21T10:11:55Z</time>
      </trkpt>
      <trkpt lat="48.95234" lon="1.866">
        <ele>92.64</ele>
        <time>2018-01-21T10:12:14Z</time>
      </trkpt>
      <trkpt lat="48.95244" lon="1.86622">
        <ele>92.56</ele>
        <time>2018-01-21T10:12:29Z</time>
      </trkpt>
      <trkpt lat="48.95256" lon="1.86644">
        <ele>91.82</ele>
        <time>2018-01-21T10:12:45Z</time>
      </trkpt>
      <trkpt lat="48.95268" lon="1.86666">
        <ele>92.06</ele>
        <time>2018-01-21T10:13:01Z</time>
      </trkpt>
      <trkpt lat="48.9527" lon="1.86671">
        <ele>92.16</ele>
        <time>2018-01-21T10:13:05Z</time>
      </trkpt>
      <trkpt lat="48.95282" lon="1.86698">
        <ele>91.11</ele>
        <time>2018-01-21T10:13:23Z</time>
      </trkpt>
      <trkpt lat="48.95289" lon="1.86712">
        <ele>91.22</ele>
        <time>2018-01-21T10:13:38Z</time>
      </trkpt>
      <trkpt lat="48.9529" lon="1.86713">
        <ele>91.82</ele>
        <time>2018-01-21T10:13:39Z</time>
      </trkpt>
      <trkpt lat="48.95293" lon="1.8672">
        <ele>89.64</ele>
        <time>2018-01-21T10:13:45Z</time>
      </trkpt>
      <trkpt lat="48.95296" lon="1.86725">
        <ele>91.19</ele>
        <time>2018-01-21T10:13:49Z</time>
      </trkpt>
      <trkpt lat="48.95306" lon="1.86745">
        <ele>91.62</ele>
        <time>2018-01-21T10:14:05Z</time>
      </trkpt>
      <trkpt lat="48.95309" lon="1.86751">
        <ele>91.38</ele>
        <time>2018-01-21T10:14:15Z</time>
      </trkpt>
      <trkpt lat="48.95313" lon="1.86755">
        <ele>91.25</ele>
        <time>2018-01-21T10:14:19Z</time>
      </trkpt>
      <trkpt lat="48.95325" lon="1.86785">
        <ele>91.13</ele>
        <time>2018-01-21T10:14:39Z</time>
      </trkpt>
      <trkpt lat="48.95335" lon="1.8681">
        <ele>91.44</ele>
        <time>2018-01-21T10:14:54Z</time>
      </trkpt>
      <trkpt lat="48.95346" lon="1.86836">
        <ele>92.03</ele>
        <time>2018-01-21T10:15:12Z</time>
      </trkpt>
      <trkpt lat="48.95351" lon="1.86849">
        <ele>91.36</ele>
        <time>2018-01-21T10:15:24Z</time>
      </trkpt>
      <trkpt lat="48.95357" lon="1.86866">
        <ele>92.38</ele>
        <time>2018-01-21T10:15:35Z</time>
      </trkpt>
      <trkpt lat="48.95363" lon="1.86877">
        <ele>92.29</ele>
        <time>2018-01-21T10:15:43Z</time>
      </trkpt>
      <trkpt lat="48.95376" lon="1.86908">
        <ele>93.24</ele>
        <time>2018-01-21T10:16:03Z</time>
      </trkpt>
      <trkpt lat="48.95385" lon="1.86929">
        <ele>92.72</ele>
        <time>2018-01-21T10:16:17Z</time>
      </trkpt>
      <trkpt lat="48.95397" lon="1.86956">
        <ele>93.13</ele>
        <time>2018-01-21T10:16:35Z</time>
      </trkpt>
      <trkpt lat="48.95409" lon="1.86985">
        <ele>92.75</ele>
        <time>2018-01-21T10:16:54Z</time>
      </trkpt>
      <trkpt lat="48.95421" lon="1.87009">
        <ele>92.3</ele>
        <time>2018-01-21T10:17:11Z</time>
      </trkpt>
      <trkpt lat="48.95429" lon="1.87036">
        <ele>92.66</ele>
        <time>2018-01-21T10:17:27Z</time>
      </trkpt>
      <trkpt lat="48.95436" lon="1.87052">
        <ele>92.46</ele>
        <time>2018-01-21T10:17:40Z</time>
      </trkpt>
      <trkpt lat="48.95445" lon="1.87076">
        <ele>91.7</ele>
        <time>2018-01-21T10:17:57Z</time>
      </trkpt>
      <trkpt lat="48.95456" lon="1.87102">
        <ele>91.94</ele>
        <time>2018-01-21T10:18:16Z</time>
      </trkpt>
      <trkpt lat="48.95468" lon="1.87134">
        <ele>92.45</ele>
        <time>2018-01-21T10:18:38Z</time>
      </trkpt>
      <trkpt lat="48.95478" lon="1.87163">
        <ele>92.44</ele>
        <time>2018-01-21T10:18:57Z</time>
      </trkpt>
      <trkpt lat="48.95487" lon="1.87189">
        <ele>92.21</ele>
        <time>2018-01-21T10:19:15Z</time>
      </trkpt>
      <trkpt lat="48.95491" lon="1.87201">
        <ele>92.36</ele>
        <time>2018-01-21T10:19:22Z</time>
      </trkpt>
      <trkpt lat="48.95492" lon="1.87204">
        <ele>92.7</ele>
        <time>2018-01-21T10:19:24Z</time>
      </trkpt>
      <trkpt lat="48.95495" lon="1.87212">
        <ele>92.89</ele>
        <time>2018-01-21T10:19:29Z</time>
      </trkpt>
      <trkpt lat="48.95503" lon="1.87245">
        <ele>93.49</ele>
        <time>2018-01-21T10:19:49Z</time>
      </trkpt>
      <trkpt lat="48.95509" lon="1.87275">
        <ele>93.19</ele>
        <time>2018-01-21T10:20:08Z</time>
      </trkpt>
      <trkpt lat="48.95516" lon="1.87313">
        <ele>93.18</ele>
        <time>2018-01-21T10:20:30Z</time>
      </trkpt>
      <trkpt lat="48.95522" lon="1.87344">
        <ele>93.21</ele>
        <time>2018-01-21T10:20:48Z</time>
      </trkpt>
      <trkpt lat="48.95525" lon="1.87358">
        <ele>94.18</ele>
        <time>2018-01-21T10:20:56Z</time>
      </trkpt>
      <trkpt lat="48.95528" lon="1.87381">
        <ele>93.71</ele>
        <time>2018-01-21T10:21:09Z</time>
      </trkpt>
      <trkpt lat="48.95533" lon="1.87411">
        <ele>93.48</ele>
        <time>2018-01-21T10:21:26Z</time>
      </trkpt>
      <trkpt lat="48.95539" lon="1.87443">
        <ele>93.01</ele>
        <time>2018-01-21T10:21:45Z</time>
      </trkpt>
      <trkpt lat="48.95541" lon="1.8745">
        <ele>92.94</ele>
        <time>2018-01-21T10:21:51Z</time>
      </trkpt>
      <trkpt lat="48.95545" lon="1.87472">
        <ele>93.29</ele>
        <time>2018-01-21T10:22:06Z</time>
      </trkpt>
      <trkpt lat="48.95549" lon="1.87493">
        <ele>92.47</ele>
        <time>2018-01-21T10:22:21Z</time>
      </trkpt>
      <trkpt lat="48.95551" lon="1.87501">
        <ele>92.69</ele>
        <time>2018-01-21T10:22:34Z</time>
      </trkpt>
      <trkpt lat="48.95551" lon="1.87504">
        <ele>93.05</ele>
        <time>2018-01-21T10:22:36Z</time>
      </trkpt>
      <trkpt lat="48.95553" lon="1.8751">
        <ele>92.54</ele>
        <time>2018-01-21T10:22:40Z</time>
      </trkpt>
      <trkpt lat="48.95559" lon="1.87548">
        <ele>92.19</ele>
        <time>2018-01-21T10:23:00Z</time>
      </trkpt>
      <trkpt lat="48.95569" lon="1.87587">
        <ele>90.9</ele>
        <time>2018-01-21T10:23:20Z</time>
      </trkpt>
      <trkpt lat="48.95578" lon="1.87611">
        <ele>90.66</ele>
        <time>2018-01-21T10:23:36Z</time>
      </trkpt>
      <trkpt lat="48.9558" lon="1.87616">
        <ele>90.26</ele>
        <time>2018-01-21T10:23:40Z</time>
      </trkpt>
      <trkpt lat="48.95593" lon="1.87648">
        <ele>88.15</ele>
        <time>2018-01-21T10:24:00Z</time>
      </trkpt>
      <trkpt lat="48.95603" lon="1.87676">
        <ele>87.25</ele>
        <time>2018-01-21T10:24:18Z</time>
      </trkpt>
      <trkpt lat="48.95604" lon="1.87682">
        <ele>86.55</ele>
        <time>2018-01-21T10:24:22Z</time>
      </trkpt>
      <trkpt lat="48.95613" lon="1.87708">
        <ele>86.39</ele>
        <time>2018-01-21T10:24:39Z</time>
      </trkpt>
      <trkpt lat="48.95619" lon="1.8773">
        <ele>86.17</ele>
        <time>2018-01-21T10:24:55Z</time>
      </trkpt>
      <trkpt lat="48.95627" lon="1.87755">
        <ele>86.18</ele>
        <time>2018-01-21T10:25:12Z</time>
      </trkpt>
      <trkpt lat="48.95637" lon="1.87774">
        <ele>86.01</ele>
        <time>2018-01-21T10:25:26Z</time>
      </trkpt>
      <trkpt lat="48.95648" lon="1.8779">
        <ele>85.7</ele>
        <time>2018-01-21T10:25:43Z</time>
      </trkpt>
      <trkpt lat="48.95661" lon="1.87803">
        <ele>85.83</ele>
        <time>2018-01-21T10:26:02Z</time>
      </trkpt>
      <trkpt lat="48.95666" lon="1.87805">
        <ele>86.03</ele>
        <time>2018-01-21T10:26:29Z</time>
      </trkpt>
      <trkpt lat="48.95673" lon="1.87819">
        <ele>86.29</ele>
        <time>2018-01-21T10:26:47Z</time>
      </trkpt>
      <trkpt lat="48.95671" lon="1.87815">
        <ele>85.86</ele>
        <time>2018-01-21T10:27:04Z</time>
      </trkpt>
      <trkpt lat="48.9567" lon="1.87808">
        <ele>86.13</ele>
        <time>2018-01-21T10:27:33Z</time>
      </trkpt>
      <trkpt lat="48.95669" lon="1.8781">
        <ele>85.97</ele>
        <time>2018-01-21T10:27:59Z</time>
      </trkpt>
      <trkpt lat="48.95676" lon="1.87824">
        <ele>85.57</ele>
        <time>2018-01-21T10:28:14Z</time>
      </trkpt>
      <trkpt lat="48.95676" lon="1.87825">
        <ele>85.37</ele>
        <time>2018-01-21T10:28:15Z</time>
      </trkpt>
      <trkpt lat="48.95678" lon="1.87827">
        <ele>85.49</ele>
        <time>2018-01-21T10:28:17Z</time>
      </trkpt>
      <trkpt lat="48.95687" lon="1.87846">
        <ele>84.89</ele>
        <time>2018-01-21T10:28:30Z</time>
      </trkpt>
      <trkpt lat="48.9569" lon="1.87869">
        <ele>85.56</ele>
        <time>2018-01-21T10:28:46Z</time>
      </trkpt>
      <trkpt lat="48.9569" lon="1.87873">
        <ele>85.59</ele>
        <time>2018-01-21T10:28:58Z</time>
      </trkpt>
      <trkpt lat="48.95693" lon="1.87871">
        <ele>85.25</ele>
        <time>2018-01-21T10:29:16Z</time>
      </trkpt>
      <trkpt lat="48.95693" lon="1.87872">
        <ele>85.8</ele>
        <time>2018-01-21T10:29:32Z</time>
      </trkpt>
      <trkpt lat="48.95688" lon="1.87876">
        <ele>86.03</ele>
        <time>2018-01-21T10:29:41Z</time>
      </trkpt>
      <trkpt lat="48.95673" lon="1.87882">
        <ele>87.58</ele>
        <time>2018-01-21T10:29:58Z</time>
      </trkpt>
      <trkpt lat="48.9567" lon="1.87883">
        <ele>87.66</ele>
        <time>2018-01-21T10:30:02Z</time>
      </trkpt>
      <trkpt lat="48.95658" lon="1.87888">
        <ele>88.22</ele>
        <time>2018-01-21T10:30:17Z</time>
      </trkpt>
      <trkpt lat="48.95651" lon="1.8789">
        <ele>88.87</ele>
        <time>2018-01-21T10:30:24Z</time>
      </trkpt>
      <trkpt lat="48.95634" lon="1.87895">
        <ele>90.37</ele>
        <time>2018-01-21T10:30:41Z</time>
      </trkpt>
      <trkpt lat="48.95624" lon="1.87899">
        <ele>91.41</ele>
        <time>2018-01-21T10:30:53Z</time>
      </trkpt>
      <trkpt lat="48.95619" lon="1.87901">
        <ele>91.92</ele>
        <time>2018-01-21T10:30:58Z</time>
      </trkpt>
      <trkpt lat="48.95604" lon="1.87908">
        <ele>93.01</ele>
        <time>2018-01-21T10:31:14Z</time>
      </trkpt>
      <trkpt lat="48.95591" lon="1.87913">
        <ele>94.21</ele>
        <time>2018-01-21T10:31:28Z</time>
      </trkpt>
      <trkpt lat="48.95574" lon="1.87921">
        <ele>95.45</ele>
        <time>2018-01-21T10:31:45Z</time>
      </trkpt>
      <trkpt lat="48.9556" lon="1.87924">
        <ele>97.05</ele>
        <time>2018-01-21T10:32:00Z</time>
      </trkpt>
      <trkpt lat="48.95545" lon="1.87927">
        <ele>96.3</ele>
        <time>2018-01-21T10:32:18Z</time>
      </trkpt>
      <trkpt lat="48.95531" lon="1.87933">
        <ele>96.81</ele>
        <time>2018-01-21T10:32:32Z</time>
      </trkpt>
      <trkpt lat="48.95524" lon="1.87935">
        <ele>97.35</ele>
        <time>2018-01-21T10:32:44Z</time>
      </trkpt>
      <trkpt lat="48.95515" lon="1.87938">
        <ele>96.6</ele>
        <time>2018-01-21T10:32:55Z</time>
      </trkpt>
      <trkpt lat="48.95507" lon="1.87942">
        <ele>96.77</ele>
        <time>2018-01-21T10:33:05Z</time>
      </trkpt>
      <trkpt lat="48.95497" lon="1.87946">
        <ele>96.86</ele>
        <time>2018-01-21T10:33:15Z</time>
      </trkpt>
      <trkpt lat="48.95484" lon="1.87951">
        <ele>96.54</ele>
        <time>2018-01-21T10:33:32Z</time>
      </trkpt>
      <trkpt lat="48.95483" lon="1.87952">
        <ele>96.53</ele>
        <time>2018-01-21T10:33:34Z</time>
      </trkpt>
      <trkpt lat="48.95479" lon="1.87953">
        <ele>96.64</ele>
        <time>2018-01-21T10:33:38Z</time>
      </trkpt>
      <trkpt lat="48.95466" lon="1.87959">
        <ele>97.03</ele>
        <time>2018-01-21T10:33:54Z</time>
      </trkpt>
      <trkpt lat="48.95464" lon="1.8796">
        <ele>97.2</ele>
        <time>2018-01-21T10:34:18Z</time>
      </trkpt>
      <trkpt lat="48.95458" lon="1.87963">
        <ele>96.86</ele>
        <time>2018-01-21T10:34:37Z</time>
      </trkpt>
      <trkpt lat="48.95446" lon="1.87973">
        <ele>97.16</ele>
        <time>2018-01-21T10:34:51Z</time>
      </trkpt>
      <trkpt lat="48.95435" lon="1.87977">
        <ele>97.64</ele>
        <time>2018-01-21T10:35:03Z</time>
      </trkpt>
      <trkpt lat="48.95421" lon="1.87983">
        <ele>98.86</ele>
        <time>2018-01-21T10:35:19Z</time>
      </trkpt>
      <trkpt lat="48.9541" lon="1.87986">
        <ele>98.76</ele>
        <time>2018-01-21T10:35:34Z</time>
      </trkpt>
      <trkpt lat="48.95393" lon="1.87992">
        <ele>99.69</ele>
        <time>2018-01-21T10:35:50Z</time>
      </trkpt>
      <trkpt lat="48.95375" lon="1.87995">
        <ele>99.86</ele>
        <time>2018-01-21T10:36:05Z</time>
      </trkpt>
      <trkpt lat="48.95374" lon="1.87995">
        <ele>100.51</ele>
        <time>2018-01-21T10:36:06Z</time>
      </trkpt>
      <trkpt lat="48.95357" lon="1.87999">
        <ele>101.4</ele>
        <time>2018-01-21T10:36:24Z</time>
      </trkpt>
      <trkpt lat="48.95338" lon="1.88">
        <ele>103.04</ele>
        <time>2018-01-21T10:36:45Z</time>
      </trkpt>
      <trkpt lat="48.95338" lon="1.87999">
        <ele>103.16</ele>
        <time>2018-01-21T10:37:10Z</time>
      </trkpt>
      <trkpt lat="48.95339" lon="1.87999">
        <ele>102.94</ele>
        <time>2018-01-21T10:37:34Z</time>
      </trkpt>
      <trkpt lat="48.95339" lon="1.87999">
        <ele>103.06</ele>
        <time>2018-01-21T10:38:00Z</time>
      </trkpt>
      <trkpt lat="48.95339" lon="1.87998">
        <ele>103.05</ele>
        <time>2018-01-21T10:38:33Z</time>
      </trkpt>
      <trkpt lat="48.95338" lon="1.87997">
        <ele>103.3</ele>
        <time>2018-01-21T10:39:02Z</time>
      </trkpt>
      <trkpt lat="48.95329" lon="1.87997">
        <ele>103.99</ele>
        <time>2018-01-21T10:39:25Z</time>
      </trkpt>
      <trkpt lat="48.9532" lon="1.87999">
        <ele>103.42</ele>
        <time>2018-01-21T10:39:42Z</time>
      </trkpt>
      <trkpt lat="48.95309" lon="1.88002">
        <ele>104.42</ele>
        <time>2018-01-21T10:39:58Z</time>
      </trkpt>
      <trkpt lat="48.95298" lon="1.88005">
        <ele>105.56</ele>
        <time>2018-01-21T10:40:13Z</time>
      </trkpt>
      <trkpt lat="48.95297" lon="1.88006">
        <ele>106.34</ele>
        <time>2018-01-21T10:40:14Z</time>
      </trkpt>
      <trkpt lat="48.95287" lon="1.8801">
        <ele>106.78</ele>
        <time>2018-01-21T10:40:27Z</time>
      </trkpt>
      <trkpt lat="48.95282" lon="1.8801">
        <ele>106.91</ele>
        <time>2018-01-21T10:40:32Z</time>
      </trkpt>
      <trkpt lat="48.9527" lon="1.88011">
        <ele>107.78</ele>
        <time>2018-01-21T10:40:46Z</time>
      </trkpt>
      <trkpt lat="48.95261" lon="1.88015">
        <ele>108.44</ele>
        <time>2018-01-21T10:40:58Z</time>
      </trkpt>
      <trkpt lat="48.95247" lon="1.88018">
        <ele>109.65</ele>
        <time>2018-01-21T10:41:13Z</time>
      </trkpt>
      <trkpt lat="48.9524" lon="1.88019">
        <ele>109.63</ele>
        <time>2018-01-21T10:41:21Z</time>
      </trkpt>
      <trkpt lat="48.9523" lon="1.88021">
        <ele>110.64</ele>
        <time>2018-01-21T10:41:33Z</time>
      </trkpt>
      <trkpt lat="48.95217" lon="1.88023">
        <ele>111.56</ele>
        <time>2018-01-21T10:41:49Z</time>
      </trkpt>
      <trkpt lat="48.95204" lon="1.88024">
        <ele>112.68</ele>
        <time>2018-01-21T10:42:03Z</time>
      </trkpt>
      <trkpt lat="48.95188" lon="1.88024">
        <ele>113.39</ele>
        <time>2018-01-21T10:42:20Z</time>
      </trkpt>
      <trkpt lat="48.95186" lon="1.88025">
        <ele>113.28</ele>
        <time>2018-01-21T10:42:22Z</time>
      </trkpt>
      <trkpt lat="48.95167" lon="1.88026">
        <ele>114.27</ele>
        <time>2018-01-21T10:42:38Z</time>
      </trkpt>
      <trkpt lat="48.9515" lon="1.88029">
        <ele>115.83</ele>
        <time>2018-01-21T10:42:56Z</time>
      </trkpt>
      <trkpt lat="48.95145" lon="1.88032">
        <ele>116.22</ele>
        <time>2018-01-21T10:43:01Z</time>
      </trkpt>
      <trkpt lat="48.95142" lon="1.88043">
        <ele>116.4</ele>
        <time>2018-01-21T10:43:09Z</time>
      </trkpt>
      <trkpt lat="48.9514" lon="1.88069">
        <ele>116.11</ele>
        <time>2018-01-21T10:43:25Z</time>
      </trkpt>
      <trkpt lat="48.95137" lon="1.88084">
        <ele>115.55</ele>
        <time>2018-01-21T10:43:40Z</time>
      </trkpt>
      <trkpt lat="48.95133" lon="1.881">
        <ele>116.15</ele>
        <time>2018-01-21T10:43:54Z</time>
      </trkpt>
      <trkpt lat="48.95132" lon="1.88113">
        <ele>116.54</ele>
        <time>2018-01-21T10:44:11Z</time>
      </trkpt>
      <trkpt lat="48.95128" lon="1.8813">
        <ele>117.95</ele>
        <time>2018-01-21T10:44:27Z</time>
      </trkpt>
      <trkpt lat="48.95124" lon="1.88135">
        <ele>117.79</ele>
        <time>2018-01-21T10:44:45Z</time>
      </trkpt>
      <trkpt lat="48.95123" lon="1.88132">
        <ele>117.76</ele>
        <time>2018-01-21T10:45:10Z</time>
      </trkpt>
      <trkpt lat="48.95122" lon="1.8814">
        <ele>119.04</ele>
        <time>2018-01-21T10:45:32Z</time>
      </trkpt>
      <trkpt lat="48.95123" lon="1.88141">
        <ele>118.7</ele>
        <time>2018-01-21T10:45:36Z</time>
      </trkpt>
      <trkpt lat="48.95123" lon="1.88154">
        <ele>120.89</ele>
        <time>2018-01-21T10:45:56Z</time>
      </trkpt>
      <trkpt lat="48.95109" lon="1.88176">
        <ele>122.55</ele>
        <time>2018-01-21T10:46:17Z</time>
      </trkpt>
      <trkpt lat="48.95098" lon="1.88196">
        <ele>124.28</ele>
        <time>2018-01-21T10:46:34Z</time>
      </trkpt>
      <trkpt lat="48.9509" lon="1.88209">
        <ele>125.24</ele>
        <time>2018-01-21T10:46:53Z</time>
      </trkpt>
      <trkpt lat="48.9508" lon="1.88224">
        <ele>125.97</ele>
        <time>2018-01-21T10:47:14Z</time>
      </trkpt>
      <trkpt lat="48.95068" lon="1.8824">
        <ele>127.53</ele>
        <time>2018-01-21T10:47:33Z</time>
      </trkpt>
      <trkpt lat="48.95061" lon="1.88252">
        <ele>128.92</ele>
        <time>2018-01-21T10:47:50Z</time>
      </trkpt>
      <trkpt lat="48.95053" lon="1.88268">
        <ele>130.32</ele>
        <time>2018-01-21T10:48:08Z</time>
      </trkpt>
      <trkpt lat="48.9504" lon="1.88287">
        <ele>132.66</ele>
        <time>2018-01-21T10:48:31Z</time>
      </trkpt>
      <trkpt lat="48.95022" lon="1.88302">
        <ele>133.22</ele>
        <time>2018-01-21T10:48:50Z</time>
      </trkpt>
      <trkpt lat="48.95016" lon="1.88313">
        <ele>133.46</ele>
        <time>2018-01-21T10:49:06Z</time>
      </trkpt>
      <trkpt lat="48.95015" lon="1.88319">
        <ele>133.23</ele>
        <time>2018-01-21T10:49:24Z</time>
      </trkpt>
      <trkpt lat="48.95016" lon="1.88317">
        <ele>133.89</ele>
        <time>2018-01-21T10:49:48Z</time>
      </trkpt>
      <trkpt lat="48.95016" lon="1.88317">
        <ele>134.08</ele>
        <time>2018-01-21T10:50:11Z</time>
      </trkpt>
      <trkpt lat="48.9501" lon="1.88314">
        <ele>134.49</ele>
        <time>2018-01-21T10:50:27Z</time>
      </trkpt>
      <trkpt lat="48.95008" lon="1.88313">
        <ele>134.99</ele>
        <time>2018-01-21T10:50:58Z</time>
      </trkpt>
      <trkpt lat="48.95009" lon="1.88314">
        <ele>134.96</ele>
        <time>2018-01-21T10:51:27Z</time>
      </trkpt>
      <trkpt lat="48.95003" lon="1.88313">
        <ele>135.4</ele>
        <time>2018-01-21T10:51:57Z</time>
      </trkpt>
      <trkpt lat="48.94992" lon="1.88311">
        <ele>136.12</ele>
        <time>2018-01-21T10:52:18Z</time>
      </trkpt>
      <trkpt lat="48.94979" lon="1.88321">
        <ele>136</ele>
        <time>2018-01-21T10:52:37Z</time>
      </trkpt>
      <trkpt lat="48.94979" lon="1.88322">
        <ele>136.12</ele>
        <time>2018-01-21T10:52:38Z</time>
      </trkpt>
      <trkpt lat="48.94973" lon="1.88331">
        <ele>135.6</ele>
        <time>2018-01-21T10:52:50Z</time>
      </trkpt>
      <trkpt lat="48.94971" lon="1.88339">
        <ele>135.36</ele>
        <time>2018-01-21T10:52:55Z</time>
      </trkpt>
      <trkpt lat="48.94965" lon="1.88366">
        <ele>134.03</ele>
        <time>2018-01-21T10:53:12Z</time>
      </trkpt>
      <trkpt lat="48.94963" lon="1.88376">
        <ele>132.98</ele>
        <time>2018-01-21T10:53:21Z</time>
      </trkpt>
      <trkpt lat="48.94957" lon="1.884">
        <ele>131.16</ele>
        <time>2018-01-21T10:53:37Z</time>
      </trkpt>
      <trkpt lat="48.94949" lon="1.8842">
        <ele>130.45</ele>
        <time>2018-01-21T10:53:53Z</time>
      </trkpt>
      <trkpt lat="48.94939" lon="1.88443">
        <ele>129.41</ele>
        <time>2018-01-21T10:54:10Z</time>
      </trkpt>
      <trkpt lat="48.94933" lon="1.88461">
        <ele>128.01</ele>
        <time>2018-01-21T10:54:26Z</time>
      </trkpt>
      <trkpt lat="48.94928" lon="1.88477">
        <ele>126.59</ele>
        <time>2018-01-21T10:54:39Z</time>
      </trkpt>
      <trkpt lat="48.94922" lon="1.88493">
        <ele>126.84</ele>
        <time>2018-01-21T10:54:53Z</time>
      </trkpt>
      <trkpt lat="48.94917" lon="1.8851">
        <ele>124.96</ele>
        <time>2018-01-21T10:55:08Z</time>
      </trkpt>
      <trkpt lat="48.94908" lon="1.88531">
        <ele>123.7</ele>
        <time>2018-01-21T10:55:23Z</time>
      </trkpt>
      <trkpt lat="48.94903" lon="1.88543">
        <ele>123.52</ele>
        <time>2018-01-21T10:55:32Z</time>
      </trkpt>
      <trkpt lat="48.94902" lon="1.88547">
        <ele>123.27</ele>
        <time>2018-01-21T10:55:35Z</time>
      </trkpt>
      <trkpt lat="48.94895" lon="1.88567">
        <ele>122.23</ele>
        <time>2018-01-21T10:55:51Z</time>
      </trkpt>
      <trkpt lat="48.94893" lon="1.8857">
        <ele>122.3</ele>
        <time>2018-01-21T10:55:54Z</time>
      </trkpt>
      <trkpt lat="48.94889" lon="1.88582">
        <ele>121.94</ele>
        <time>2018-01-21T10:56:04Z</time>
      </trkpt>
      <trkpt lat="48.94881" lon="1.88599">
        <ele>121.64</ele>
        <time>2018-01-21T10:56:18Z</time>
      </trkpt>
      <trkpt lat="48.9488" lon="1.88601">
        <ele>121.45</ele>
        <time>2018-01-21T10:56:20Z</time>
      </trkpt>
      <trkpt lat="48.9487" lon="1.88625">
        <ele>121.62</ele>
        <time>2018-01-21T10:56:37Z</time>
      </trkpt>
      <trkpt lat="48.9486" lon="1.88647">
        <ele>120.5</ele>
        <time>2018-01-21T10:56:51Z</time>
      </trkpt>
      <trkpt lat="48.94852" lon="1.88675">
        <ele>119.12</ele>
        <time>2018-01-21T10:57:07Z</time>
      </trkpt>
      <trkpt lat="48.94849" lon="1.88684">
        <ele>118.48</ele>
        <time>2018-01-21T10:57:15Z</time>
      </trkpt>
      <trkpt lat="48.94847" lon="1.88689">
        <ele>118.55</ele>
        <time>2018-01-21T10:57:19Z</time>
      </trkpt>
      <trkpt lat="48.94845" lon="1.88696">
        <ele>118.71</ele>
        <time>2018-01-21T10:57:23Z</time>
      </trkpt>
      <trkpt lat="48.94839" lon="1.88715">
        <ele>118.23</ele>
        <time>2018-01-21T10:57:38Z</time>
      </trkpt>
      <trkpt lat="48.94836" lon="1.88719">
        <ele>117.96</ele>
        <time>2018-01-21T10:57:45Z</time>
      </trkpt>
      <trkpt lat="48.94834" lon="1.88723">
        <ele>117.96</ele>
        <time>2018-01-21T10:57:49Z</time>
      </trkpt>
      <trkpt lat="48.94824" lon="1.88743">
        <ele>116.51</ele>
        <time>2018-01-21T10:58:05Z</time>
      </trkpt>
      <trkpt lat="48.94816" lon="1.8877">
        <ele>114.87</ele>
        <time>2018-01-21T10:58:23Z</time>
      </trkpt>
      <trkpt lat="48.94811" lon="1.88795">
        <ele>114.09</ele>
        <time>2018-01-21T10:58:36Z</time>
      </trkpt>
      <trkpt lat="48.94804" lon="1.88837">
        <ele>112.12</ele>
        <time>2018-01-21T10:59:00Z</time>
      </trkpt>
      <trkpt lat="48.94801" lon="1.88858">
        <ele>111.24</ele>
        <time>2018-01-21T10:59:14Z</time>
      </trkpt>
      <trkpt lat="48.94794" lon="1.88885">
        <ele>109.77</ele>
        <time>2018-01-21T10:59:31Z</time>
      </trkpt>
      <trkpt lat="48.94788" lon="1.88917">
        <ele>108.68</ele>
        <time>2018-01-21T10:59:50Z</time>
      </trkpt>
      <trkpt lat="48.94785" lon="1.88936">
        <ele>108.58</ele>
        <time>2018-01-21T11:00:06Z</time>
      </trkpt>
      <trkpt lat="48.94785" lon="1.88937">
        <ele>108.79</ele>
        <time>2018-01-21T11:00:33Z</time>
      </trkpt>
      <trkpt lat="48.94785" lon="1.88938">
        <ele>108.62</ele>
        <time>2018-01-21T11:00:59Z</time>
      </trkpt>
      <trkpt lat="48.94785" lon="1.88938">
        <ele>108.98</ele>
        <time>2018-01-21T11:01:28Z</time>
      </trkpt>
      <trkpt lat="48.94785" lon="1.88937">
        <ele>109.1</ele>
        <time>2018-01-21T11:01:57Z</time>
      </trkpt>
      <trkpt lat="48.94784" lon="1.88937">
        <ele>109.2</ele>
        <time>2018-01-21T11:02:27Z</time>
      </trkpt>
      <trkpt lat="48.94784" lon="1.88938">
        <ele>109.16</ele>
        <time>2018-01-21T11:02:53Z</time>
      </trkpt>
      <trkpt lat="48.94784" lon="1.88936">
        <ele>109.19</ele>
        <time>2018-01-21T11:03:26Z</time>
      </trkpt>
      <trkpt lat="48.94783" lon="1.88936">
        <ele>109.64</ele>
        <time>2018-01-21T11:03:53Z</time>
      </trkpt>
      <trkpt lat="48.94784" lon="1.88936">
        <ele>109.47</ele>
        <time>2018-01-21T11:04:18Z</time>
      </trkpt>
      <trkpt lat="48.94792" lon="1.8894">
        <ele>108.72</ele>
        <time>2018-01-21T11:04:32Z</time>
      </trkpt>
      <trkpt lat="48.94801" lon="1.88949">
        <ele>108.35</ele>
        <time>2018-01-21T11:04:48Z</time>
      </trkpt>
      <trkpt lat="48.94806" lon="1.88953">
        <ele>108.45</ele>
        <time>2018-01-21T11:04:53Z</time>
      </trkpt>
      <trkpt lat="48.94819" lon="1.88967">
        <ele>107.54</ele>
        <time>2018-01-21T11:05:11Z</time>
      </trkpt>
      <trkpt lat="48.94831" lon="1.8898">
        <ele>106.75</ele>
        <time>2018-01-21T11:05:26Z</time>
      </trkpt>
      <trkpt lat="48.94838" lon="1.88988">
        <ele>106.25</ele>
        <time>2018-01-21T11:05:40Z</time>
      </trkpt>
      <trkpt lat="48.94855" lon="1.89006">
        <ele>105.39</ele>
        <time>2018-01-21T11:05:58Z</time>
      </trkpt>
      <trkpt lat="48.94874" lon="1.89026">
        <ele>103.88</ele>
        <time>2018-01-21T11:06:18Z</time>
      </trkpt>
      <trkpt lat="48.94889" lon="1.89041">
        <ele>102.39</ele>
        <time>2018-01-21T11:06:36Z</time>
      </trkpt>
      <trkpt lat="48.94894" lon="1.89045">
        <ele>102.11</ele>
        <time>2018-01-21T11:06:56Z</time>
      </trkpt>
      <trkpt lat="48.94896" lon="1.89047">
        <ele>102.36</ele>
        <time>2018-01-21T11:07:05Z</time>
      </trkpt>
      <trkpt lat="48.94912" lon="1.89058">
        <ele>101.55</ele>
        <time>2018-01-21T11:07:21Z</time>
      </trkpt>
      <trkpt lat="48.94929" lon="1.89067">
        <ele>100.02</ele>
        <time>2018-01-21T11:07:35Z</time>
      </trkpt>
      <trkpt lat="48.94953" lon="1.89076">
        <ele>99.57</ele>
        <time>2018-01-21T11:07:55Z</time>
      </trkpt>
      <trkpt lat="48.94971" lon="1.89084">
        <ele>99.26</ele>
        <time>2018-01-21T11:08:12Z</time>
      </trkpt>
      <trkpt lat="48.94993" lon="1.89093">
        <ele>97.71</ele>
        <time>2018-01-21T11:08:30Z</time>
      </trkpt>
      <trkpt lat="48.95005" lon="1.89096">
        <ele>97.31</ele>
        <time>2018-01-21T11:08:40Z</time>
      </trkpt>
      <trkpt lat="48.95026" lon="1.89107">
        <ele>96.74</ele>
        <time>2018-01-21T11:08:59Z</time>
      </trkpt>
      <trkpt lat="48.95027" lon="1.89108">
        <ele>96.91</ele>
        <time>2018-01-21T11:09:00Z</time>
      </trkpt>
      <trkpt lat="48.95049" lon="1.89117">
        <ele>96.46</ele>
        <time>2018-01-21T11:09:19Z</time>
      </trkpt>
      <trkpt lat="48.9506" lon="1.89122">
        <ele>95.19</ele>
        <time>2018-01-21T11:09:29Z</time>
      </trkpt>
      <trkpt lat="48.95079" lon="1.89131">
        <ele>95.06</ele>
        <time>2018-01-21T11:09:45Z</time>
      </trkpt>
      <trkpt lat="48.95097" lon="1.89138">
        <ele>94.17</ele>
        <time>2018-01-21T11:10:00Z</time>
      </trkpt>
      <trkpt lat="48.95114" lon="1.89147">
        <ele>93.76</ele>
        <time>2018-01-21T11:10:16Z</time>
      </trkpt>
      <trkpt lat="48.95136" lon="1.89156">
        <ele>92.92</ele>
        <time>2018-01-21T11:10:35Z</time>
      </trkpt>
      <trkpt lat="48.95153" lon="1.89164">
        <ele>93.36</ele>
        <time>2018-01-21T11:10:50Z</time>
      </trkpt>
      <trkpt lat="48.95158" lon="1.89167">
        <ele>93.2</ele>
        <time>2018-01-21T11:10:58Z</time>
      </trkpt>
      <trkpt lat="48.95177" lon="1.89175">
        <ele>92.34</ele>
        <time>2018-01-21T11:11:16Z</time>
      </trkpt>
      <trkpt lat="48.95187" lon="1.89178">
        <ele>91.67</ele>
        <time>2018-01-21T11:11:25Z</time>
      </trkpt>
      <trkpt lat="48.95207" lon="1.89191">
        <ele>91.73</ele>
        <time>2018-01-21T11:11:44Z</time>
      </trkpt>
      <trkpt lat="48.95221" lon="1.89199">
        <ele>90.12</ele>
        <time>2018-01-21T11:11:57Z</time>
      </trkpt>
      <trkpt lat="48.95222" lon="1.892">
        <ele>90.37</ele>
        <time>2018-01-21T11:12:15Z</time>
      </trkpt>
      <trkpt lat="48.95215" lon="1.89194">
        <ele>91.09</ele>
        <time>2018-01-21T11:12:34Z</time>
      </trkpt>
      <trkpt lat="48.95222" lon="1.89196">
        <ele>90.27</ele>
        <time>2018-01-21T11:13:01Z</time>
      </trkpt>
      <trkpt lat="48.95234" lon="1.89207">
        <ele>90.23</ele>
        <time>2018-01-21T11:13:15Z</time>
      </trkpt>
      <trkpt lat="48.95236" lon="1.89209">
        <ele>90.58</ele>
        <time>2018-01-21T11:13:17Z</time>
      </trkpt>
      <trkpt lat="48.95254" lon="1.89224">
        <ele>89.44</ele>
        <time>2018-01-21T11:13:33Z</time>
      </trkpt>
      <trkpt lat="48.95259" lon="1.89228">
        <ele>88.65</ele>
        <time>2018-01-21T11:13:40Z</time>
      </trkpt>
      <trkpt lat="48.95265" lon="1.8923">
        <ele>88.39</ele>
        <time>2018-01-21T11:13:44Z</time>
      </trkpt>
      <trkpt lat="48.95282" lon="1.89241">
        <ele>88.17</ele>
        <time>2018-01-21T11:14:00Z</time>
      </trkpt>
      <trkpt lat="48.95301" lon="1.89254">
        <ele>88.02</ele>
        <time>2018-01-21T11:14:16Z</time>
      </trkpt>
      <trkpt lat="48.95309" lon="1.8926">
        <ele>87.08</ele>
        <time>2018-01-21T11:14:24Z</time>
      </trkpt>
      <trkpt lat="48.95327" lon="1.89271">
        <ele>86.76</ele>
        <time>2018-01-21T11:14:40Z</time>
      </trkpt>
      <trkpt lat="48.95346" lon="1.89286">
        <ele>85.83</ele>
        <time>2018-01-21T11:14:57Z</time>
      </trkpt>
      <trkpt lat="48.95367" lon="1.89301">
        <ele>85</ele>
        <time>2018-01-21T11:15:16Z</time>
      </trkpt>
      <trkpt lat="48.95392" lon="1.89319">
        <ele>84.43</ele>
        <time>2018-01-21T11:15:39Z</time>
      </trkpt>
      <trkpt lat="48.9541" lon="1.89331">
        <ele>83.74</ele>
        <time>2018-01-21T11:15:55Z</time>
      </trkpt>
      <trkpt lat="48.95418" lon="1.89336">
        <ele>83.24</ele>
        <time>2018-01-21T11:16:09Z</time>
      </trkpt>
      <trkpt lat="48.95421" lon="1.89335">
        <ele>83</ele>
        <time>2018-01-21T11:16:20Z</time>
      </trkpt>
      <trkpt lat="48.95423" lon="1.89336">
        <ele>83.25</ele>
        <time>2018-01-21T11:16:22Z</time>
      </trkpt>
      <trkpt lat="48.95437" lon="1.89346">
        <ele>82.77</ele>
        <time>2018-01-21T11:16:40Z</time>
      </trkpt>
      <trkpt lat="48.95455" lon="1.89362">
        <ele>82.61</ele>
        <time>2018-01-21T11:17:01Z</time>
      </trkpt>
      <trkpt lat="48.95457" lon="1.89361">
        <ele>83.34</ele>
        <time>2018-01-21T11:17:20Z</time>
      </trkpt>
      <trkpt lat="48.95457" lon="1.89363">
        <ele>83.13</ele>
        <time>2018-01-21T11:17:37Z</time>
      </trkpt>
      <trkpt lat="48.95457" lon="1.89364">
        <ele>83.38</ele>
        <time>2018-01-21T11:18:09Z</time>
      </trkpt>
      <trkpt lat="48.95457" lon="1.89364">
        <ele>82.95</ele>
        <time>2018-01-21T11:18:42Z</time>
      </trkpt>
      <trkpt lat="48.95457" lon="1.89363">
        <ele>82.7</ele>
        <time>2018-01-21T11:19:07Z</time>
      </trkpt>
      <trkpt lat="48.95457" lon="1.89363">
        <ele>82.88</ele>
        <time>2018-01-21T11:19:35Z</time>
      </trkpt>
      <trkpt lat="48.95458" lon="1.89361">
        <ele>83.25</ele>
        <time>2018-01-21T11:20:02Z</time>
      </trkpt>
      <trkpt lat="48.95458" lon="1.89361">
        <ele>83.09</ele>
        <time>2018-01-21T11:20:25Z</time>
      </trkpt>
      <trkpt lat="48.95456" lon="1.89361">
        <ele>83.06</ele>
        <time>2018-01-21T11:20:49Z</time>
      </trkpt>
      <trkpt lat="48.95456" lon="1.89361">
        <ele>83.51</ele>
        <time>2018-01-21T11:21:21Z</time>
      </trkpt>
      <trkpt lat="48.95457" lon="1.89363">
        <ele>83.36</ele>
        <time>2018-01-21T11:21:56Z</time>
      </trkpt>
      <trkpt lat="48.95459" lon="1.89374">
        <ele>84.15</ele>
        <time>2018-01-21T11:22:10Z</time>
      </trkpt>
      <trkpt lat="48.95457" lon="1.89384">
        <ele>83.39</ele>
        <time>2018-01-21T11:22:17Z</time>
      </trkpt>
      <trkpt lat="48.95452" lon="1.89398">
        <ele>83.06</ele>
        <time>2018-01-21T11:22:33Z</time>
      </trkpt>
      <trkpt lat="48.95451" lon="1.89405">
        <ele>84.2</ele>
        <time>2018-01-21T11:22:39Z</time>
      </trkpt>
      <trkpt lat="48.9545" lon="1.89412">
        <ele>84.35</ele>
        <time>2018-01-21T11:22:46Z</time>
      </trkpt>
      <trkpt lat="48.95447" lon="1.89437">
        <ele>85.87</ele>
        <time>2018-01-21T11:23:04Z</time>
      </trkpt>
      <trkpt lat="48.95444" lon="1.89455">
        <ele>86.38</ele>
        <time>2018-01-21T11:23:18Z</time>
      </trkpt>
      <trkpt lat="48.95444" lon="1.8946">
        <ele>86.21</ele>
        <time>2018-01-21T11:23:22Z</time>
      </trkpt>
      <trkpt lat="48.9544" lon="1.8948">
        <ele>87.99</ele>
        <time>2018-01-21T11:23:36Z</time>
      </trkpt>
      <trkpt lat="48.95437" lon="1.89492">
        <ele>87.77</ele>
        <time>2018-01-21T11:23:47Z</time>
      </trkpt>
      <trkpt lat="48.95431" lon="1.89511">
        <ele>88.27</ele>
        <time>2018-01-21T11:24:03Z</time>
      </trkpt>
      <trkpt lat="48.95422" lon="1.89529">
        <ele>89.98</ele>
        <time>2018-01-21T11:24:18Z</time>
      </trkpt>
      <trkpt lat="48.95414" lon="1.8955">
        <ele>90.39</ele>
        <time>2018-01-21T11:24:33Z</time>
      </trkpt>
      <trkpt lat="48.95406" lon="1.89569">
        <ele>91.45</ele>
        <time>2018-01-21T11:24:47Z</time>
      </trkpt>
      <trkpt lat="48.95398" lon="1.89592">
        <ele>91.82</ele>
        <time>2018-01-21T11:25:04Z</time>
      </trkpt>
      <trkpt lat="48.95389" lon="1.89618">
        <ele>92.59</ele>
        <time>2018-01-21T11:25:22Z</time>
      </trkpt>
      <trkpt lat="48.95389" lon="1.89619">
        <ele>92.75</ele>
        <time>2018-01-21T11:25:23Z</time>
      </trkpt>
      <trkpt lat="48.95385" lon="1.89631">
        <ele>92.16</ele>
        <time>2018-01-21T11:25:38Z</time>
      </trkpt>
      <trkpt lat="48.95383" lon="1.89636">
        <ele>92.96</ele>
        <time>2018-01-21T11:25:58Z</time>
      </trkpt>
      <trkpt lat="48.95383" lon="1.89637">
        <ele>92.91</ele>
        <time>2018-01-21T11:26:27Z</time>
      </trkpt>
      <trkpt lat="48.95382" lon="1.89637">
        <ele>93.06</ele>
        <time>2018-01-21T11:27:03Z</time>
      </trkpt>
      <trkpt lat="48.95382" lon="1.89638">
        <ele>92.48</ele>
        <time>2018-01-21T11:27:35Z</time>
      </trkpt>
      <trkpt lat="48.95377" lon="1.89655">
        <ele>92.7</ele>
        <time>2018-01-21T11:27:53Z</time>
      </trkpt>
      <trkpt lat="48.95373" lon="1.8967">
        <ele>93.24</ele>
        <time>2018-01-21T11:28:06Z</time>
      </trkpt>
      <trkpt lat="48.95367" lon="1.89689">
        <ele>92.57</ele>
        <time>2018-01-21T11:28:22Z</time>
      </trkpt>
      <trkpt lat="48.95364" lon="1.897">
        <ele>92.23</ele>
        <time>2018-01-21T11:28:32Z</time>
      </trkpt>
      <trkpt lat="48.95358" lon="1.89719">
        <ele>92.13</ele>
        <time>2018-01-21T11:28:49Z</time>
      </trkpt>
      <trkpt lat="48.95352" lon="1.89742">
        <ele>92.17</ele>
        <time>2018-01-21T11:29:06Z</time>
      </trkpt>
      <trkpt lat="48.95349" lon="1.89758">
        <ele>92.71</ele>
        <time>2018-01-21T11:29:17Z</time>
      </trkpt>
      <trkpt lat="48.95339" lon="1.89784">
        <ele>91.98</ele>
        <time>2018-01-21T11:29:36Z</time>
      </trkpt>
      <trkpt lat="48.95333" lon="1.89803">
        <ele>92.35</ele>
        <time>2018-01-21T11:29:49Z</time>
      </trkpt>
      <trkpt lat="48.95327" lon="1.89824">
        <ele>91.57</ele>
        <time>2018-01-21T11:30:04Z</time>
      </trkpt>
      <trkpt lat="48.95327" lon="1.89826">
        <ele>91.37</ele>
        <time>2018-01-21T11:30:05Z</time>
      </trkpt>
      <trkpt lat="48.95318" lon="1.89857">
        <ele>90.78</ele>
        <time>2018-01-21T11:30:26Z</time>
      </trkpt>
      <trkpt lat="48.9531" lon="1.89887">
        <ele>90.24</ele>
        <time>2018-01-21T11:30:46Z</time>
      </trkpt>
      <trkpt lat="48.95303" lon="1.89912">
        <ele>89.04</ele>
        <time>2018-01-21T11:31:03Z</time>
      </trkpt>
      <trkpt lat="48.95297" lon="1.89933">
        <ele>87.82</ele>
        <time>2018-01-21T11:31:17Z</time>
      </trkpt>
      <trkpt lat="48.9529" lon="1.89959">
        <ele>86.36</ele>
        <time>2018-01-21T11:31:34Z</time>
      </trkpt>
      <trkpt lat="48.95282" lon="1.89987">
        <ele>85.43</ele>
        <time>2018-01-21T11:31:52Z</time>
      </trkpt>
      <trkpt lat="48.95275" lon="1.90012">
        <ele>84.81</ele>
        <time>2018-01-21T11:32:10Z</time>
      </trkpt>
      <trkpt lat="48.9527" lon="1.90026">
        <ele>84.43</ele>
        <time>2018-01-21T11:32:28Z</time>
      </trkpt>
      <trkpt lat="48.95267" lon="1.90024">
        <ele>85.19</ele>
        <time>2018-01-21T11:32:51Z</time>
      </trkpt>
      <trkpt lat="48.95266" lon="1.90023">
        <ele>84.77</ele>
        <time>2018-01-21T11:33:15Z</time>
      </trkpt>
      <trkpt lat="48.95264" lon="1.90024">
        <ele>84.54</ele>
        <time>2018-01-21T11:33:19Z</time>
      </trkpt>
      <trkpt lat="48.95258" lon="1.90021">
        <ele>84.86</ele>
        <time>2018-01-21T11:33:25Z</time>
      </trkpt>
      <trkpt lat="48.95253" lon="1.9002">
        <ele>84.73</ele>
        <time>2018-01-21T11:33:29Z</time>
      </trkpt>
      <trkpt lat="48.9524" lon="1.90006">
        <ele>85.23</ele>
        <time>2018-01-21T11:33:44Z</time>
      </trkpt>
      <trkpt lat="48.95239" lon="1.90004">
        <ele>85.47</ele>
        <time>2018-01-21T11:33:46Z</time>
      </trkpt>
      <trkpt lat="48.95224" lon="1.89989">
        <ele>86.17</ele>
        <time>2018-01-21T11:34:02Z</time>
      </trkpt>
      <trkpt lat="48.95215" lon="1.89978">
        <ele>86.92</ele>
        <time>2018-01-21T11:34:13Z</time>
      </trkpt>
      <trkpt lat="48.95198" lon="1.89962">
        <ele>87.56</ele>
        <time>2018-01-21T11:34:32Z</time>
      </trkpt>
      <trkpt lat="48.95195" lon="1.89959">
        <ele>87.2</ele>
        <time>2018-01-21T11:34:42Z</time>
      </trkpt>
      <trkpt lat="48.95184" lon="1.89947">
        <ele>87.91</ele>
        <time>2018-01-21T11:34:55Z</time>
      </trkpt>
      <trkpt lat="48.95167" lon="1.89932">
        <ele>88.63</ele>
        <time>2018-01-21T11:35:12Z</time>
      </trkpt>
      <trkpt lat="48.95153" lon="1.89921">
        <ele>89.2</ele>
        <time>2018-01-21T11:35:26Z</time>
      </trkpt>
      <trkpt lat="48.95134" lon="1.89906">
        <ele>89.95</ele>
        <time>2018-01-21T11:35:46Z</time>
      </trkpt>
      <trkpt lat="48.95117" lon="1.89897">
        <ele>90.56</ele>
        <time>2018-01-21T11:36:02Z</time>
      </trkpt>
      <trkpt lat="48.951" lon="1.89888">
        <ele>91.59</ele>
        <time>2018-01-21T11:36:18Z</time>
      </trkpt>
      <trkpt lat="48.95093" lon="1.89886">
        <ele>92.12</ele>
        <time>2018-01-21T11:36:30Z</time>
      </trkpt>
      <trkpt lat="48.95076" lon="1.89879">
        <ele>92.61</ele>
        <time>2018-01-21T11:36:47Z</time>
      </trkpt>
      <trkpt lat="48.95059" lon="1.89871">
        <ele>93.84</ele>
        <time>2018-01-21T11:37:03Z</time>
      </trkpt>
      <trkpt lat="48.95042" lon="1.89863">
        <ele>95.49</ele>
        <time>2018-01-21T11:37:19Z</time>
      </trkpt>
      <trkpt lat="48.95027" lon="1.89853">
        <ele>95.81</ele>
        <time>2018-01-21T11:37:35Z</time>
      </trkpt>
      <trkpt lat="48.95015" lon="1.89843">
        <ele>97.34</ele>
        <time>2018-01-21T11:37:51Z</time>
      </trkpt>
      <trkpt lat="48.94999" lon="1.89831">
        <ele>97.85</ele>
        <time>2018-01-21T11:38:07Z</time>
      </trkpt>
      <trkpt lat="48.94983" lon="1.89817">
        <ele>98.38</ele>
        <time>2018-01-21T11:38:25Z</time>
      </trkpt>
      <trkpt lat="48.94977" lon="1.89812">
        <ele>99.51</ele>
        <time>2018-01-21T11:38:31Z</time>
      </trkpt>
      <trkpt lat="48.94959" lon="1.89799">
        <ele>99.98</ele>
        <time>2018-01-21T11:38:49Z</time>
      </trkpt>
      <trkpt lat="48.94948" lon="1.89789">
        <ele>101.29</ele>
        <time>2018-01-21T11:39:03Z</time>
      </trkpt>
      <trkpt lat="48.94945" lon="1.89787">
        <ele>101.61</ele>
        <time>2018-01-21T11:39:08Z</time>
      </trkpt>
      <trkpt lat="48.94931" lon="1.89773">
        <ele>102.92</ele>
        <time>2018-01-21T11:39:24Z</time>
      </trkpt>
      <trkpt lat="48.94917" lon="1.8976">
        <ele>104.02</ele>
        <time>2018-01-21T11:39:39Z</time>
      </trkpt>
      <trkpt lat="48.94899" lon="1.89744">
        <ele>105.54</ele>
        <time>2018-01-21T11:39:57Z</time>
      </trkpt>
      <trkpt lat="48.94889" lon="1.89734">
        <ele>106.39</ele>
        <time>2018-01-21T11:40:10Z</time>
      </trkpt>
      <trkpt lat="48.94888" lon="1.89733">
        <ele>106.09</ele>
        <time>2018-01-21T11:40:11Z</time>
      </trkpt>
      <trkpt lat="48.94885" lon="1.89729">
        <ele>107.04</ele>
        <time>2018-01-21T11:40:15Z</time>
      </trkpt>
      <trkpt lat="48.9488" lon="1.89724">
        <ele>107.31</ele>
        <time>2018-01-21T11:40:23Z</time>
      </trkpt>
      <trkpt lat="48.94878" lon="1.89722">
        <ele>107.53</ele>
        <time>2018-01-21T11:40:26Z</time>
      </trkpt>
      <trkpt lat="48.94866" lon="1.89715">
        <ele>108.45</ele>
        <time>2018-01-21T11:40:40Z</time>
      </trkpt>
      <trkpt lat="48.9486" lon="1.89713">
        <ele>108.67</ele>
        <time>2018-01-21T11:40:54Z</time>
      </trkpt>
      <trkpt lat="48.94859" lon="1.89713">
        <ele>109.01</ele>
        <time>2018-01-21T11:41:23Z</time>
      </trkpt>
      <trkpt lat="48.94859" lon="1.89711">
        <ele>109.06</ele>
        <time>2018-01-21T11:41:55Z</time>
      </trkpt>
      <trkpt lat="48.94857" lon="1.89712">
        <ele>109.75</ele>
        <time>2018-01-21T11:42:14Z</time>
      </trkpt>
      <trkpt lat="48.94853" lon="1.89719">
        <ele>109.9</ele>
        <time>2018-01-21T11:42:40Z</time>
      </trkpt>
      <trkpt lat="48.94853" lon="1.89721">
        <ele>109.23</ele>
        <time>2018-01-21T11:42:45Z</time>
      </trkpt>
      <trkpt lat="48.94846" lon="1.89735">
        <ele>109.83</ele>
        <time>2018-01-21T11:42:58Z</time>
      </trkpt>
      <trkpt lat="48.94836" lon="1.8975">
        <ele>109.92</ele>
        <time>2018-01-21T11:43:15Z</time>
      </trkpt>
      <trkpt lat="48.94824" lon="1.8977">
        <ele>109.78</ele>
        <time>2018-01-21T11:43:32Z</time>
      </trkpt>
      <trkpt lat="48.9481" lon="1.89791">
        <ele>109.95</ele>
        <time>2018-01-21T11:43:50Z</time>
      </trkpt>
      <trkpt lat="48.94796" lon="1.89813">
        <ele>110.92</ele>
        <time>2018-01-21T11:44:08Z</time>
      </trkpt>
      <trkpt lat="48.94783" lon="1.89836">
        <ele>110.29</ele>
        <time>2018-01-21T11:44:26Z</time>
      </trkpt>
      <trkpt lat="48.94769" lon="1.89857">
        <ele>110.48</ele>
        <time>2018-01-21T11:44:44Z</time>
      </trkpt>
      <trkpt lat="48.94756" lon="1.8988">
        <ele>111.58</ele>
        <time>2018-01-21T11:45:04Z</time>
      </trkpt>
      <trkpt lat="48.94744" lon="1.89904">
        <ele>111.66</ele>
        <time>2018-01-21T11:45:23Z</time>
      </trkpt>
      <trkpt lat="48.9474" lon="1.89933">
        <ele>112.7</ele>
        <time>2018-01-21T11:45:41Z</time>
      </trkpt>
      <trkpt lat="48.9474" lon="1.89962">
        <ele>111.55</ele>
        <time>2018-01-21T11:45:58Z</time>
      </trkpt>
      <trkpt lat="48.9474" lon="1.89985">
        <ele>111.22</ele>
        <time>2018-01-21T11:46:14Z</time>
      </trkpt>
      <trkpt lat="48.94741" lon="1.90008">
        <ele>113.15</ele>
        <time>2018-01-21T11:46:29Z</time>
      </trkpt>
      <trkpt lat="48.9474" lon="1.90029">
        <ele>113.45</ele>
        <time>2018-01-21T11:46:44Z</time>
      </trkpt>
      <trkpt lat="48.94739" lon="1.90041">
        <ele>113.98</ele>
        <time>2018-01-21T11:46:53Z</time>
      </trkpt>
      <trkpt lat="48.94745" lon="1.90065">
        <ele>114.26</ele>
        <time>2018-01-21T11:47:09Z</time>
      </trkpt>
      <trkpt lat="48.94745" lon="1.90069">
        <ele>114.17</ele>
        <time>2018-01-21T11:47:12Z</time>
      </trkpt>
      <trkpt lat="48.94747" lon="1.90083">
        <ele>113.84</ele>
        <time>2018-01-21T11:47:25Z</time>
      </trkpt>
      <trkpt lat="48.94748" lon="1.90086">
        <ele>113.74</ele>
        <time>2018-01-21T11:47:27Z</time>
      </trkpt>
      <trkpt lat="48.94745" lon="1.90105">
        <ele>112.81</ele>
        <time>2018-01-21T11:47:42Z</time>
      </trkpt>
      <trkpt lat="48.94741" lon="1.9012">
        <ele>113.7</ele>
        <time>2018-01-21T11:47:56Z</time>
      </trkpt>
      <trkpt lat="48.94741" lon="1.90121">
        <ele>113.8</ele>
        <time>2018-01-21T11:47:57Z</time>
      </trkpt>
      <trkpt lat="48.94728" lon="1.90145">
        <ele>110.92</ele>
        <time>2018-01-21T11:48:15Z</time>
      </trkpt>
      <trkpt lat="48.94723" lon="1.90162">
        <ele>109.53</ele>
        <time>2018-01-21T11:48:27Z</time>
      </trkpt>
      <trkpt lat="48.9472" lon="1.90179">
        <ele>107.95</ele>
        <time>2018-01-21T11:48:37Z</time>
      </trkpt>
      <trkpt lat="48.94718" lon="1.90208">
        <ele>104.94</ele>
        <time>2018-01-21T11:48:55Z</time>
      </trkpt>
      <trkpt lat="48.94715" lon="1.90235">
        <ele>102.44</ele>
        <time>2018-01-21T11:49:11Z</time>
      </trkpt>
      <trkpt lat="48.94715" lon="1.90263">
        <ele>100.5</ele>
        <time>2018-01-21T11:49:29Z</time>
      </trkpt>
      <trkpt lat="48.94715" lon="1.90266">
        <ele>100.34</ele>
        <time>2018-01-21T11:49:31Z</time>
      </trkpt>
      <trkpt lat="48.94714" lon="1.90293">
        <ele>99.31</ele>
        <time>2018-01-21T11:49:49Z</time>
      </trkpt>
      <trkpt lat="48.94713" lon="1.90302">
        <ele>98.92</ele>
        <time>2018-01-21T11:49:54Z</time>
      </trkpt>
      <trkpt lat="48.94709" lon="1.90335">
        <ele>97.65</ele>
        <time>2018-01-21T11:50:12Z</time>
      </trkpt>
      <trkpt lat="48.94706" lon="1.90351">
        <ele>96.43</ele>
        <time>2018-01-21T11:50:28Z</time>
      </trkpt>
      <trkpt lat="48.94703" lon="1.90374">
        <ele>95.76</ele>
        <time>2018-01-21T11:50:46Z</time>
      </trkpt>
      <trkpt lat="48.94702" lon="1.90383">
        <ele>95.57</ele>
        <time>2018-01-21T11:50:51Z</time>
      </trkpt>
      <trkpt lat="48.94698" lon="1.90449">
        <ele>94.57</ele>
        <time>2018-01-21T11:51:59Z</time>
      </trkpt>
      <trkpt lat="48.94692" lon="1.90461">
        <ele>93.73</ele>
        <time>2018-01-21T11:52:16Z</time>
      </trkpt>
      <trkpt lat="48.9469" lon="1.90463">
        <ele>95.7</ele>
        <time>2018-01-21T12:36:09Z</time>
      </trkpt>
      <trkpt lat="48.94688" lon="1.90465">
        <ele>96.18</ele>
        <time>2018-01-21T12:37:08Z</time>
      </trkpt>
      <trkpt lat="48.94687" lon="1.90467">
        <ele>95.15</ele>
        <time>2018-01-21T12:38:20Z</time>
      </trkpt>
      <trkpt lat="48.94684" lon="1.90483">
        <ele>94.45</ele>
        <time>2018-01-21T12:38:34Z</time>
      </trkpt>
      <trkpt lat="48.94684" lon="1.90496">
        <ele>94.63</ele>
        <time>2018-01-21T12:38:46Z</time>
      </trkpt>
      <trkpt lat="48.94682" lon="1.90509">
        <ele>94.66</ele>
        <time>2018-01-21T12:38:56Z</time>
      </trkpt>
      <trkpt lat="48.94677" lon="1.90535">
        <ele>93.57</ele>
        <time>2018-01-21T12:39:13Z</time>
      </trkpt>
      <trkpt lat="48.94677" lon="1.90537">
        <ele>93.86</ele>
        <time>2018-01-21T12:39:14Z</time>
      </trkpt>
      <trkpt lat="48.94676" lon="1.90553">
        <ele>93.91</ele>
        <time>2018-01-21T12:39:23Z</time>
      </trkpt>
      <trkpt lat="48.94673" lon="1.90582">
        <ele>93.13</ele>
        <time>2018-01-21T12:39:39Z</time>
      </trkpt>
      <trkpt lat="48.9467" lon="1.90607">
        <ele>92.77</ele>
        <time>2018-01-21T12:39:54Z</time>
      </trkpt>
      <trkpt lat="48.94669" lon="1.90617">
        <ele>93.18</ele>
        <time>2018-01-21T12:40:03Z</time>
      </trkpt>
      <trkpt lat="48.94669" lon="1.90627">
        <ele>92.96</ele>
        <time>2018-01-21T12:40:09Z</time>
      </trkpt>
      <trkpt lat="48.94668" lon="1.90637">
        <ele>92.74</ele>
        <time>2018-01-21T12:40:15Z</time>
      </trkpt>
      <trkpt lat="48.94666" lon="1.90664">
        <ele>93.41</ele>
        <time>2018-01-21T12:40:31Z</time>
      </trkpt>
      <trkpt lat="48.94665" lon="1.90673">
        <ele>93.57</ele>
        <time>2018-01-21T12:40:39Z</time>
      </trkpt>
      <trkpt lat="48.94662" lon="1.90699">
        <ele>93.09</ele>
        <time>2018-01-21T12:40:55Z</time>
      </trkpt>
      <trkpt lat="48.94662" lon="1.90705">
        <ele>92.61</ele>
        <time>2018-01-21T12:41:00Z</time>
      </trkpt>
      <trkpt lat="48.94661" lon="1.90716">
        <ele>93.46</ele>
        <time>2018-01-21T12:41:07Z</time>
      </trkpt>
      <trkpt lat="48.94657" lon="1.90748">
        <ele>93.75</ele>
        <time>2018-01-21T12:41:26Z</time>
      </trkpt>
      <trkpt lat="48.94656" lon="1.90765">
        <ele>94.1</ele>
        <time>2018-01-21T12:41:41Z</time>
      </trkpt>
      <trkpt lat="48.94655" lon="1.9077">
        <ele>93.89</ele>
        <time>2018-01-21T12:41:44Z</time>
      </trkpt>
      <trkpt lat="48.94654" lon="1.90797">
        <ele>94.75</ele>
        <time>2018-01-21T12:42:01Z</time>
      </trkpt>
      <trkpt lat="48.94658" lon="1.90824">
        <ele>94.39</ele>
        <time>2018-01-21T12:42:18Z</time>
      </trkpt>
      <trkpt lat="48.94661" lon="1.90857">
        <ele>94.59</ele>
        <time>2018-01-21T12:42:37Z</time>
      </trkpt>
      <trkpt lat="48.94663" lon="1.90879">
        <ele>95.56</ele>
        <time>2018-01-21T12:42:51Z</time>
      </trkpt>
      <trkpt lat="48.94667" lon="1.90908">
        <ele>95.31</ele>
        <time>2018-01-21T12:43:06Z</time>
      </trkpt>
      <trkpt lat="48.94668" lon="1.90934">
        <ele>94.91</ele>
        <time>2018-01-21T12:43:22Z</time>
      </trkpt>
      <trkpt lat="48.94673" lon="1.90961">
        <ele>94.98</ele>
        <time>2018-01-21T12:43:41Z</time>
      </trkpt>
      <trkpt lat="48.94676" lon="1.90968">
        <ele>94.8</ele>
        <time>2018-01-21T12:43:48Z</time>
      </trkpt>
      <trkpt lat="48.9468" lon="1.90977">
        <ele>94</ele>
        <time>2018-01-21T12:43:54Z</time>
      </trkpt>
      <trkpt lat="48.94681" lon="1.9098">
        <ele>94.35</ele>
        <time>2018-01-21T12:43:57Z</time>
      </trkpt>
      <trkpt lat="48.94683" lon="1.90984">
        <ele>94.07</ele>
        <time>2018-01-21T12:44:02Z</time>
      </trkpt>
      <trkpt lat="48.94691" lon="1.91012">
        <ele>94.06</ele>
        <time>2018-01-21T12:44:19Z</time>
      </trkpt>
      <trkpt lat="48.94699" lon="1.9104">
        <ele>94.55</ele>
        <time>2018-01-21T12:44:35Z</time>
      </trkpt>
      <trkpt lat="48.94699" lon="1.91041">
        <ele>93.67</ele>
        <time>2018-01-21T12:44:36Z</time>
      </trkpt>
      <trkpt lat="48.94705" lon="1.91073">
        <ele>94.04</ele>
        <time>2018-01-21T12:44:54Z</time>
      </trkpt>
      <trkpt lat="48.94711" lon="1.91097">
        <ele>93.15</ele>
        <time>2018-01-21T12:45:08Z</time>
      </trkpt>
      <trkpt lat="48.94717" lon="1.91125">
        <ele>93.62</ele>
        <time>2018-01-21T12:45:25Z</time>
      </trkpt>
      <trkpt lat="48.94725" lon="1.91155">
        <ele>93.31</ele>
        <time>2018-01-21T12:45:43Z</time>
      </trkpt>
      <trkpt lat="48.94731" lon="1.91185">
        <ele>93.56</ele>
        <time>2018-01-21T12:46:00Z</time>
      </trkpt>
      <trkpt lat="48.94739" lon="1.91218">
        <ele>92.5</ele>
        <time>2018-01-21T12:46:19Z</time>
      </trkpt>
      <trkpt lat="48.94743" lon="1.91236">
        <ele>92.25</ele>
        <time>2018-01-21T12:46:30Z</time>
      </trkpt>
      <trkpt lat="48.94745" lon="1.91248">
        <ele>92.1</ele>
        <time>2018-01-21T12:46:37Z</time>
      </trkpt>
      <trkpt lat="48.94746" lon="1.91253">
        <ele>92.44</ele>
        <time>2018-01-21T12:46:46Z</time>
      </trkpt>
      <trkpt lat="48.94749" lon="1.91262">
        <ele>92.04</ele>
        <time>2018-01-21T12:46:51Z</time>
      </trkpt>
      <trkpt lat="48.94753" lon="1.91283">
        <ele>92.07</ele>
        <time>2018-01-21T12:47:04Z</time>
      </trkpt>
      <trkpt lat="48.94755" lon="1.91289">
        <ele>92.03</ele>
        <time>2018-01-21T12:47:08Z</time>
      </trkpt>
      <trkpt lat="48.94761" lon="1.91317">
        <ele>90.94</ele>
        <time>2018-01-21T12:47:25Z</time>
      </trkpt>
      <trkpt lat="48.94765" lon="1.91348">
        <ele>90.45</ele>
        <time>2018-01-21T12:47:43Z</time>
      </trkpt>
      <trkpt lat="48.9477" lon="1.91377">
        <ele>89.15</ele>
        <time>2018-01-21T12:48:00Z</time>
      </trkpt>
      <trkpt lat="48.94773" lon="1.91399">
        <ele>88.18</ele>
        <time>2018-01-21T12:48:14Z</time>
      </trkpt>
      <trkpt lat="48.94774" lon="1.91409">
        <ele>88.16</ele>
        <time>2018-01-21T12:48:20Z</time>
      </trkpt>
      <trkpt lat="48.94775" lon="1.91426">
        <ele>87.14</ele>
        <time>2018-01-21T12:48:30Z</time>
      </trkpt>
      <trkpt lat="48.94776" lon="1.91433">
        <ele>87.27</ele>
        <time>2018-01-21T12:48:34Z</time>
      </trkpt>
      <trkpt lat="48.94781" lon="1.91467">
        <ele>85.83</ele>
        <time>2018-01-21T12:48:54Z</time>
      </trkpt>
      <trkpt lat="48.94782" lon="1.91482">
        <ele>84.72</ele>
        <time>2018-01-21T12:49:04Z</time>
      </trkpt>
      <trkpt lat="48.9479" lon="1.9151">
        <ele>84.06</ele>
        <time>2018-01-21T12:49:22Z</time>
      </trkpt>
      <trkpt lat="48.94793" lon="1.91537">
        <ele>82.86</ele>
        <time>2018-01-21T12:49:37Z</time>
      </trkpt>
      <trkpt lat="48.94794" lon="1.91542">
        <ele>82.57</ele>
        <time>2018-01-21T12:49:40Z</time>
      </trkpt>
      <trkpt lat="48.94796" lon="1.91554">
        <ele>82.18</ele>
        <time>2018-01-21T12:49:47Z</time>
      </trkpt>
      <trkpt lat="48.94802" lon="1.91586">
        <ele>82.03</ele>
        <time>2018-01-21T12:50:06Z</time>
      </trkpt>
      <trkpt lat="48.94807" lon="1.91615">
        <ele>80.83</ele>
        <time>2018-01-21T12:50:22Z</time>
      </trkpt>
      <trkpt lat="48.94814" lon="1.91647">
        <ele>80.02</ele>
        <time>2018-01-21T12:50:41Z</time>
      </trkpt>
      <trkpt lat="48.94817" lon="1.91664">
        <ele>79.64</ele>
        <time>2018-01-21T12:50:50Z</time>
      </trkpt>
      <trkpt lat="48.94822" lon="1.91698">
        <ele>79.41</ele>
        <time>2018-01-21T12:51:09Z</time>
      </trkpt>
      <trkpt lat="48.94825" lon="1.91729">
        <ele>79.58</ele>
        <time>2018-01-21T12:51:27Z</time>
      </trkpt>
      <trkpt lat="48.94829" lon="1.91757">
        <ele>79.11</ele>
        <time>2018-01-21T12:51:43Z</time>
      </trkpt>
      <trkpt lat="48.94825" lon="1.91776">
        <ele>79.62</ele>
        <time>2018-01-21T12:51:58Z</time>
      </trkpt>
      <trkpt lat="48.94822" lon="1.91777">
        <ele>80.67</ele>
        <time>2018-01-21T12:52:01Z</time>
      </trkpt>
      <trkpt lat="48.94819" lon="1.91777">
        <ele>80</ele>
        <time>2018-01-21T12:52:17Z</time>
      </trkpt>
      <trkpt lat="48.94819" lon="1.91778">
        <ele>80.06</ele>
        <time>2018-01-21T12:52:54Z</time>
      </trkpt>
      <trkpt lat="48.94819" lon="1.91776">
        <ele>80.66</ele>
        <time>2018-01-21T12:53:19Z</time>
      </trkpt>
      <trkpt lat="48.94818" lon="1.91767">
        <ele>80.86</ele>
        <time>2018-01-21T12:53:35Z</time>
      </trkpt>
      <trkpt lat="48.94815" lon="1.91759">
        <ele>80.9</ele>
        <time>2018-01-21T12:53:45Z</time>
      </trkpt>
      <trkpt lat="48.94812" lon="1.91749">
        <ele>81.25</ele>
        <time>2018-01-21T12:53:54Z</time>
      </trkpt>
      <trkpt lat="48.94799" lon="1.91725">
        <ele>81.66</ele>
        <time>2018-01-21T12:54:12Z</time>
      </trkpt>
      <trkpt lat="48.94791" lon="1.91713">
        <ele>82.48</ele>
        <time>2018-01-21T12:54:25Z</time>
      </trkpt>
      <trkpt lat="48.94789" lon="1.91708">
        <ele>82.43</ele>
        <time>2018-01-21T12:54:31Z</time>
      </trkpt>
      <trkpt lat="48.94786" lon="1.91703">
        <ele>82.27</ele>
        <time>2018-01-21T12:54:35Z</time>
      </trkpt>
      <trkpt lat="48.94774" lon="1.91679">
        <ele>83.55</ele>
        <time>2018-01-21T12:54:53Z</time>
      </trkpt>
      <trkpt lat="48.94765" lon="1.91661">
        <ele>84.59</ele>
        <time>2018-01-21T12:55:08Z</time>
      </trkpt>
      <trkpt lat="48.94758" lon="1.91639">
        <ele>85.5</ele>
        <time>2018-01-21T12:55:26Z</time>
      </trkpt>
      <trkpt lat="48.94755" lon="1.91633">
        <ele>85.34</ele>
        <time>2018-01-21T12:55:33Z</time>
      </trkpt>
      <trkpt lat="48.94748" lon="1.91614">
        <ele>86.01</ele>
        <time>2018-01-21T12:55:47Z</time>
      </trkpt>
      <trkpt lat="48.94743" lon="1.91606">
        <ele>86.21</ele>
        <time>2018-01-21T12:55:53Z</time>
      </trkpt>
      <trkpt lat="48.94737" lon="1.91586">
        <ele>86.62</ele>
        <time>2018-01-21T12:56:07Z</time>
      </trkpt>
      <trkpt lat="48.94736" lon="1.91583">
        <ele>87.18</ele>
        <time>2018-01-21T12:56:12Z</time>
      </trkpt>
      <trkpt lat="48.94732" lon="1.91574">
        <ele>87.56</ele>
        <time>2018-01-21T12:56:18Z</time>
      </trkpt>
      <trkpt lat="48.94723" lon="1.91551">
        <ele>88.3</ele>
        <time>2018-01-21T12:56:34Z</time>
      </trkpt>
      <trkpt lat="48.9472" lon="1.91547">
        <ele>87.79</ele>
        <time>2018-01-21T12:56:47Z</time>
      </trkpt>
      <trkpt lat="48.94722" lon="1.91549">
        <ele>87.86</ele>
        <time>2018-01-21T12:57:03Z</time>
      </trkpt>
      <trkpt lat="48.94723" lon="1.91547">
        <ele>88.13</ele>
        <time>2018-01-21T12:57:09Z</time>
      </trkpt>
      <trkpt lat="48.94721" lon="1.91542">
        <ele>88.22</ele>
        <time>2018-01-21T12:57:12Z</time>
      </trkpt>
      <trkpt lat="48.94712" lon="1.91516">
        <ele>88.86</ele>
        <time>2018-01-21T12:57:28Z</time>
      </trkpt>
      <trkpt lat="48.94701" lon="1.91487">
        <ele>89.97</ele>
        <time>2018-01-21T12:57:46Z</time>
      </trkpt>
      <trkpt lat="48.94691" lon="1.91461">
        <ele>90.69</ele>
        <time>2018-01-21T12:58:03Z</time>
      </trkpt>
      <trkpt lat="48.94679" lon="1.91435">
        <ele>90.89</ele>
        <time>2018-01-21T12:58:21Z</time>
      </trkpt>
      <trkpt lat="48.9467" lon="1.91417">
        <ele>93.04</ele>
        <time>2018-01-21T12:58:33Z</time>
      </trkpt>
      <trkpt lat="48.94656" lon="1.914">
        <ele>94.61</ele>
        <time>2018-01-21T12:58:49Z</time>
      </trkpt>
      <trkpt lat="48.94645" lon="1.91385">
        <ele>95.62</ele>
        <time>2018-01-21T12:59:06Z</time>
      </trkpt>
      <trkpt lat="48.94641" lon="1.91377">
        <ele>96.14</ele>
        <time>2018-01-21T12:59:12Z</time>
      </trkpt>
      <trkpt lat="48.94629" lon="1.91358">
        <ele>97.71</ele>
        <time>2018-01-21T12:59:28Z</time>
      </trkpt>
      <trkpt lat="48.94617" lon="1.91338">
        <ele>98.57</ele>
        <time>2018-01-21T12:59:44Z</time>
      </trkpt>
      <trkpt lat="48.94606" lon="1.9132">
        <ele>99.82</ele>
        <time>2018-01-21T12:59:59Z</time>
      </trkpt>
      <trkpt lat="48.94594" lon="1.91302">
        <ele>100.78</ele>
        <time>2018-01-21T13:00:14Z</time>
      </trkpt>
      <trkpt lat="48.94587" lon="1.91289">
        <ele>101.37</ele>
        <time>2018-01-21T13:00:24Z</time>
      </trkpt>
      <trkpt lat="48.9457" lon="1.91268">
        <ele>102.94</ele>
        <time>2018-01-21T13:00:42Z</time>
      </trkpt>
      <trkpt lat="48.94556" lon="1.9125">
        <ele>104.19</ele>
        <time>2018-01-21T13:00:59Z</time>
      </trkpt>
      <trkpt lat="48.94543" lon="1.91234">
        <ele>105.31</ele>
        <time>2018-01-21T13:01:14Z</time>
      </trkpt>
      <trkpt lat="48.9453" lon="1.91219">
        <ele>105.98</ele>
        <time>2018-01-21T13:01:30Z</time>
      </trkpt>
      <trkpt lat="48.94526" lon="1.91214">
        <ele>105.91</ele>
        <time>2018-01-21T13:01:38Z</time>
      </trkpt>
      <trkpt lat="48.94523" lon="1.91212">
        <ele>106.23</ele>
        <time>2018-01-21T13:01:41Z</time>
      </trkpt>
      <trkpt lat="48.9451" lon="1.91199">
        <ele>107.21</ele>
        <time>2018-01-21T13:01:55Z</time>
      </trkpt>
      <trkpt lat="48.94496" lon="1.91187">
        <ele>108.44</ele>
        <time>2018-01-21T13:02:09Z</time>
      </trkpt>
      <trkpt lat="48.94485" lon="1.91175">
        <ele>109.04</ele>
        <time>2018-01-21T13:02:22Z</time>
      </trkpt>
      <trkpt lat="48.94471" lon="1.91162">
        <ele>109.52</ele>
        <time>2018-01-21T13:02:38Z</time>
      </trkpt>
      <trkpt lat="48.94468" lon="1.91158">
        <ele>110.24</ele>
        <time>2018-01-21T13:02:42Z</time>
      </trkpt>
      <trkpt lat="48.94461" lon="1.91149">
        <ele>110.47</ele>
        <time>2018-01-21T13:02:54Z</time>
      </trkpt>
      <trkpt lat="48.94448" lon="1.91135">
        <ele>111.74</ele>
        <time>2018-01-21T13:03:09Z</time>
      </trkpt>
      <trkpt lat="48.94435" lon="1.91123">
        <ele>112.09</ele>
        <time>2018-01-21T13:03:22Z</time>
      </trkpt>
      <trkpt lat="48.94424" lon="1.91111">
        <ele>112.86</ele>
        <time>2018-01-21T13:03:34Z</time>
      </trkpt>
      <trkpt lat="48.9441" lon="1.91096">
        <ele>113.78</ele>
        <time>2018-01-21T13:03:49Z</time>
      </trkpt>
      <trkpt lat="48.94405" lon="1.9109">
        <ele>114.72</ele>
        <time>2018-01-21T13:03:55Z</time>
      </trkpt>
      <trkpt lat="48.94389" lon="1.91074">
        <ele>116.06</ele>
        <time>2018-01-21T13:04:12Z</time>
      </trkpt>
      <trkpt lat="48.94378" lon="1.91065">
        <ele>117.02</ele>
        <time>2018-01-21T13:04:25Z</time>
      </trkpt>
      <trkpt lat="48.94362" lon="1.9105">
        <ele>118.6</ele>
        <time>2018-01-21T13:04:42Z</time>
      </trkpt>
      <trkpt lat="48.94352" lon="1.91031">
        <ele>120.44</ele>
        <time>2018-01-21T13:04:56Z</time>
      </trkpt>
      <trkpt lat="48.94345" lon="1.91024">
        <ele>121.05</ele>
        <time>2018-01-21T13:05:05Z</time>
      </trkpt>
      <trkpt lat="48.94334" lon="1.91013">
        <ele>122.19</ele>
        <time>2018-01-21T13:05:20Z</time>
      </trkpt>
      <trkpt lat="48.94324" lon="1.91001">
        <ele>123.08</ele>
        <time>2018-01-21T13:05:37Z</time>
      </trkpt>
      <trkpt lat="48.94313" lon="1.90994">
        <ele>123.84</ele>
        <time>2018-01-21T13:05:52Z</time>
      </trkpt>
      <trkpt lat="48.94297" lon="1.90981">
        <ele>124.77</ele>
        <time>2018-01-21T13:06:10Z</time>
      </trkpt>
      <trkpt lat="48.94278" lon="1.90968">
        <ele>125.81</ele>
        <time>2018-01-21T13:06:29Z</time>
      </trkpt>
      <trkpt lat="48.94258" lon="1.90956">
        <ele>127.85</ele>
        <time>2018-01-21T13:06:49Z</time>
      </trkpt>
      <trkpt lat="48.94238" lon="1.90942">
        <ele>129.05</ele>
        <time>2018-01-21T13:07:08Z</time>
      </trkpt>
      <trkpt lat="48.94224" lon="1.90932">
        <ele>129.73</ele>
        <time>2018-01-21T13:07:25Z</time>
      </trkpt>
      <trkpt lat="48.94208" lon="1.9093">
        <ele>131.31</ele>
        <time>2018-01-21T13:07:41Z</time>
      </trkpt>
      <trkpt lat="48.94199" lon="1.90929">
        <ele>132.18</ele>
        <time>2018-01-21T13:07:52Z</time>
      </trkpt>
      <trkpt lat="48.94185" lon="1.90916">
        <ele>133.61</ele>
        <time>2018-01-21T13:08:12Z</time>
      </trkpt>
      <trkpt lat="48.94182" lon="1.90914">
        <ele>133.3</ele>
        <time>2018-01-21T13:08:26Z</time>
      </trkpt>
      <trkpt lat="48.94179" lon="1.90912">
        <ele>133.52</ele>
        <time>2018-01-21T13:08:47Z</time>
      </trkpt>
      <trkpt lat="48.94177" lon="1.90914">
        <ele>134.21</ele>
        <time>2018-01-21T13:09:07Z</time>
      </trkpt>
      <trkpt lat="48.94179" lon="1.90913">
        <ele>134.6</ele>
        <time>2018-01-21T13:09:32Z</time>
      </trkpt>
      <trkpt lat="48.94173" lon="1.90906">
        <ele>134.83</ele>
        <time>2018-01-21T13:09:50Z</time>
      </trkpt>
      <trkpt lat="48.94172" lon="1.90906">
        <ele>134.86</ele>
        <time>2018-01-21T13:09:51Z</time>
      </trkpt>
      <trkpt lat="48.94166" lon="1.909">
        <ele>135.93</ele>
        <time>2018-01-21T13:09:58Z</time>
      </trkpt>
      <trkpt lat="48.94159" lon="1.90895">
        <ele>137.18</ele>
        <time>2018-01-21T13:10:08Z</time>
      </trkpt>
      <trkpt lat="48.94157" lon="1.90892">
        <ele>137.44</ele>
        <time>2018-01-21T13:10:11Z</time>
      </trkpt>
      <trkpt lat="48.94155" lon="1.9089">
        <ele>138.02</ele>
        <time>2018-01-21T13:10:14Z</time>
      </trkpt>
      <trkpt lat="48.94151" lon="1.90884">
        <ele>138.06</ele>
        <time>2018-01-21T13:10:22Z</time>
      </trkpt>
      <trkpt lat="48.9414" lon="1.90868">
        <ele>138.64</ele>
        <time>2018-01-21T13:10:38Z</time>
      </trkpt>
      <trkpt lat="48.94136" lon="1.90862">
        <ele>139.75</ele>
        <time>2018-01-21T13:10:45Z</time>
      </trkpt>
      <trkpt lat="48.94134" lon="1.90859">
        <ele>140.54</ele>
        <time>2018-01-21T13:10:47Z</time>
      </trkpt>
      <trkpt lat="48.94131" lon="1.90853">
        <ele>140.86</ele>
        <time>2018-01-21T13:10:56Z</time>
      </trkpt>
      <trkpt lat="48.94119" lon="1.90839">
        <ele>141.88</ele>
        <time>2018-01-21T13:11:13Z</time>
      </trkpt>
      <trkpt lat="48.94107" lon="1.90826">
        <ele>143.79</ele>
        <time>2018-01-21T13:11:31Z</time>
      </trkpt>
      <trkpt lat="48.94099" lon="1.90818">
        <ele>144.8</ele>
        <time>2018-01-21T13:11:48Z</time>
      </trkpt>
      <trkpt lat="48.94098" lon="1.90816">
        <ele>146.25</ele>
        <time>2018-01-21T13:11:50Z</time>
      </trkpt>
      <trkpt lat="48.94089" lon="1.90803">
        <ele>147.6</ele>
        <time>2018-01-21T13:12:02Z</time>
      </trkpt>
      <trkpt lat="48.94083" lon="1.90796">
        <ele>147.25</ele>
        <time>2018-01-21T13:12:11Z</time>
      </trkpt>
      <trkpt lat="48.94071" lon="1.90778">
        <ele>149.16</ele>
        <time>2018-01-21T13:12:27Z</time>
      </trkpt>
      <trkpt lat="48.9406" lon="1.90764">
        <ele>151.58</ele>
        <time>2018-01-21T13:12:42Z</time>
      </trkpt>
      <trkpt lat="48.94056" lon="1.90759">
        <ele>152.42</ele>
        <time>2018-01-21T13:12:51Z</time>
      </trkpt>
      <trkpt lat="48.94047" lon="1.90745">
        <ele>153.67</ele>
        <time>2018-01-21T13:13:04Z</time>
      </trkpt>
      <trkpt lat="48.9404" lon="1.90721">
        <ele>154.33</ele>
        <time>2018-01-21T13:13:22Z</time>
      </trkpt>
      <trkpt lat="48.94028" lon="1.90696">
        <ele>156.25</ele>
        <time>2018-01-21T13:13:43Z</time>
      </trkpt>
      <trkpt lat="48.94014" lon="1.90671">
        <ele>157.82</ele>
        <time>2018-01-21T13:14:03Z</time>
      </trkpt>
      <trkpt lat="48.94001" lon="1.90658">
        <ele>157.98</ele>
        <time>2018-01-21T13:14:18Z</time>
      </trkpt>
      <trkpt lat="48.93999" lon="1.90658">
        <ele>157.66</ele>
        <time>2018-01-21T13:14:20Z</time>
      </trkpt>
      <trkpt lat="48.93996" lon="1.90655">
        <ele>157.79</ele>
        <time>2018-01-21T13:14:23Z</time>
      </trkpt>
      <trkpt lat="48.93993" lon="1.90653">
        <ele>158.81</ele>
        <time>2018-01-21T13:14:26Z</time>
      </trkpt>
      <trkpt lat="48.93978" lon="1.90641">
        <ele>159.28</ele>
        <time>2018-01-21T13:14:41Z</time>
      </trkpt>
      <trkpt lat="48.9396" lon="1.90629">
        <ele>159.68</ele>
        <time>2018-01-21T13:14:57Z</time>
      </trkpt>
      <trkpt lat="48.93948" lon="1.9062">
        <ele>160.21</ele>
        <time>2018-01-21T13:15:10Z</time>
      </trkpt>
      <trkpt lat="48.93935" lon="1.90606">
        <ele>160.91</ele>
        <time>2018-01-21T13:15:25Z</time>
      </trkpt>
      <trkpt lat="48.93922" lon="1.90593">
        <ele>160.8</ele>
        <time>2018-01-21T13:15:42Z</time>
      </trkpt>
      <trkpt lat="48.93916" lon="1.9059">
        <ele>161.11</ele>
        <time>2018-01-21T13:15:46Z</time>
      </trkpt>
      <trkpt lat="48.93903" lon="1.9058">
        <ele>162.04</ele>
        <time>2018-01-21T13:16:01Z</time>
      </trkpt>
      <trkpt lat="48.9389" lon="1.90571">
        <ele>162.67</ele>
        <time>2018-01-21T13:16:19Z</time>
      </trkpt>
      <trkpt lat="48.93892" lon="1.90568">
        <ele>162.25</ele>
        <time>2018-01-21T13:16:45Z</time>
      </trkpt>
      <trkpt lat="48.93896" lon="1.90569">
        <ele>162.48</ele>
        <time>2018-01-21T13:17:19Z</time>
      </trkpt>
      <trkpt lat="48.93895" lon="1.9057">
        <ele>162.99</ele>
        <time>2018-01-21T13:17:47Z</time>
      </trkpt>
      <trkpt lat="48.93895" lon="1.90569">
        <ele>162.68</ele>
        <time>2018-01-21T13:18:16Z</time>
      </trkpt>
      <trkpt lat="48.93896" lon="1.90572">
        <ele>162.54</ele>
        <time>2018-01-21T13:18:50Z</time>
      </trkpt>
      <trkpt lat="48.93896" lon="1.90572">
        <ele>162.54</ele>
        <time>2018-01-21T13:19:22Z</time>
      </trkpt>
      <trkpt lat="48.93895" lon="1.90571">
        <ele>162.8</ele>
        <time>2018-01-21T13:19:44Z</time>
      </trkpt>
      <trkpt lat="48.93894" lon="1.90568">
        <ele>162.73</ele>
        <time>2018-01-21T13:20:14Z</time>
      </trkpt>
      <trkpt lat="48.93896" lon="1.90569">
        <ele>162.76</ele>
        <time>2018-01-21T13:20:41Z</time>
      </trkpt>
      <trkpt lat="48.93893" lon="1.90568">
        <ele>161.97</ele>
        <time>2018-01-21T13:21:09Z</time>
      </trkpt>
      <trkpt lat="48.93894" lon="1.90564">
        <ele>163.07</ele>
        <time>2018-01-21T13:21:36Z</time>
      </trkpt>
      <trkpt lat="48.93893" lon="1.90567">
        <ele>162.79</ele>
        <time>2018-01-21T13:22:01Z</time>
      </trkpt>
      <trkpt lat="48.93893" lon="1.90569">
        <ele>162.71</ele>
        <time>2018-01-21T13:22:35Z</time>
      </trkpt>
      <trkpt lat="48.9389" lon="1.90571">
        <ele>162.4</ele>
        <time>2018-01-21T13:23:00Z</time>
      </trkpt>
      <trkpt lat="48.93888" lon="1.90565">
        <ele>162.97</ele>
        <time>2018-01-21T13:23:26Z</time>
      </trkpt>
      <trkpt lat="48.93886" lon="1.90558">
        <ele>163.21</ele>
        <time>2018-01-21T13:23:35Z</time>
      </trkpt>
      <trkpt lat="48.93867" lon="1.90534">
        <ele>163.81</ele>
        <time>2018-01-21T13:23:55Z</time>
      </trkpt>
      <trkpt lat="48.93862" lon="1.90525">
        <ele>163.78</ele>
        <time>2018-01-21T13:24:00Z</time>
      </trkpt>
      <trkpt lat="48.93853" lon="1.90505">
        <ele>163.68</ele>
        <time>2018-01-21T13:24:16Z</time>
      </trkpt>
      <trkpt lat="48.93845" lon="1.90481">
        <ele>164.05</ele>
        <time>2018-01-21T13:24:34Z</time>
      </trkpt>
      <trkpt lat="48.93841" lon="1.90462">
        <ele>164.04</ele>
        <time>2018-01-21T13:24:56Z</time>
      </trkpt>
      <trkpt lat="48.93839" lon="1.90459">
        <ele>163.89</ele>
        <time>2018-01-21T13:24:58Z</time>
      </trkpt>
      <trkpt lat="48.93835" lon="1.90438">
        <ele>164.62</ele>
        <time>2018-01-21T13:25:15Z</time>
      </trkpt>
      <trkpt lat="48.93829" lon="1.90412">
        <ele>163.61</ele>
        <time>2018-01-21T13:25:33Z</time>
      </trkpt>
      <trkpt lat="48.93826" lon="1.90398">
        <ele>164.31</ele>
        <time>2018-01-21T13:25:49Z</time>
      </trkpt>
      <trkpt lat="48.93826" lon="1.9038">
        <ele>163.82</ele>
        <time>2018-01-21T13:26:10Z</time>
      </trkpt>
      <trkpt lat="48.93827" lon="1.90369">
        <ele>163.41</ele>
        <time>2018-01-21T13:26:32Z</time>
      </trkpt>
      <trkpt lat="48.93821" lon="1.90349">
        <ele>163.33</ele>
        <time>2018-01-21T13:26:52Z</time>
      </trkpt>
      <trkpt lat="48.9381" lon="1.90315">
        <ele>164.03</ele>
        <time>2018-01-21T13:27:11Z</time>
      </trkpt>
      <trkpt lat="48.93799" lon="1.90304">
        <ele>164.23</ele>
        <time>2018-01-21T13:27:19Z</time>
      </trkpt>
      <trkpt lat="48.93789" lon="1.90295">
        <ele>164.32</ele>
        <time>2018-01-21T13:27:33Z</time>
      </trkpt>
      <trkpt lat="48.93788" lon="1.90297">
        <ele>164.32</ele>
        <time>2018-01-21T13:28:08Z</time>
      </trkpt>
      <trkpt lat="48.93781" lon="1.90292">
        <ele>163.81</ele>
        <time>2018-01-21T13:28:36Z</time>
      </trkpt>
      <trkpt lat="48.93778" lon="1.90284">
        <ele>164.27</ele>
        <time>2018-01-21T13:28:43Z</time>
      </trkpt>
      <trkpt lat="48.93766" lon="1.90268">
        <ele>164.56</ele>
        <time>2018-01-21T13:29:05Z</time>
      </trkpt>
      <trkpt lat="48.93754" lon="1.90245">
        <ele>165.12</ele>
        <time>2018-01-21T13:29:24Z</time>
      </trkpt>
      <trkpt lat="48.93746" lon="1.90227">
        <ele>164.63</ele>
        <time>2018-01-21T13:29:41Z</time>
      </trkpt>
      <trkpt lat="48.93746" lon="1.90226">
        <ele>164.42</ele>
        <time>2018-01-21T13:29:42Z</time>
      </trkpt>
      <trkpt lat="48.9373" lon="1.9019">
        <ele>165.08</ele>
        <time>2018-01-21T13:30:02Z</time>
      </trkpt>
      <trkpt lat="48.93725" lon="1.90175">
        <ele>165.07</ele>
        <time>2018-01-21T13:30:09Z</time>
      </trkpt>
      <trkpt lat="48.93724" lon="1.90166">
        <ele>164.56</ele>
        <time>2018-01-21T13:30:38Z</time>
      </trkpt>
      <trkpt lat="48.93716" lon="1.90145">
        <ele>165.06</ele>
        <time>2018-01-21T13:30:55Z</time>
      </trkpt>
      <trkpt lat="48.93713" lon="1.90128">
        <ele>164.21</ele>
        <time>2018-01-21T13:31:12Z</time>
      </trkpt>
      <trkpt lat="48.93712" lon="1.90122">
        <ele>164.02</ele>
        <time>2018-01-21T13:31:16Z</time>
      </trkpt>
      <trkpt lat="48.93709" lon="1.90113">
        <ele>164.63</ele>
        <time>2018-01-21T13:31:41Z</time>
      </trkpt>
      <trkpt lat="48.93708" lon="1.90113">
        <ele>163.95</ele>
        <time>2018-01-21T13:32:07Z</time>
      </trkpt>
      <trkpt lat="48.93706" lon="1.90106">
        <ele>164.84</ele>
        <time>2018-01-21T13:32:37Z</time>
      </trkpt>
      <trkpt lat="48.93705" lon="1.90087">
        <ele>164.21</ele>
        <time>2018-01-21T13:32:53Z</time>
      </trkpt>
      <trkpt lat="48.93699" lon="1.90065">
        <ele>164.36</ele>
        <time>2018-01-21T13:33:12Z</time>
      </trkpt>
      <trkpt lat="48.93697" lon="1.90059">
        <ele>164.63</ele>
        <time>2018-01-21T13:33:17Z</time>
      </trkpt>
      <trkpt lat="48.93696" lon="1.90057">
        <ele>164.94</ele>
        <time>2018-01-21T13:33:19Z</time>
      </trkpt>
      <trkpt lat="48.93686" lon="1.90036">
        <ele>164.86</ele>
        <time>2018-01-21T13:33:38Z</time>
      </trkpt>
      <trkpt lat="48.93676" lon="1.90029">
        <ele>165.21</ele>
        <time>2018-01-21T13:33:56Z</time>
      </trkpt>
      <trkpt lat="48.93676" lon="1.90027">
        <ele>165.83</ele>
        <time>2018-01-21T13:33:58Z</time>
      </trkpt>
      <trkpt lat="48.93675" lon="1.90024">
        <ele>165.78</ele>
        <time>2018-01-21T13:34:00Z</time>
      </trkpt>
      <trkpt lat="48.93671" lon="1.90007">
        <ele>165.25</ele>
        <time>2018-01-21T13:34:17Z</time>
      </trkpt>
      <trkpt lat="48.93671" lon="1.90006">
        <ele>165.35</ele>
        <time>2018-01-21T13:34:18Z</time>
      </trkpt>
      <trkpt lat="48.93667" lon="1.8999">
        <ele>165</ele>
        <time>2018-01-21T13:34:36Z</time>
      </trkpt>
      <trkpt lat="48.93658" lon="1.89976">
        <ele>164.88</ele>
        <time>2018-01-21T13:34:56Z</time>
      </trkpt>
      <trkpt lat="48.93649" lon="1.89965">
        <ele>165.29</ele>
        <time>2018-01-21T13:35:15Z</time>
      </trkpt>
      <trkpt lat="48.93637" lon="1.89951">
        <ele>165.31</ele>
        <time>2018-01-21T13:35:28Z</time>
      </trkpt>
      <trkpt lat="48.93632" lon="1.89943">
        <ele>165.33</ele>
        <time>2018-01-21T13:35:35Z</time>
      </trkpt>
      <trkpt lat="48.93619" lon="1.89914">
        <ele>166.46</ele>
        <time>2018-01-21T13:35:55Z</time>
      </trkpt>
      <trkpt lat="48.93612" lon="1.89905">
        <ele>165.31</ele>
        <time>2018-01-21T13:36:05Z</time>
      </trkpt>
      <trkpt lat="48.9361" lon="1.89902">
        <ele>165.36</ele>
        <time>2018-01-21T13:36:08Z</time>
      </trkpt>
      <trkpt lat="48.93609" lon="1.89898">
        <ele>165.8</ele>
        <time>2018-01-21T13:36:11Z</time>
      </trkpt>
      <trkpt lat="48.93605" lon="1.89892">
        <ele>165.32</ele>
        <time>2018-01-21T13:36:17Z</time>
      </trkpt>
      <trkpt lat="48.936" lon="1.89882">
        <ele>165.7</ele>
        <time>2018-01-21T13:36:26Z</time>
      </trkpt>
      <trkpt lat="48.93598" lon="1.89878">
        <ele>165.8</ele>
        <time>2018-01-21T13:36:33Z</time>
      </trkpt>
      <trkpt lat="48.93597" lon="1.89876">
        <ele>166.14</ele>
        <time>2018-01-21T13:36:35Z</time>
      </trkpt>
      <trkpt lat="48.93596" lon="1.89872">
        <ele>165.8</ele>
        <time>2018-01-21T13:36:38Z</time>
      </trkpt>
      <trkpt lat="48.93595" lon="1.8987">
        <ele>165.35</ele>
        <time>2018-01-21T13:36:40Z</time>
      </trkpt>
      <trkpt lat="48.93589" lon="1.89858">
        <ele>166.87</ele>
        <time>2018-01-21T13:36:55Z</time>
      </trkpt>
      <trkpt lat="48.93581" lon="1.8984">
        <ele>166.12</ele>
        <time>2018-01-21T13:37:11Z</time>
      </trkpt>
      <trkpt lat="48.93572" lon="1.89823">
        <ele>165.78</ele>
        <time>2018-01-21T13:37:24Z</time>
      </trkpt>
      <trkpt lat="48.93568" lon="1.89812">
        <ele>165.49</ele>
        <time>2018-01-21T13:37:46Z</time>
      </trkpt>
      <trkpt lat="48.93561" lon="1.89794">
        <ele>165.89</ele>
        <time>2018-01-21T13:38:02Z</time>
      </trkpt>
      <trkpt lat="48.93549" lon="1.89777">
        <ele>165.62</ele>
        <time>2018-01-21T13:38:19Z</time>
      </trkpt>
      <trkpt lat="48.93547" lon="1.89773">
        <ele>165.48</ele>
        <time>2018-01-21T13:38:25Z</time>
      </trkpt>
      <trkpt lat="48.93545" lon="1.89771">
        <ele>165.41</ele>
        <time>2018-01-21T13:38:27Z</time>
      </trkpt>
      <trkpt lat="48.93535" lon="1.89747">
        <ele>165.35</ele>
        <time>2018-01-21T13:38:46Z</time>
      </trkpt>
      <trkpt lat="48.93522" lon="1.89728">
        <ele>165.37</ele>
        <time>2018-01-21T13:39:03Z</time>
      </trkpt>
      <trkpt lat="48.93507" lon="1.89706">
        <ele>165.3</ele>
        <time>2018-01-21T13:39:23Z</time>
      </trkpt>
      <trkpt lat="48.9349" lon="1.89685">
        <ele>165.53</ele>
        <time>2018-01-21T13:39:41Z</time>
      </trkpt>
      <trkpt lat="48.93486" lon="1.89677">
        <ele>165.83</ele>
        <time>2018-01-21T13:39:49Z</time>
      </trkpt>
      <trkpt lat="48.93474" lon="1.89656">
        <ele>165.87</ele>
        <time>2018-01-21T13:40:08Z</time>
      </trkpt>
      <trkpt lat="48.93469" lon="1.89647">
        <ele>165.24</ele>
        <time>2018-01-21T13:40:16Z</time>
      </trkpt>
      <trkpt lat="48.93456" lon="1.89626">
        <ele>165.06</ele>
        <time>2018-01-21T13:40:33Z</time>
      </trkpt>
      <trkpt lat="48.93452" lon="1.89613">
        <ele>165.22</ele>
        <time>2018-01-21T13:40:55Z</time>
      </trkpt>
      <trkpt lat="48.93453" lon="1.89609">
        <ele>166</ele>
        <time>2018-01-21T13:41:18Z</time>
      </trkpt>
      <trkpt lat="48.93456" lon="1.89611">
        <ele>165.62</ele>
        <time>2018-01-21T13:41:47Z</time>
      </trkpt>
      <trkpt lat="48.93453" lon="1.8961">
        <ele>165.63</ele>
        <time>2018-01-21T13:42:18Z</time>
      </trkpt>
      <trkpt lat="48.93449" lon="1.89606">
        <ele>166.36</ele>
        <time>2018-01-21T13:42:46Z</time>
      </trkpt>
      <trkpt lat="48.93447" lon="1.89606">
        <ele>166.25</ele>
        <time>2018-01-21T13:43:11Z</time>
      </trkpt>
      <trkpt lat="48.93448" lon="1.89604">
        <ele>166.41</ele>
        <time>2018-01-21T13:43:36Z</time>
      </trkpt>
      <trkpt lat="48.93446" lon="1.89601">
        <ele>167.34</ele>
        <time>2018-01-21T13:44:07Z</time>
      </trkpt>
      <trkpt lat="48.93444" lon="1.89603">
        <ele>167.21</ele>
        <time>2018-01-21T13:44:32Z</time>
      </trkpt>
      <trkpt lat="48.93442" lon="1.89602">
        <ele>167.32</ele>
        <time>2018-01-21T13:44:57Z</time>
      </trkpt>
      <trkpt lat="48.93434" lon="1.8959">
        <ele>167.35</ele>
        <time>2018-01-21T13:45:19Z</time>
      </trkpt>
      <trkpt lat="48.93423" lon="1.89578">
        <ele>167.13</ele>
        <time>2018-01-21T13:45:35Z</time>
      </trkpt>
      <trkpt lat="48.9342" lon="1.89572">
        <ele>167.72</ele>
        <time>2018-01-21T13:45:41Z</time>
      </trkpt>
      <trkpt lat="48.93411" lon="1.89558">
        <ele>167.23</ele>
        <time>2018-01-21T13:45:53Z</time>
      </trkpt>
      <trkpt lat="48.93395" lon="1.89533">
        <ele>167.23</ele>
        <time>2018-01-21T13:46:15Z</time>
      </trkpt>
      <trkpt lat="48.93379" lon="1.89508">
        <ele>166.57</ele>
        <time>2018-01-21T13:46:31Z</time>
      </trkpt>
      <trkpt lat="48.9336" lon="1.89488">
        <ele>166.98</ele>
        <time>2018-01-21T13:46:50Z</time>
      </trkpt>
      <trkpt lat="48.93352" lon="1.89477">
        <ele>167.22</ele>
        <time>2018-01-21T13:47:00Z</time>
      </trkpt>
      <trkpt lat="48.93346" lon="1.89465">
        <ele>167.4</ele>
        <time>2018-01-21T13:47:11Z</time>
      </trkpt>
      <trkpt lat="48.93335" lon="1.89446">
        <ele>167.59</ele>
        <time>2018-01-21T13:47:24Z</time>
      </trkpt>
      <trkpt lat="48.93335" lon="1.89443">
        <ele>167.14</ele>
        <time>2018-01-21T13:47:27Z</time>
      </trkpt>
      <trkpt lat="48.93324" lon="1.89427">
        <ele>166.6</ele>
        <time>2018-01-21T13:47:48Z</time>
      </trkpt>
      <trkpt lat="48.9332" lon="1.89422">
        <ele>167.25</ele>
        <time>2018-01-21T13:47:54Z</time>
      </trkpt>
      <trkpt lat="48.93318" lon="1.89418">
        <ele>167.15</ele>
        <time>2018-01-21T13:47:57Z</time>
      </trkpt>
      <trkpt lat="48.93317" lon="1.89415">
        <ele>167.59</ele>
        <time>2018-01-21T13:47:59Z</time>
      </trkpt>
      <trkpt lat="48.93311" lon="1.89402">
        <ele>167.39</ele>
        <time>2018-01-21T13:48:09Z</time>
      </trkpt>
      <trkpt lat="48.93309" lon="1.89398">
        <ele>167.32</ele>
        <time>2018-01-21T13:48:13Z</time>
      </trkpt>
      <trkpt lat="48.93307" lon="1.8939">
        <ele>167.76</ele>
        <time>2018-01-21T13:48:19Z</time>
      </trkpt>
      <trkpt lat="48.933" lon="1.89372">
        <ele>167.78</ele>
        <time>2018-01-21T13:48:33Z</time>
      </trkpt>
      <trkpt lat="48.93291" lon="1.89353">
        <ele>167.57</ele>
        <time>2018-01-21T13:48:49Z</time>
      </trkpt>
      <trkpt lat="48.93287" lon="1.89345">
        <ele>168.26</ele>
        <time>2018-01-21T13:48:55Z</time>
      </trkpt>
      <trkpt lat="48.93284" lon="1.89336">
        <ele>167.88</ele>
        <time>2018-01-21T13:49:01Z</time>
      </trkpt>
      <trkpt lat="48.93284" lon="1.8933">
        <ele>167.53</ele>
        <time>2018-01-21T13:49:23Z</time>
      </trkpt>
      <trkpt lat="48.9328" lon="1.89331">
        <ele>168.3</ele>
        <time>2018-01-21T13:49:48Z</time>
      </trkpt>
      <trkpt lat="48.93279" lon="1.89333">
        <ele>168.87</ele>
        <time>2018-01-21T13:50:24Z</time>
      </trkpt>
      <trkpt lat="48.9328" lon="1.89332">
        <ele>168.87</ele>
        <time>2018-01-21T13:50:50Z</time>
      </trkpt>
      <trkpt lat="48.9328" lon="1.89331">
        <ele>169.41</ele>
        <time>2018-01-21T13:51:15Z</time>
      </trkpt>
      <trkpt lat="48.93283" lon="1.89332">
        <ele>168.87</ele>
        <time>2018-01-21T13:51:31Z</time>
      </trkpt>
      <trkpt lat="48.93282" lon="1.89332">
        <ele>169.33</ele>
        <time>2018-01-21T13:51:55Z</time>
      </trkpt>
      <trkpt lat="48.93281" lon="1.8933">
        <ele>169.41</ele>
        <time>2018-01-21T13:52:24Z</time>
      </trkpt>
      <trkpt lat="48.93285" lon="1.89318">
        <ele>168.8</ele>
        <time>2018-01-21T13:52:43Z</time>
      </trkpt>
      <trkpt lat="48.93289" lon="1.893">
        <ele>168.73</ele>
        <time>2018-01-21T13:53:03Z</time>
      </trkpt>
      <trkpt lat="48.93297" lon="1.89277">
        <ele>168.71</ele>
        <time>2018-01-21T13:53:24Z</time>
      </trkpt>
      <trkpt lat="48.93302" lon="1.89255">
        <ele>169.08</ele>
        <time>2018-01-21T13:53:42Z</time>
      </trkpt>
      <trkpt lat="48.93307" lon="1.89237">
        <ele>169.72</ele>
        <time>2018-01-21T13:54:00Z</time>
      </trkpt>
      <trkpt lat="48.93316" lon="1.89212">
        <ele>169.81</ele>
        <time>2018-01-21T13:54:22Z</time>
      </trkpt>
      <trkpt lat="48.93322" lon="1.89187">
        <ele>170.57</ele>
        <time>2018-01-21T13:54:39Z</time>
      </trkpt>
      <trkpt lat="48.93328" lon="1.89163">
        <ele>170.78</ele>
        <time>2018-01-21T13:54:58Z</time>
      </trkpt>
      <trkpt lat="48.93335" lon="1.89132">
        <ele>170.82</ele>
        <time>2018-01-21T13:55:16Z</time>
      </trkpt>
      <trkpt lat="48.93339" lon="1.89113">
        <ele>170.61</ele>
        <time>2018-01-21T13:55:36Z</time>
      </trkpt>
      <trkpt lat="48.93346" lon="1.89093">
        <ele>170.58</ele>
        <time>2018-01-21T13:55:53Z</time>
      </trkpt>
      <trkpt lat="48.93348" lon="1.89079">
        <ele>170.76</ele>
        <time>2018-01-21T13:56:02Z</time>
      </trkpt>
      <trkpt lat="48.93349" lon="1.89075">
        <ele>170.68</ele>
        <time>2018-01-21T13:56:04Z</time>
      </trkpt>
      <trkpt lat="48.93351" lon="1.89064">
        <ele>171.35</ele>
        <time>2018-01-21T13:56:11Z</time>
      </trkpt>
      <trkpt lat="48.93352" lon="1.89058">
        <ele>171.03</ele>
        <time>2018-01-21T13:56:14Z</time>
      </trkpt>
      <trkpt lat="48.93358" lon="1.89039">
        <ele>171.3</ele>
        <time>2018-01-21T13:56:28Z</time>
      </trkpt>
      <trkpt lat="48.93367" lon="1.89016">
        <ele>171.21</ele>
        <time>2018-01-21T13:56:46Z</time>
      </trkpt>
      <trkpt lat="48.9337" lon="1.88997">
        <ele>171.13</ele>
        <time>2018-01-21T13:57:00Z</time>
      </trkpt>
      <trkpt lat="48.93379" lon="1.88976">
        <ele>171.12</ele>
        <time>2018-01-21T13:57:19Z</time>
      </trkpt>
      <trkpt lat="48.93385" lon="1.8895">
        <ele>171.46</ele>
        <time>2018-01-21T13:57:37Z</time>
      </trkpt>
      <trkpt lat="48.93389" lon="1.88932">
        <ele>171.13</ele>
        <time>2018-01-21T13:57:56Z</time>
      </trkpt>
      <trkpt lat="48.93397" lon="1.88905">
        <ele>171.26</ele>
        <time>2018-01-21T13:58:15Z</time>
      </trkpt>
      <trkpt lat="48.93401" lon="1.88884">
        <ele>171.22</ele>
        <time>2018-01-21T13:58:29Z</time>
      </trkpt>
      <trkpt lat="48.9341" lon="1.88863">
        <ele>171.64</ele>
        <time>2018-01-21T13:58:45Z</time>
      </trkpt>
      <trkpt lat="48.93412" lon="1.88848">
        <ele>171.44</ele>
        <time>2018-01-21T13:59:04Z</time>
      </trkpt>
      <trkpt lat="48.93413" lon="1.88849">
        <ele>171.46</ele>
        <time>2018-01-21T13:59:29Z</time>
      </trkpt>
      <trkpt lat="48.9341" lon="1.8885">
        <ele>171.32</ele>
        <time>2018-01-21T13:59:57Z</time>
      </trkpt>
      <trkpt lat="48.93411" lon="1.88846">
        <ele>171.46</ele>
        <time>2018-01-21T14:00:21Z</time>
      </trkpt>
      <trkpt lat="48.93412" lon="1.88837">
        <ele>171.38</ele>
        <time>2018-01-21T14:00:52Z</time>
      </trkpt>
      <trkpt lat="48.9341" lon="1.88834">
        <ele>171.88</ele>
        <time>2018-01-21T14:01:28Z</time>
      </trkpt>
      <trkpt lat="48.93409" lon="1.88832">
        <ele>171.9</ele>
        <time>2018-01-21T14:01:52Z</time>
      </trkpt>
      <trkpt lat="48.93408" lon="1.88831">
        <ele>171.85</ele>
        <time>2018-01-21T14:02:14Z</time>
      </trkpt>
      <trkpt lat="48.93409" lon="1.88828">
        <ele>172.54</ele>
        <time>2018-01-21T14:02:39Z</time>
      </trkpt>
      <trkpt lat="48.93409" lon="1.8883">
        <ele>172.38</ele>
        <time>2018-01-21T14:03:05Z</time>
      </trkpt>
      <trkpt lat="48.93409" lon="1.88834">
        <ele>172.69</ele>
        <time>2018-01-21T14:03:29Z</time>
      </trkpt>
      <trkpt lat="48.93408" lon="1.88836">
        <ele>172.93</ele>
        <time>2018-01-21T14:03:56Z</time>
      </trkpt>
      <trkpt lat="48.93409" lon="1.88839">
        <ele>173.29</ele>
        <time>2018-01-21T14:04:18Z</time>
      </trkpt>
      <trkpt lat="48.93412" lon="1.8884">
        <ele>173.06</ele>
        <time>2018-01-21T14:04:47Z</time>
      </trkpt>
      <trkpt lat="48.93409" lon="1.88836">
        <ele>173.44</ele>
        <time>2018-01-21T14:05:18Z</time>
      </trkpt>
      <trkpt lat="48.93417" lon="1.88816">
        <ele>174.01</ele>
        <time>2018-01-21T14:05:39Z</time>
      </trkpt>
      <trkpt lat="48.93424" lon="1.88789">
        <ele>173.31</ele>
        <time>2018-01-21T14:06:00Z</time>
      </trkpt>
      <trkpt lat="48.93433" lon="1.88763">
        <ele>173.02</ele>
        <time>2018-01-21T14:06:20Z</time>
      </trkpt>
      <trkpt lat="48.93443" lon="1.88731">
        <ele>174.08</ele>
        <time>2018-01-21T14:06:42Z</time>
      </trkpt>
      <trkpt lat="48.93448" lon="1.88702">
        <ele>174.33</ele>
        <time>2018-01-21T14:07:03Z</time>
      </trkpt>
      <trkpt lat="48.93457" lon="1.88674">
        <ele>174.46</ele>
        <time>2018-01-21T14:07:23Z</time>
      </trkpt>
      <trkpt lat="48.93464" lon="1.88657">
        <ele>174.69</ele>
        <time>2018-01-21T14:07:43Z</time>
      </trkpt>
      <trkpt lat="48.93474" lon="1.88623">
        <ele>174.16</ele>
        <time>2018-01-21T14:08:04Z</time>
      </trkpt>
      <trkpt lat="48.93485" lon="1.88596">
        <ele>175.18</ele>
        <time>2018-01-21T14:08:25Z</time>
      </trkpt>
      <trkpt lat="48.93486" lon="1.88589">
        <ele>174.6</ele>
        <time>2018-01-21T14:08:29Z</time>
      </trkpt>
      <trkpt lat="48.93484" lon="1.88564">
        <ele>174.85</ele>
        <time>2018-01-21T14:08:48Z</time>
      </trkpt>
      <trkpt lat="48.93492" lon="1.88548">
        <ele>174.26</ele>
        <time>2018-01-21T14:09:04Z</time>
      </trkpt>
      <trkpt lat="48.93496" lon="1.88537">
        <ele>174.78</ele>
        <time>2018-01-21T14:09:23Z</time>
      </trkpt>
      <trkpt lat="48.93496" lon="1.88533">
        <ele>174.8</ele>
        <time>2018-01-21T14:09:47Z</time>
      </trkpt>
      <trkpt lat="48.93504" lon="1.88508">
        <ele>173.71</ele>
        <time>2018-01-21T14:10:05Z</time>
      </trkpt>
      <trkpt lat="48.93514" lon="1.88473">
        <ele>174.81</ele>
        <time>2018-01-21T14:10:24Z</time>
      </trkpt>
      <trkpt lat="48.93525" lon="1.88436">
        <ele>174.21</ele>
        <time>2018-01-21T14:10:44Z</time>
      </trkpt>
      <trkpt lat="48.93531" lon="1.88403">
        <ele>173.43</ele>
        <time>2018-01-21T14:11:04Z</time>
      </trkpt>
      <trkpt lat="48.93538" lon="1.88377">
        <ele>173.63</ele>
        <time>2018-01-21T14:11:25Z</time>
      </trkpt>
      <trkpt lat="48.93551" lon="1.88341">
        <ele>173.06</ele>
        <time>2018-01-21T14:11:47Z</time>
      </trkpt>
      <trkpt lat="48.93556" lon="1.88311">
        <ele>172.53</ele>
        <time>2018-01-21T14:12:07Z</time>
      </trkpt>
      <trkpt lat="48.93562" lon="1.88296">
        <ele>172.47</ele>
        <time>2018-01-21T14:12:30Z</time>
      </trkpt>
      <trkpt lat="48.9357" lon="1.88273">
        <ele>172.08</ele>
        <time>2018-01-21T14:12:49Z</time>
      </trkpt>
      <trkpt lat="48.93575" lon="1.88255">
        <ele>172.63</ele>
        <time>2018-01-21T14:12:58Z</time>
      </trkpt>
      <trkpt lat="48.93575" lon="1.88249">
        <ele>172.63</ele>
        <time>2018-01-21T14:13:00Z</time>
      </trkpt>
      <trkpt lat="48.93575" lon="1.88222">
        <ele>173.2</ele>
        <time>2018-01-21T14:13:18Z</time>
      </trkpt>
      <trkpt lat="48.93584" lon="1.88197">
        <ele>173.06</ele>
        <time>2018-01-21T14:13:34Z</time>
      </trkpt>
      <trkpt lat="48.93593" lon="1.8817">
        <ele>173.16</ele>
        <time>2018-01-21T14:13:55Z</time>
      </trkpt>
      <trkpt lat="48.93597" lon="1.88159">
        <ele>172.92</ele>
        <time>2018-01-21T14:14:01Z</time>
      </trkpt>
      <trkpt lat="48.93602" lon="1.88142">
        <ele>172.88</ele>
        <time>2018-01-21T14:14:15Z</time>
      </trkpt>
      <trkpt lat="48.93609" lon="1.8812">
        <ele>173.54</ele>
        <time>2018-01-21T14:14:35Z</time>
      </trkpt>
      <trkpt lat="48.93614" lon="1.88083">
        <ele>174.2</ele>
        <time>2018-01-21T14:14:56Z</time>
      </trkpt>
      <trkpt lat="48.93623" lon="1.88057">
        <ele>174.62</ele>
        <time>2018-01-21T14:15:14Z</time>
      </trkpt>
      <trkpt lat="48.93624" lon="1.88044">
        <ele>174.41</ele>
        <time>2018-01-21T14:15:22Z</time>
      </trkpt>
      <trkpt lat="48.93635" lon="1.88013">
        <ele>175.25</ele>
        <time>2018-01-21T14:15:41Z</time>
      </trkpt>
      <trkpt lat="48.93642" lon="1.87982">
        <ele>175.33</ele>
        <time>2018-01-21T14:16:00Z</time>
      </trkpt>
      <trkpt lat="48.93653" lon="1.87952">
        <ele>174.93</ele>
        <time>2018-01-21T14:16:19Z</time>
      </trkpt>
      <trkpt lat="48.9366" lon="1.87919">
        <ele>175.22</ele>
        <time>2018-01-21T14:16:38Z</time>
      </trkpt>
      <trkpt lat="48.93663" lon="1.87909">
        <ele>175.04</ele>
        <time>2018-01-21T14:16:44Z</time>
      </trkpt>
      <trkpt lat="48.93669" lon="1.8789">
        <ele>175.16</ele>
        <time>2018-01-21T14:16:59Z</time>
      </trkpt>
      <trkpt lat="48.93672" lon="1.87857">
        <ele>174.82</ele>
        <time>2018-01-21T14:17:19Z</time>
      </trkpt>
      <trkpt lat="48.93682" lon="1.87824">
        <ele>174.7</ele>
        <time>2018-01-21T14:17:40Z</time>
      </trkpt>
      <trkpt lat="48.93691" lon="1.8779">
        <ele>174.3</ele>
        <time>2018-01-21T14:18:02Z</time>
      </trkpt>
      <trkpt lat="48.93697" lon="1.87757">
        <ele>174.81</ele>
        <time>2018-01-21T14:18:22Z</time>
      </trkpt>
      <trkpt lat="48.93703" lon="1.87742">
        <ele>175.31</ele>
        <time>2018-01-21T14:18:34Z</time>
      </trkpt>
      <trkpt lat="48.93706" lon="1.8774">
        <ele>174.71</ele>
        <time>2018-01-21T14:18:42Z</time>
      </trkpt>
      <trkpt lat="48.93705" lon="1.87733">
        <ele>174.74</ele>
        <time>2018-01-21T14:19:04Z</time>
      </trkpt>
      <trkpt lat="48.93697" lon="1.87723">
        <ele>174.42</ele>
        <time>2018-01-21T14:19:29Z</time>
      </trkpt>
      <trkpt lat="48.93695" lon="1.87731">
        <ele>174.87</ele>
        <time>2018-01-21T14:19:55Z</time>
      </trkpt>
      <trkpt lat="48.9369" lon="1.87738">
        <ele>175.59</ele>
        <time>2018-01-21T14:20:19Z</time>
      </trkpt>
      <trkpt lat="48.93694" lon="1.87739">
        <ele>175.21</ele>
        <time>2018-01-21T14:20:41Z</time>
      </trkpt>
      <trkpt lat="48.93701" lon="1.87732">
        <ele>176.13</ele>
        <time>2018-01-21T14:21:08Z</time>
      </trkpt>
      <trkpt lat="48.93701" lon="1.87728">
        <ele>176.19</ele>
        <time>2018-01-21T14:21:33Z</time>
      </trkpt>
      <trkpt lat="48.93704" lon="1.8773">
        <ele>176.43</ele>
        <time>2018-01-21T14:22:01Z</time>
      </trkpt>
      <trkpt lat="48.93702" lon="1.87727">
        <ele>176.27</ele>
        <time>2018-01-21T14:22:27Z</time>
      </trkpt>
      <trkpt lat="48.93701" lon="1.87725">
        <ele>176.23</ele>
        <time>2018-01-21T14:22:52Z</time>
      </trkpt>
      <trkpt lat="48.93696" lon="1.87728">
        <ele>177.05</ele>
        <time>2018-01-21T14:23:19Z</time>
      </trkpt>
      <trkpt lat="48.93693" lon="1.87725">
        <ele>177.7</ele>
        <time>2018-01-21T14:23:45Z</time>
      </trkpt>
      <trkpt lat="48.93685" lon="1.87711">
        <ele>177.46</ele>
        <time>2018-01-21T14:24:04Z</time>
      </trkpt>
      <trkpt lat="48.93683" lon="1.87707">
        <ele>177.39</ele>
        <time>2018-01-21T14:24:08Z</time>
      </trkpt>
      <trkpt lat="48.93671" lon="1.87678">
        <ele>176.72</ele>
        <time>2018-01-21T14:24:31Z</time>
      </trkpt>
      <trkpt lat="48.93658" lon="1.8765">
        <ele>175.39</ele>
        <time>2018-01-21T14:24:50Z</time>
      </trkpt>
      <trkpt lat="48.93645" lon="1.87622">
        <ele>173.91</ele>
        <time>2018-01-21T14:25:09Z</time>
      </trkpt>
      <trkpt lat="48.93633" lon="1.87596">
        <ele>170.89</ele>
        <time>2018-01-21T14:25:29Z</time>
      </trkpt>
      <trkpt lat="48.9362" lon="1.87581">
        <ele>168.32</ele>
        <time>2018-01-21T14:25:48Z</time>
      </trkpt>
      <trkpt lat="48.9361" lon="1.87565">
        <ele>166.73</ele>
        <time>2018-01-21T14:25:59Z</time>
      </trkpt>
      <trkpt lat="48.93593" lon="1.87555">
        <ele>164.86</ele>
        <time>2018-01-21T14:26:15Z</time>
      </trkpt>
      <trkpt lat="48.93581" lon="1.8754">
        <ele>162.82</ele>
        <time>2018-01-21T14:26:29Z</time>
      </trkpt>
      <trkpt lat="48.93565" lon="1.87516">
        <ele>159.68</ele>
        <time>2018-01-21T14:26:49Z</time>
      </trkpt>
      <trkpt lat="48.93552" lon="1.87488">
        <ele>157.45</ele>
        <time>2018-01-21T14:27:10Z</time>
      </trkpt>
      <trkpt lat="48.93542" lon="1.87462">
        <ele>154.34</ele>
        <time>2018-01-21T14:27:28Z</time>
      </trkpt>
      <trkpt lat="48.9353" lon="1.87439">
        <ele>151.44</ele>
        <time>2018-01-21T14:27:46Z</time>
      </trkpt>
      <trkpt lat="48.9353" lon="1.87434">
        <ele>150.27</ele>
        <time>2018-01-21T14:27:50Z</time>
      </trkpt>
      <trkpt lat="48.93531" lon="1.87404">
        <ele>147.5</ele>
        <time>2018-01-21T14:28:11Z</time>
      </trkpt>
      <trkpt lat="48.93534" lon="1.87376">
        <ele>144.41</ele>
        <time>2018-01-21T14:28:29Z</time>
      </trkpt>
      <trkpt lat="48.93538" lon="1.87336">
        <ele>142.12</ele>
        <time>2018-01-21T14:28:52Z</time>
      </trkpt>
      <trkpt lat="48.93537" lon="1.87332">
        <ele>141.74</ele>
        <time>2018-01-21T14:28:54Z</time>
      </trkpt>
      <trkpt lat="48.93535" lon="1.87297">
        <ele>138.27</ele>
        <time>2018-01-21T14:29:15Z</time>
      </trkpt>
      <trkpt lat="48.93538" lon="1.87271">
        <ele>136.35</ele>
        <time>2018-01-21T14:29:27Z</time>
      </trkpt>
      <trkpt lat="48.93541" lon="1.87244">
        <ele>133.47</ele>
        <time>2018-01-21T14:29:44Z</time>
      </trkpt>
      <trkpt lat="48.93537" lon="1.87218">
        <ele>129.98</ele>
        <time>2018-01-21T14:30:05Z</time>
      </trkpt>
      <trkpt lat="48.93543" lon="1.87182">
        <ele>128.21</ele>
        <time>2018-01-21T14:30:24Z</time>
      </trkpt>
      <trkpt lat="48.93538" lon="1.87168">
        <ele>128.1</ele>
        <time>2018-01-21T14:30:49Z</time>
      </trkpt>
      <trkpt lat="48.9354" lon="1.87167">
        <ele>128.34</ele>
        <time>2018-01-21T14:31:10Z</time>
      </trkpt>
      <trkpt lat="48.93537" lon="1.87172">
        <ele>127.87</ele>
        <time>2018-01-21T14:31:34Z</time>
      </trkpt>
      <trkpt lat="48.93534" lon="1.87172">
        <ele>127.64</ele>
        <time>2018-01-21T14:31:56Z</time>
      </trkpt>
      <trkpt lat="48.93536" lon="1.87172">
        <ele>128.07</ele>
        <time>2018-01-21T14:32:20Z</time>
      </trkpt>
      <trkpt lat="48.93531" lon="1.87169">
        <ele>128.72</ele>
        <time>2018-01-21T14:32:43Z</time>
      </trkpt>
      <trkpt lat="48.93536" lon="1.87162">
        <ele>128.6</ele>
        <time>2018-01-21T14:33:07Z</time>
      </trkpt>
      <trkpt lat="48.93541" lon="1.8716">
        <ele>127.26</ele>
        <time>2018-01-21T14:33:12Z</time>
      </trkpt>
      <trkpt lat="48.9356" lon="1.87147">
        <ele>126.69</ele>
        <time>2018-01-21T14:33:28Z</time>
      </trkpt>
      <trkpt lat="48.93579" lon="1.87132">
        <ele>124.56</ele>
        <time>2018-01-21T14:33:47Z</time>
      </trkpt>
      <trkpt lat="48.93583" lon="1.87123">
        <ele>123.49</ele>
        <time>2018-01-21T14:33:55Z</time>
      </trkpt>
      <trkpt lat="48.9358" lon="1.87105">
        <ele>122.83</ele>
        <time>2018-01-21T14:34:11Z</time>
      </trkpt>
      <trkpt lat="48.93584" lon="1.87097">
        <ele>122.81</ele>
        <time>2018-01-21T14:34:33Z</time>
      </trkpt>
      <trkpt lat="48.9358" lon="1.87085">
        <ele>121.68</ele>
        <time>2018-01-21T14:34:53Z</time>
      </trkpt>
      <trkpt lat="48.9358" lon="1.87082">
        <ele>121.76</ele>
        <time>2018-01-21T14:34:55Z</time>
      </trkpt>
      <trkpt lat="48.93578" lon="1.87072">
        <ele>121.24</ele>
        <time>2018-01-21T14:35:08Z</time>
      </trkpt>
      <trkpt lat="48.93578" lon="1.8707">
        <ele>121.58</ele>
        <time>2018-01-21T14:35:10Z</time>
      </trkpt>
      <trkpt lat="48.93567" lon="1.87049">
        <ele>120.39</ele>
        <time>2018-01-21T14:35:29Z</time>
      </trkpt>
      <trkpt lat="48.93566" lon="1.87048">
        <ele>119.63</ele>
        <time>2018-01-21T14:35:30Z</time>
      </trkpt>
      <trkpt lat="48.93565" lon="1.87044">
        <ele>120.14</ele>
        <time>2018-01-21T14:35:32Z</time>
      </trkpt>
      <trkpt lat="48.93555" lon="1.87026">
        <ele>118.63</ele>
        <time>2018-01-21T14:35:48Z</time>
      </trkpt>
      <trkpt lat="48.93544" lon="1.87015">
        <ele>117.46</ele>
        <time>2018-01-21T14:36:02Z</time>
      </trkpt>
      <trkpt lat="48.93529" lon="1.86987">
        <ele>115.13</ele>
        <time>2018-01-21T14:36:23Z</time>
      </trkpt>
      <trkpt lat="48.93524" lon="1.8698">
        <ele>114.56</ele>
        <time>2018-01-21T14:36:28Z</time>
      </trkpt>
      <trkpt lat="48.93519" lon="1.86973">
        <ele>113.53</ele>
        <time>2018-01-21T14:36:32Z</time>
      </trkpt>
      <trkpt lat="48.93507" lon="1.86945">
        <ele>111.09</ele>
        <time>2018-01-21T14:36:48Z</time>
      </trkpt>
      <trkpt lat="48.93501" lon="1.86926">
        <ele>110.1</ele>
        <time>2018-01-21T14:36:58Z</time>
      </trkpt>
      <trkpt lat="48.93495" lon="1.86901">
        <ele>108.31</ele>
        <time>2018-01-21T14:37:12Z</time>
      </trkpt>
      <trkpt lat="48.93494" lon="1.86897">
        <ele>107.73</ele>
        <time>2018-01-21T14:37:16Z</time>
      </trkpt>
      <trkpt lat="48.93492" lon="1.86891">
        <ele>107.68</ele>
        <time>2018-01-21T14:37:19Z</time>
      </trkpt>
      <trkpt lat="48.9349" lon="1.86885">
        <ele>106.83</ele>
        <time>2018-01-21T14:37:23Z</time>
      </trkpt>
      <trkpt lat="48.93488" lon="1.86882">
        <ele>105.99</ele>
        <time>2018-01-21T14:37:25Z</time>
      </trkpt>
      <trkpt lat="48.93482" lon="1.86869">
        <ele>105.88</ele>
        <time>2018-01-21T14:37:37Z</time>
      </trkpt>
      <trkpt lat="48.93476" lon="1.86859">
        <ele>104.89</ele>
        <time>2018-01-21T14:37:45Z</time>
      </trkpt>
      <trkpt lat="48.93472" lon="1.86846">
        <ele>105.32</ele>
        <time>2018-01-21T14:37:56Z</time>
      </trkpt>
      <trkpt lat="48.93468" lon="1.8683">
        <ele>104.99</ele>
        <time>2018-01-21T14:38:12Z</time>
      </trkpt>
      <trkpt lat="48.93462" lon="1.86827">
        <ele>104.85</ele>
        <time>2018-01-21T14:38:28Z</time>
      </trkpt>
      <trkpt lat="48.93452" lon="1.86831">
        <ele>104.67</ele>
        <time>2018-01-21T14:38:44Z</time>
      </trkpt>
      <trkpt lat="48.93436" lon="1.86817">
        <ele>104.11</ele>
        <time>2018-01-21T14:39:00Z</time>
      </trkpt>
      <trkpt lat="48.93422" lon="1.86809">
        <ele>104.13</ele>
        <time>2018-01-21T14:39:14Z</time>
      </trkpt>
      <trkpt lat="48.93406" lon="1.86804">
        <ele>103.41</ele>
        <time>2018-01-21T14:39:28Z</time>
      </trkpt>
      <trkpt lat="48.93388" lon="1.86811">
        <ele>102.39</ele>
        <time>2018-01-21T14:39:44Z</time>
      </trkpt>
      <trkpt lat="48.9337" lon="1.86828">
        <ele>102.34</ele>
        <time>2018-01-21T14:40:02Z</time>
      </trkpt>
      <trkpt lat="48.93359" lon="1.86836">
        <ele>102.73</ele>
        <time>2018-01-21T14:40:17Z</time>
      </trkpt>
      <trkpt lat="48.93354" lon="1.86845">
        <ele>101.91</ele>
        <time>2018-01-21T14:40:30Z</time>
      </trkpt>
      <trkpt lat="48.9335" lon="1.86854">
        <ele>101.9</ele>
        <time>2018-01-21T14:40:37Z</time>
      </trkpt>
      <trkpt lat="48.93339" lon="1.86876">
        <ele>101.55</ele>
        <time>2018-01-21T14:40:53Z</time>
      </trkpt>
      <trkpt lat="48.93331" lon="1.86882">
        <ele>101.67</ele>
        <time>2018-01-21T14:41:08Z</time>
      </trkpt>
      <trkpt lat="48.93332" lon="1.86871">
        <ele>101.82</ele>
        <time>2018-01-21T14:41:31Z</time>
      </trkpt>
      <trkpt lat="48.93332" lon="1.86869">
        <ele>101.99</ele>
        <time>2018-01-21T14:41:32Z</time>
      </trkpt>
      <trkpt lat="48.93345" lon="1.86847">
        <ele>102.7</ele>
        <time>2018-01-21T14:41:49Z</time>
      </trkpt>
      <trkpt lat="48.93346" lon="1.86842">
        <ele>102.16</ele>
        <time>2018-01-21T14:41:52Z</time>
      </trkpt>
      <trkpt lat="48.93351" lon="1.86824">
        <ele>101.82</ele>
        <time>2018-01-21T14:42:09Z</time>
      </trkpt>
      <trkpt lat="48.93354" lon="1.86816">
        <ele>102.15</ele>
        <time>2018-01-21T14:42:32Z</time>
      </trkpt>
      <trkpt lat="48.93371" lon="1.86786">
        <ele>100.28</ele>
        <time>2018-01-21T14:42:54Z</time>
      </trkpt>
      <trkpt lat="48.93372" lon="1.86785">
        <ele>100.36</ele>
        <time>2018-01-21T14:42:55Z</time>
      </trkpt>
      <trkpt lat="48.93371" lon="1.86777">
        <ele>98.94</ele>
        <time>2018-01-21T14:43:01Z</time>
      </trkpt>
      <trkpt lat="48.93362" lon="1.8676">
        <ele>96.35</ele>
        <time>2018-01-21T14:43:16Z</time>
      </trkpt>
      <trkpt lat="48.93362" lon="1.86759">
        <ele>96.18</ele>
        <time>2018-01-21T14:43:17Z</time>
      </trkpt>
      <trkpt lat="48.93362" lon="1.86756">
        <ele>95.79</ele>
        <time>2018-01-21T14:43:19Z</time>
      </trkpt>
      <trkpt lat="48.93367" lon="1.86744">
        <ele>95.29</ele>
        <time>2018-01-21T14:43:29Z</time>
      </trkpt>
      <trkpt lat="48.93376" lon="1.86728">
        <ele>93.41</ele>
        <time>2018-01-21T14:43:40Z</time>
      </trkpt>
      <trkpt lat="48.93385" lon="1.86705">
        <ele>90.92</ele>
        <time>2018-01-21T14:43:56Z</time>
      </trkpt>
      <trkpt lat="48.93399" lon="1.8668">
        <ele>88.5</ele>
        <time>2018-01-21T14:44:14Z</time>
      </trkpt>
      <trkpt lat="48.93406" lon="1.86662">
        <ele>86.99</ele>
        <time>2018-01-21T14:44:25Z</time>
      </trkpt>
      <trkpt lat="48.93413" lon="1.86655">
        <ele>85.78</ele>
        <time>2018-01-21T14:44:37Z</time>
      </trkpt>
      <trkpt lat="48.93415" lon="1.86652">
        <ele>85.87</ele>
        <time>2018-01-21T14:44:40Z</time>
      </trkpt>
      <trkpt lat="48.93428" lon="1.86626">
        <ele>85.49</ele>
        <time>2018-01-21T14:44:58Z</time>
      </trkpt>
      <trkpt lat="48.93437" lon="1.8659">
        <ele>84.39</ele>
        <time>2018-01-21T14:45:20Z</time>
      </trkpt>
      <trkpt lat="48.93443" lon="1.86564">
        <ele>84.26</ele>
        <time>2018-01-21T14:45:37Z</time>
      </trkpt>
      <trkpt lat="48.93445" lon="1.86556">
        <ele>83.75</ele>
        <time>2018-01-21T14:45:42Z</time>
      </trkpt>
      <trkpt lat="48.93452" lon="1.86524">
        <ele>83.42</ele>
        <time>2018-01-21T14:46:03Z</time>
      </trkpt>
      <trkpt lat="48.93455" lon="1.86501">
        <ele>84.33</ele>
        <time>2018-01-21T14:46:18Z</time>
      </trkpt>
      <trkpt lat="48.93456" lon="1.86487">
        <ele>82.93</ele>
        <time>2018-01-21T14:46:29Z</time>
      </trkpt>
      <trkpt lat="48.93457" lon="1.86478">
        <ele>82.93</ele>
        <time>2018-01-21T14:46:35Z</time>
      </trkpt>
      <trkpt lat="48.93462" lon="1.86449">
        <ele>81.69</ele>
        <time>2018-01-21T14:46:54Z</time>
      </trkpt>
      <trkpt lat="48.93462" lon="1.86419">
        <ele>79.65</ele>
        <time>2018-01-21T14:47:11Z</time>
      </trkpt>
      <trkpt lat="48.93462" lon="1.86391">
        <ele>77.84</ele>
        <time>2018-01-21T14:47:28Z</time>
      </trkpt>
      <trkpt lat="48.93464" lon="1.86364">
        <ele>76.98</ele>
        <time>2018-01-21T14:47:43Z</time>
      </trkpt>
      <trkpt lat="48.9347" lon="1.8633">
        <ele>75.52</ele>
        <time>2018-01-21T14:48:03Z</time>
      </trkpt>
      <trkpt lat="48.93474" lon="1.86303">
        <ele>74.39</ele>
        <time>2018-01-21T14:48:19Z</time>
      </trkpt>
      <trkpt lat="48.93475" lon="1.86291">
        <ele>74.32</ele>
        <time>2018-01-21T14:48:26Z</time>
      </trkpt>
      <trkpt lat="48.93476" lon="1.86263">
        <ele>73.43</ele>
        <time>2018-01-21T14:48:42Z</time>
      </trkpt>
      <trkpt lat="48.93476" lon="1.86234">
        <ele>71.61</ele>
        <time>2018-01-21T14:48:59Z</time>
      </trkpt>
      <trkpt lat="48.93476" lon="1.86225">
        <ele>72.14</ele>
        <time>2018-01-21T14:49:04Z</time>
      </trkpt>
      <trkpt lat="48.93477" lon="1.86195">
        <ele>69.97</ele>
        <time>2018-01-21T14:49:21Z</time>
      </trkpt>
      <trkpt lat="48.93477" lon="1.86183">
        <ele>70.05</ele>
        <time>2018-01-21T14:49:28Z</time>
      </trkpt>
      <trkpt lat="48.9348" lon="1.8616">
        <ele>69.33</ele>
        <time>2018-01-21T14:49:42Z</time>
      </trkpt>
      <trkpt lat="48.9348" lon="1.86158">
        <ele>69.56</ele>
        <time>2018-01-21T14:49:43Z</time>
      </trkpt>
      <trkpt lat="48.93477" lon="1.86132">
        <ele>69.61</ele>
        <time>2018-01-21T14:50:01Z</time>
      </trkpt>
      <trkpt lat="48.9347" lon="1.86126">
        <ele>69.26</ele>
        <time>2018-01-21T14:50:13Z</time>
      </trkpt>
      <trkpt lat="48.93454" lon="1.8612">
        <ele>70.31</ele>
        <time>2018-01-21T14:50:31Z</time>
      </trkpt>
      <trkpt lat="48.93444" lon="1.86114">
        <ele>70.62</ele>
        <time>2018-01-21T14:50:45Z</time>
      </trkpt>
      <trkpt lat="48.93442" lon="1.86113">
        <ele>70.81</ele>
        <time>2018-01-21T14:50:46Z</time>
      </trkpt>
      <trkpt lat="48.93438" lon="1.86109">
        <ele>70.57</ele>
        <time>2018-01-21T14:50:51Z</time>
      </trkpt>
      <trkpt lat="48.93435" lon="1.86093">
        <ele>71.27</ele>
        <time>2018-01-21T14:51:06Z</time>
      </trkpt>
      <trkpt lat="48.93435" lon="1.86066">
        <ele>70.12</ele>
        <time>2018-01-21T14:51:25Z</time>
      </trkpt>
      <trkpt lat="48.93435" lon="1.86053">
        <ele>70.24</ele>
        <time>2018-01-21T14:51:44Z</time>
      </trkpt>
      <trkpt lat="48.93432" lon="1.86033">
        <ele>68.47</ele>
        <time>2018-01-21T14:51:59Z</time>
      </trkpt>
      <trkpt lat="48.93433" lon="1.86027">
        <ele>68.29</ele>
        <time>2018-01-21T14:52:07Z</time>
      </trkpt>
      <trkpt lat="48.93432" lon="1.86022">
        <ele>67.99</ele>
        <time>2018-01-21T14:52:10Z</time>
      </trkpt>
      <trkpt lat="48.9343" lon="1.86003">
        <ele>66.75</ele>
        <time>2018-01-21T14:52:23Z</time>
      </trkpt>
      <trkpt lat="48.9343" lon="1.86">
        <ele>66.63</ele>
        <time>2018-01-21T14:52:25Z</time>
      </trkpt>
      <trkpt lat="48.93423" lon="1.85972">
        <ele>65.85</ele>
        <time>2018-01-21T14:52:43Z</time>
      </trkpt>
      <trkpt lat="48.93417" lon="1.85952">
        <ele>65.03</ele>
        <time>2018-01-21T14:52:57Z</time>
      </trkpt>
      <trkpt lat="48.93411" lon="1.85933">
        <ele>64.81</ele>
        <time>2018-01-21T14:53:12Z</time>
      </trkpt>
      <trkpt lat="48.9341" lon="1.85929">
        <ele>64.79</ele>
        <time>2018-01-21T14:53:15Z</time>
      </trkpt>
      <trkpt lat="48.93413" lon="1.85913">
        <ele>64.2</ele>
        <time>2018-01-21T14:53:31Z</time>
      </trkpt>
      <trkpt lat="48.93416" lon="1.85912">
        <ele>63.91</ele>
        <time>2018-01-21T14:53:57Z</time>
      </trkpt>
      <trkpt lat="48.93416" lon="1.85914">
        <ele>63.88</ele>
        <time>2018-01-21T14:54:17Z</time>
      </trkpt>
      <trkpt lat="48.93424" lon="1.85912">
        <ele>63.44</ele>
        <time>2018-01-21T14:54:36Z</time>
      </trkpt>
      <trkpt lat="48.93439" lon="1.8591">
        <ele>61.71</ele>
        <time>2018-01-21T14:54:54Z</time>
      </trkpt>
      <trkpt lat="48.93442" lon="1.8591">
        <ele>62.7</ele>
        <time>2018-01-21T14:54:57Z</time>
      </trkpt>
      <trkpt lat="48.9346" lon="1.85908">
        <ele>62.9</ele>
        <time>2018-01-21T14:55:13Z</time>
      </trkpt>
      <trkpt lat="48.93462" lon="1.85907">
        <ele>62.66</ele>
        <time>2018-01-21T14:55:15Z</time>
      </trkpt>
      <trkpt lat="48.93478" lon="1.85907">
        <ele>63.04</ele>
        <time>2018-01-21T14:55:29Z</time>
      </trkpt>
      <trkpt lat="48.93494" lon="1.85905">
        <ele>63.58</ele>
        <time>2018-01-21T14:55:45Z</time>
      </trkpt>
      <trkpt lat="48.93497" lon="1.85905">
        <ele>63.72</ele>
        <time>2018-01-21T14:55:57Z</time>
      </trkpt>
      <trkpt lat="48.935" lon="1.85898">
        <ele>63.27</ele>
        <time>2018-01-21T14:56:07Z</time>
      </trkpt>
      <trkpt lat="48.93499" lon="1.85872">
        <ele>62.98</ele>
        <time>2018-01-21T14:56:24Z</time>
      </trkpt>
      <trkpt lat="48.93495" lon="1.85847">
        <ele>63.02</ele>
        <time>2018-01-21T14:56:40Z</time>
      </trkpt>
      <trkpt lat="48.93492" lon="1.85829">
        <ele>62.43</ele>
        <time>2018-01-21T14:56:53Z</time>
      </trkpt>
      <trkpt lat="48.93484" lon="1.85807">
        <ele>61.48</ele>
        <time>2018-01-21T14:57:09Z</time>
      </trkpt>
      <trkpt lat="48.93481" lon="1.85799">
        <ele>61.48</ele>
        <time>2018-01-21T14:57:14Z</time>
      </trkpt>
      <trkpt lat="48.9347" lon="1.8577">
        <ele>61.14</ele>
        <time>2018-01-21T14:57:33Z</time>
      </trkpt>
      <trkpt lat="48.93461" lon="1.85743">
        <ele>60.3</ele>
        <time>2018-01-21T14:57:52Z</time>
      </trkpt>
      <trkpt lat="48.93449" lon="1.85716">
        <ele>59.9</ele>
        <time>2018-01-21T14:58:10Z</time>
      </trkpt>
      <trkpt lat="48.9344" lon="1.85689">
        <ele>59.9</ele>
        <time>2018-01-21T14:58:28Z</time>
      </trkpt>
      <trkpt lat="48.93434" lon="1.85661">
        <ele>59.49</ele>
        <time>2018-01-21T14:58:45Z</time>
      </trkpt>
      <trkpt lat="48.93432" lon="1.85642">
        <ele>59.05</ele>
        <time>2018-01-21T14:58:56Z</time>
      </trkpt>
      <trkpt lat="48.9343" lon="1.85631">
        <ele>58.63</ele>
        <time>2018-01-21T14:59:02Z</time>
      </trkpt>
      <trkpt lat="48.93427" lon="1.85609">
        <ele>59.12</ele>
        <time>2018-01-21T14:59:15Z</time>
      </trkpt>
      <trkpt lat="48.93426" lon="1.8558">
        <ele>58.23</ele>
        <time>2018-01-21T14:59:31Z</time>
      </trkpt>
      <trkpt lat="48.93423" lon="1.85551">
        <ele>58.23</ele>
        <time>2018-01-21T14:59:48Z</time>
      </trkpt>
      <trkpt lat="48.93421" lon="1.85519">
        <ele>57.59</ele>
        <time>2018-01-21T15:00:06Z</time>
      </trkpt>
      <trkpt lat="48.9342" lon="1.8551">
        <ele>57.36</ele>
        <time>2018-01-21T15:00:11Z</time>
      </trkpt>
      <trkpt lat="48.93421" lon="1.85479">
        <ele>56.87</ele>
        <time>2018-01-21T15:00:29Z</time>
      </trkpt>
      <trkpt lat="48.93422" lon="1.85448">
        <ele>56.78</ele>
        <time>2018-01-21T15:00:46Z</time>
      </trkpt>
      <trkpt lat="48.93425" lon="1.85414">
        <ele>56.15</ele>
        <time>2018-01-21T15:01:05Z</time>
      </trkpt>
      <trkpt lat="48.93426" lon="1.85403">
        <ele>55.52</ele>
        <time>2018-01-21T15:01:12Z</time>
      </trkpt>
      <trkpt lat="48.93428" lon="1.85379">
        <ele>55.06</ele>
        <time>2018-01-21T15:01:26Z</time>
      </trkpt>
      <trkpt lat="48.9343" lon="1.85349">
        <ele>54.45</ele>
        <time>2018-01-21T15:01:44Z</time>
      </trkpt>
      <trkpt lat="48.93433" lon="1.85319">
        <ele>54.41</ele>
        <time>2018-01-21T15:02:01Z</time>
      </trkpt>
      <trkpt lat="48.93438" lon="1.85291">
        <ele>54.19</ele>
        <time>2018-01-21T15:02:19Z</time>
      </trkpt>
      <trkpt lat="48.93443" lon="1.85268">
        <ele>53.5</ele>
        <time>2018-01-21T15:02:35Z</time>
      </trkpt>
      <trkpt lat="48.93447" lon="1.85246">
        <ele>54.34</ele>
        <time>2018-01-21T15:02:48Z</time>
      </trkpt>
      <trkpt lat="48.93452" lon="1.85227">
        <ele>53.89</ele>
        <time>2018-01-21T15:03:02Z</time>
      </trkpt>
      <trkpt lat="48.9345" lon="1.85218">
        <ele>53.32</ele>
        <time>2018-01-21T15:03:07Z</time>
      </trkpt>
      <trkpt lat="48.93444" lon="1.85201">
        <ele>52.89</ele>
        <time>2018-01-21T15:03:21Z</time>
      </trkpt>
      <trkpt lat="48.93443" lon="1.85198">
        <ele>52.36</ele>
        <time>2018-01-21T15:03:45Z</time>
      </trkpt>
      <trkpt lat="48.93442" lon="1.85196">
        <ele>53.05</ele>
        <time>2018-01-21T15:03:58Z</time>
      </trkpt>
      <trkpt lat="48.93442" lon="1.85196">
        <ele>53.17</ele>
        <time>2018-01-21T15:04:04Z</time>
      </trkpt>
      <trkpt lat="48.93442" lon="1.85196">
        <ele>53.3</ele>
        <time>2018-01-21T15:04:25Z</time>
      </trkpt>
      <trkpt lat="48.93442" lon="1.85196">
        <ele>53.3</ele>
        <time>2018-01-21T15:04:55Z</time>
      </trkpt>
      <trkpt lat="48.93442" lon="1.85192">
        <ele>52.93</ele>
        <time>2018-01-21T15:05:14Z</time>
      </trkpt>
      <trkpt lat="48.93443" lon="1.85192">
        <ele>53.05</ele>
        <time>2018-01-21T15:05:30Z</time>
      </trkpt>
      <trkpt lat="48.93445" lon="1.85186">
        <ele>52.2</ele>
        <time>2018-01-21T15:05:35Z</time>
      </trkpt>
      <trkpt lat="48.93447" lon="1.85179">
        <ele>51.68</ele>
        <time>2018-01-21T15:05:40Z</time>
      </trkpt>
      <trkpt lat="48.93453" lon="1.85156">
        <ele>51.58</ele>
        <time>2018-01-21T15:05:57Z</time>
      </trkpt>
      <trkpt lat="48.93454" lon="1.85153">
        <ele>51.91</ele>
        <time>2018-01-21T15:05:59Z</time>
      </trkpt>
      <trkpt lat="48.93461" lon="1.85131">
        <ele>52.04</ele>
        <time>2018-01-21T15:06:14Z</time>
      </trkpt>
      <trkpt lat="48.93467" lon="1.85113">
        <ele>51.2</ele>
        <time>2018-01-21T15:06:26Z</time>
      </trkpt>
      <trkpt lat="48.93474" lon="1.85085">
        <ele>50.49</ele>
        <time>2018-01-21T15:06:43Z</time>
      </trkpt>
      <trkpt lat="48.93481" lon="1.85055">
        <ele>48.84</ele>
        <time>2018-01-21T15:07:01Z</time>
      </trkpt>
      <trkpt lat="48.93488" lon="1.85027">
        <ele>47.77</ele>
        <time>2018-01-21T15:07:18Z</time>
      </trkpt>
      <trkpt lat="48.93495" lon="1.85004">
        <ele>47.04</ele>
        <time>2018-01-21T15:07:33Z</time>
      </trkpt>
      <trkpt lat="48.93505" lon="1.84985">
        <ele>46.15</ele>
        <time>2018-01-21T15:07:48Z</time>
      </trkpt>
      <trkpt lat="48.93514" lon="1.84962">
        <ele>46.62</ele>
        <time>2018-01-21T15:08:03Z</time>
      </trkpt>
      <trkpt lat="48.93528" lon="1.84937">
        <ele>45.78</ele>
        <time>2018-01-21T15:08:19Z</time>
      </trkpt>
      <trkpt lat="48.93531" lon="1.84933">
        <ele>45.19</ele>
        <time>2018-01-21T15:08:23Z</time>
      </trkpt>
      <trkpt lat="48.93545" lon="1.84905">
        <ele>44.18</ele>
        <time>2018-01-21T15:08:43Z</time>
      </trkpt>
      <trkpt lat="48.93561" lon="1.84884">
        <ele>43.72</ele>
        <time>2018-01-21T15:09:01Z</time>
      </trkpt>
      <trkpt lat="48.93578" lon="1.8486">
        <ele>42.96</ele>
        <time>2018-01-21T15:09:22Z</time>
      </trkpt>
      <trkpt lat="48.93592" lon="1.84842">
        <ele>42.53</ele>
        <time>2018-01-21T15:09:40Z</time>
      </trkpt>
      <trkpt lat="48.93606" lon="1.84827">
        <ele>41.74</ele>
        <time>2018-01-21T15:09:55Z</time>
      </trkpt>
      <trkpt lat="48.93609" lon="1.84822">
        <ele>41.44</ele>
        <time>2018-01-21T15:09:59Z</time>
      </trkpt>
      <trkpt lat="48.93615" lon="1.84815">
        <ele>41.05</ele>
        <time>2018-01-21T15:10:06Z</time>
      </trkpt>
      <trkpt lat="48.93619" lon="1.84814">
        <ele>41.06</ele>
        <time>2018-01-21T15:10:10Z</time>
      </trkpt>
      <trkpt lat="48.93628" lon="1.84803">
        <ele>39.72</ele>
        <time>2018-01-21T15:10:26Z</time>
      </trkpt>
      <trkpt lat="48.9362" lon="1.8481">
        <ele>40.54</ele>
        <time>2018-01-21T15:10:36Z</time>
      </trkpt>
      <trkpt lat="48.93615" lon="1.84814">
        <ele>41.06</ele>
        <time>2018-01-21T15:10:55Z</time>
      </trkpt>
      <trkpt lat="48.93621" lon="1.84811">
        <ele>40.24</ele>
        <time>2018-01-21T15:11:12Z</time>
      </trkpt>
      <trkpt lat="48.93624" lon="1.84809">
        <ele>41.29</ele>
        <time>2018-01-21T15:11:19Z</time>
      </trkpt>
      <trkpt lat="48.93635" lon="1.84796">
        <ele>39.86</ele>
        <time>2018-01-21T15:11:34Z</time>
      </trkpt>
      <trkpt lat="48.93653" lon="1.84781">
        <ele>38.88</ele>
        <time>2018-01-21T15:11:50Z</time>
      </trkpt>
      <trkpt lat="48.93661" lon="1.84775">
        <ele>38.12</ele>
        <time>2018-01-21T15:12:03Z</time>
      </trkpt>
      <trkpt lat="48.93674" lon="1.84757">
        <ele>37.52</ele>
        <time>2018-01-21T15:12:18Z</time>
      </trkpt>
      <trkpt lat="48.93685" lon="1.84742">
        <ele>36.97</ele>
        <time>2018-01-21T15:12:34Z</time>
      </trkpt>
      <trkpt lat="48.93687" lon="1.84739">
        <ele>36.24</ele>
        <time>2018-01-21T15:12:38Z</time>
      </trkpt>
      <trkpt lat="48.93688" lon="1.84735">
        <ele>36.84</ele>
        <time>2018-01-21T15:12:41Z</time>
      </trkpt>
      <trkpt lat="48.93697" lon="1.84721">
        <ele>36.1</ele>
        <time>2018-01-21T15:12:56Z</time>
      </trkpt>
      <trkpt lat="48.93706" lon="1.84709">
        <ele>35.9</ele>
        <time>2018-01-21T15:13:10Z</time>
      </trkpt>
      <trkpt lat="48.93712" lon="1.84696">
        <ele>34.87</ele>
        <time>2018-01-21T15:13:20Z</time>
      </trkpt>
      <trkpt lat="48.93713" lon="1.84692">
        <ele>35.73</ele>
        <time>2018-01-21T15:13:23Z</time>
      </trkpt>
      <trkpt lat="48.93716" lon="1.84685">
        <ele>35.15</ele>
        <time>2018-01-21T15:13:28Z</time>
      </trkpt>
      <trkpt lat="48.93728" lon="1.84665">
        <ele>34.7</ele>
        <time>2018-01-21T15:13:44Z</time>
      </trkpt>
      <trkpt lat="48.93729" lon="1.84664">
        <ele>34.8</ele>
        <time>2018-01-21T15:13:45Z</time>
      </trkpt>
      <trkpt lat="48.93733" lon="1.84656">
        <ele>34.1</ele>
        <time>2018-01-21T15:13:51Z</time>
      </trkpt>
      <trkpt lat="48.93746" lon="1.84634">
        <ele>34.22</ele>
        <time>2018-01-21T15:14:10Z</time>
      </trkpt>
      <trkpt lat="48.93745" lon="1.84632">
        <ele>34.47</ele>
        <time>2018-01-21T15:14:37Z</time>
      </trkpt>
      <trkpt lat="48.93745" lon="1.84632">
        <ele>34.71</ele>
        <time>2018-01-21T15:15:02Z</time>
      </trkpt>
      <trkpt lat="48.93745" lon="1.84632">
        <ele>34.21</ele>
        <time>2018-01-21T15:15:31Z</time>
      </trkpt>
      <trkpt lat="48.93745" lon="1.84632">
        <ele>34.75</ele>
        <time>2018-01-21T15:15:59Z</time>
      </trkpt>
      <trkpt lat="48.93744" lon="1.84632">
        <ele>35.08</ele>
        <time>2018-01-21T15:16:34Z</time>
      </trkpt>
      <trkpt lat="48.93744" lon="1.84629">
        <ele>34.67</ele>
        <time>2018-01-21T15:16:45Z</time>
      </trkpt>
      <trkpt lat="48.93736" lon="1.84601">
        <ele>34.29</ele>
        <time>2018-01-21T15:17:03Z</time>
      </trkpt>
      <trkpt lat="48.93729" lon="1.84571">
        <ele>33.43</ele>
        <time>2018-01-21T15:17:20Z</time>
      </trkpt>
      <trkpt lat="48.93729" lon="1.84566">
        <ele>33.58</ele>
        <time>2018-01-21T15:17:24Z</time>
      </trkpt>
      <trkpt lat="48.93726" lon="1.84554">
        <ele>33.36</ele>
        <time>2018-01-21T15:17:31Z</time>
      </trkpt>
      <trkpt lat="48.93724" lon="1.84544">
        <ele>33.15</ele>
        <time>2018-01-21T15:17:38Z</time>
      </trkpt>
      <trkpt lat="48.93725" lon="1.84539">
        <ele>33.23</ele>
        <time>2018-01-21T15:17:41Z</time>
      </trkpt>
      <trkpt lat="48.93723" lon="1.84527">
        <ele>32.84</ele>
        <time>2018-01-21T15:17:50Z</time>
      </trkpt>
      <trkpt lat="48.9372" lon="1.84514">
        <ele>32.31</ele>
        <time>2018-01-21T15:17:56Z</time>
      </trkpt>
      <trkpt lat="48.93712" lon="1.84472">
        <ele>32.14</ele>
        <time>2018-01-21T15:18:20Z</time>
      </trkpt>
      <trkpt lat="48.93713" lon="1.8447">
        <ele>32.06</ele>
        <time>2018-01-21T15:18:21Z</time>
      </trkpt>
      <trkpt lat="48.93716" lon="1.84467">
        <ele>31.86</ele>
        <time>2018-01-21T15:18:25Z</time>
      </trkpt>
      <trkpt lat="48.9373" lon="1.84457">
        <ele>32.09</ele>
        <time>2018-01-21T15:18:40Z</time>
      </trkpt>
      <trkpt lat="48.93747" lon="1.84439">
        <ele>32.06</ele>
        <time>2018-01-21T15:18:59Z</time>
      </trkpt>
      <trkpt lat="48.9375" lon="1.84436">
        <ele>32.47</ele>
        <time>2018-01-21T15:19:08Z</time>
      </trkpt>
      <trkpt lat="48.93759" lon="1.84426">
        <ele>33.61</ele>
        <time>2018-01-21T15:19:24Z</time>
      </trkpt>
      <trkpt lat="48.93764" lon="1.84419">
        <ele>33.74</ele>
        <time>2018-01-21T15:19:36Z</time>
      </trkpt>
      <trkpt lat="48.93761" lon="1.84406">
        <ele>33.07</ele>
        <time>2018-01-21T15:19:47Z</time>
      </trkpt>
      <trkpt lat="48.93759" lon="1.84402">
        <ele>32.78</ele>
        <time>2018-01-21T15:19:51Z</time>
      </trkpt>
      <trkpt lat="48.93753" lon="1.84386">
        <ele>32.5</ele>
        <time>2018-01-21T15:20:05Z</time>
      </trkpt>
      <trkpt lat="48.93744" lon="1.84359">
        <ele>32.98</ele>
        <time>2018-01-21T15:20:23Z</time>
      </trkpt>
      <trkpt lat="48.93743" lon="1.84357">
        <ele>33.08</ele>
        <time>2018-01-21T15:20:26Z</time>
      </trkpt>
      <trkpt lat="48.93742" lon="1.84354">
        <ele>32.75</ele>
        <time>2018-01-21T15:20:28Z</time>
      </trkpt>
      <trkpt lat="48.93733" lon="1.84331">
        <ele>33.53</ele>
        <time>2018-01-21T15:20:44Z</time>
      </trkpt>
      <trkpt lat="48.93723" lon="1.8431">
        <ele>31.88</ele>
        <time>2018-01-21T15:20:58Z</time>
      </trkpt>
      <trkpt lat="48.93711" lon="1.84288">
        <ele>29.35</ele>
        <time>2018-01-21T15:21:15Z</time>
      </trkpt>
      <trkpt lat="48.93708" lon="1.8428">
        <ele>29.44</ele>
        <time>2018-01-21T15:21:20Z</time>
      </trkpt>
      <trkpt lat="48.93705" lon="1.84271">
        <ele>29.4</ele>
        <time>2018-01-21T15:21:27Z</time>
      </trkpt>
      <trkpt lat="48.93695" lon="1.84246">
        <ele>28.66</ele>
        <time>2018-01-21T15:21:44Z</time>
      </trkpt>
      <trkpt lat="48.93698" lon="1.84237">
        <ele>28.64</ele>
        <time>2018-01-21T15:21:54Z</time>
      </trkpt>
      <trkpt lat="48.93712" lon="1.84218">
        <ele>27.77</ele>
        <time>2018-01-21T15:22:13Z</time>
      </trkpt>
      <trkpt lat="48.93723" lon="1.842">
        <ele>27.54</ele>
        <time>2018-01-21T15:22:28Z</time>
      </trkpt>
      <trkpt lat="48.93738" lon="1.84183">
        <ele>27.34</ele>
        <time>2018-01-21T15:22:44Z</time>
      </trkpt>
      <trkpt lat="48.93762" lon="1.84169">
        <ele>26.86</ele>
        <time>2018-01-21T15:23:04Z</time>
      </trkpt>
      <trkpt lat="48.93784" lon="1.84163">
        <ele>26.89</ele>
        <time>2018-01-21T15:23:24Z</time>
      </trkpt>
      <trkpt lat="48.93807" lon="1.84153">
        <ele>25.62</ele>
        <time>2018-01-21T15:23:46Z</time>
      </trkpt>
      <trkpt lat="48.93824" lon="1.84142">
        <ele>25.73</ele>
        <time>2018-01-21T15:24:02Z</time>
      </trkpt>
    </trkseg>
  </trk>
</gpx>